<?xml version="1.0" encoding="UTF-8" standalone="no" ?>
<gpx xmlns="http://www.topografix.com/GPX/1/1" xmlns:xsi="http://www.w3.org/2001/XMLSchema-instance" xsi:schemaLocation="http://www.topografix.com/GPX/1/1 http://www.topografix.com/GPX/1/1/gpx.xsd" version="1.1" creator="VisuGPX - https://www.visugpx.com">
  <metadata>
    <name>Roche du guet</name>
    <desc><![CDATA[rando de debut de saison]]></desc>
  </metadata>
  <trk>
    <name><![CDATA[la savoyarde, avec emilie]]></name>
    <desc><![CDATA[rando]]></desc>
    <trkseg>
      <trkpt lat="45.52755" lon="6.05521">
        <ele>930.20001220703</ele>
        <time>2012-03-10T11:16:58.000Z</time>
      </trkpt>
      <trkpt lat="45.52743" lon="6.05528">
        <ele>919</ele>
        <time>2012-03-10T11:17:02.000Z</time>
      </trkpt>
      <trkpt lat="45.5274" lon="6.0554">
        <ele>923.40002441406</ele>
        <time>2012-03-10T11:17:12.000Z</time>
      </trkpt>
      <trkpt lat="45.52737" lon="6.05551">
        <ele>924.79998779297</ele>
        <time>2012-03-10T11:17:21.000Z</time>
      </trkpt>
      <trkpt lat="45.52735" lon="6.05558">
        <ele>928.59997558594</ele>
        <time>2012-03-10T11:17:28.000Z</time>
      </trkpt>
      <trkpt lat="45.52732" lon="6.05561">
        <ele>929.20001220703</ele>
        <time>2012-03-10T11:17:32.000Z</time>
      </trkpt>
      <trkpt lat="45.52728" lon="6.05565">
        <ele>929.20001220703</ele>
        <time>2012-03-10T11:17:36.000Z</time>
      </trkpt>
      <trkpt lat="45.52724" lon="6.05567">
        <ele>927.20001220703</ele>
        <time>2012-03-10T11:17:38.000Z</time>
      </trkpt>
      <trkpt lat="45.52716" lon="6.05572">
        <ele>933</ele>
        <time>2012-03-10T11:17:44.000Z</time>
      </trkpt>
      <trkpt lat="45.52714" lon="6.05574">
        <ele>934.40002441406</ele>
        <time>2012-03-10T11:17:47.000Z</time>
      </trkpt>
      <trkpt lat="45.52712" lon="6.05577">
        <ele>935</ele>
        <time>2012-03-10T11:17:52.000Z</time>
      </trkpt>
      <trkpt lat="45.52707" lon="6.05582">
        <ele>935.40002441406</ele>
        <time>2012-03-10T11:17:58.000Z</time>
      </trkpt>
      <trkpt lat="45.52702" lon="6.05585">
        <ele>935.40002441406</ele>
        <time>2012-03-10T11:18:03.000Z</time>
      </trkpt>
      <trkpt lat="45.52694" lon="6.05592">
        <ele>935</ele>
        <time>2012-03-10T11:18:12.000Z</time>
      </trkpt>
      <trkpt lat="45.52689" lon="6.05597">
        <ele>934</ele>
        <time>2012-03-10T11:18:18.000Z</time>
      </trkpt>
      <trkpt lat="45.52686" lon="6.05606">
        <ele>933</ele>
        <time>2012-03-10T11:18:24.000Z</time>
      </trkpt>
      <trkpt lat="45.52684" lon="6.05609">
        <ele>932</ele>
        <time>2012-03-10T11:18:28.000Z</time>
      </trkpt>
      <trkpt lat="45.52677" lon="6.05618">
        <ele>932</ele>
        <time>2012-03-10T11:18:37.000Z</time>
      </trkpt>
      <trkpt lat="45.52674" lon="6.05624">
        <ele>933</ele>
        <time>2012-03-10T11:18:44.000Z</time>
      </trkpt>
      <trkpt lat="45.52673" lon="6.05626">
        <ele>935</ele>
        <time>2012-03-10T11:18:51.000Z</time>
      </trkpt>
      <trkpt lat="45.52679" lon="6.05624">
        <ele>945</ele>
        <time>2012-03-10T11:18:59.000Z</time>
      </trkpt>
      <trkpt lat="45.52684" lon="6.0563">
        <ele>945.40002441406</ele>
        <time>2012-03-10T11:19:03.000Z</time>
      </trkpt>
      <trkpt lat="45.52681" lon="6.05634">
        <ele>947</ele>
        <time>2012-03-10T11:19:09.000Z</time>
      </trkpt>
      <trkpt lat="45.52674" lon="6.05638">
        <ele>944.59997558594</ele>
        <time>2012-03-10T11:19:14.000Z</time>
      </trkpt>
      <trkpt lat="45.52668" lon="6.05643">
        <ele>942.20001220703</ele>
        <time>2012-03-10T11:19:19.000Z</time>
      </trkpt>
      <trkpt lat="45.52661" lon="6.05645">
        <ele>938.79998779297</ele>
        <time>2012-03-10T11:19:26.000Z</time>
      </trkpt>
      <trkpt lat="45.52652" lon="6.0565">
        <ele>939.20001220703</ele>
        <time>2012-03-10T11:19:33.000Z</time>
      </trkpt>
      <trkpt lat="45.52649" lon="6.05654">
        <ele>942.59997558594</ele>
        <time>2012-03-10T11:19:37.000Z</time>
      </trkpt>
      <trkpt lat="45.52648" lon="6.05656">
        <ele>939.20001220703</ele>
        <time>2012-03-10T11:19:46.000Z</time>
      </trkpt>
      <trkpt lat="45.52643" lon="6.05658">
        <ele>940.20001220703</ele>
        <time>2012-03-10T11:20:05.000Z</time>
      </trkpt>
      <trkpt lat="45.52638" lon="6.0566">
        <ele>941.59997558594</ele>
        <time>2012-03-10T11:20:13.000Z</time>
      </trkpt>
      <trkpt lat="45.52632" lon="6.05665">
        <ele>945</ele>
        <time>2012-03-10T11:20:19.000Z</time>
      </trkpt>
      <trkpt lat="45.52626" lon="6.05669">
        <ele>947.40002441406</ele>
        <time>2012-03-10T11:20:24.000Z</time>
      </trkpt>
      <trkpt lat="45.52622" lon="6.05671">
        <ele>946</ele>
        <time>2012-03-10T11:20:29.000Z</time>
      </trkpt>
      <trkpt lat="45.52618" lon="6.05674">
        <ele>948.40002441406</ele>
        <time>2012-03-10T11:20:34.000Z</time>
      </trkpt>
      <trkpt lat="45.52613" lon="6.05676">
        <ele>947.40002441406</ele>
        <time>2012-03-10T11:20:41.000Z</time>
      </trkpt>
      <trkpt lat="45.52609" lon="6.05677">
        <ele>947.40002441406</ele>
        <time>2012-03-10T11:20:46.000Z</time>
      </trkpt>
      <trkpt lat="45.52605" lon="6.05679">
        <ele>947.40002441406</ele>
        <time>2012-03-10T11:20:51.000Z</time>
      </trkpt>
      <trkpt lat="45.52599" lon="6.05683">
        <ele>945.40002441406</ele>
        <time>2012-03-10T11:20:57.000Z</time>
      </trkpt>
      <trkpt lat="45.52595" lon="6.05688">
        <ele>945</ele>
        <time>2012-03-10T11:21:03.000Z</time>
      </trkpt>
      <trkpt lat="45.52592" lon="6.05691">
        <ele>945.40002441406</ele>
        <time>2012-03-10T11:21:07.000Z</time>
      </trkpt>
      <trkpt lat="45.52585" lon="6.05695">
        <ele>949.79998779297</ele>
        <time>2012-03-10T11:21:14.000Z</time>
      </trkpt>
      <trkpt lat="45.52581" lon="6.05693">
        <ele>952.20001220703</ele>
        <time>2012-03-10T11:21:20.000Z</time>
      </trkpt>
      <trkpt lat="45.52576" lon="6.05693">
        <ele>952.20001220703</ele>
        <time>2012-03-10T11:21:25.000Z</time>
      </trkpt>
      <trkpt lat="45.52573" lon="6.05694">
        <ele>949.79998779297</ele>
        <time>2012-03-10T11:21:32.000Z</time>
      </trkpt>
      <trkpt lat="45.52563" lon="6.057">
        <ele>958</ele>
        <time>2012-03-10T11:22:46.000Z</time>
      </trkpt>
      <trkpt lat="45.52557" lon="6.057">
        <ele>955.20001220703</ele>
        <time>2012-03-10T11:22:54.000Z</time>
      </trkpt>
      <trkpt lat="45.52551" lon="6.05702">
        <ele>951.79998779297</ele>
        <time>2012-03-10T11:23:02.000Z</time>
      </trkpt>
      <trkpt lat="45.5254" lon="6.05704">
        <ele>947.40002441406</ele>
        <time>2012-03-10T11:23:11.000Z</time>
      </trkpt>
      <trkpt lat="45.52531" lon="6.05708">
        <ele>946</ele>
        <time>2012-03-10T11:23:19.000Z</time>
      </trkpt>
      <trkpt lat="45.52527" lon="6.05711">
        <ele>946</ele>
        <time>2012-03-10T11:23:23.000Z</time>
      </trkpt>
      <trkpt lat="45.52519" lon="6.05715">
        <ele>945.40002441406</ele>
        <time>2012-03-10T11:23:30.000Z</time>
      </trkpt>
      <trkpt lat="45.52515" lon="6.05716">
        <ele>945</ele>
        <time>2012-03-10T11:23:36.000Z</time>
      </trkpt>
      <trkpt lat="45.5251" lon="6.05718">
        <ele>945.40002441406</ele>
        <time>2012-03-10T11:23:43.000Z</time>
      </trkpt>
      <trkpt lat="45.52506" lon="6.05721">
        <ele>946</ele>
        <time>2012-03-10T11:23:48.000Z</time>
      </trkpt>
      <trkpt lat="45.52502" lon="6.05722">
        <ele>945</ele>
        <time>2012-03-10T11:23:52.000Z</time>
      </trkpt>
      <trkpt lat="45.52495" lon="6.05725">
        <ele>944.59997558594</ele>
        <time>2012-03-10T11:23:59.000Z</time>
      </trkpt>
      <trkpt lat="45.52491" lon="6.05728">
        <ele>944.59997558594</ele>
        <time>2012-03-10T11:24:05.000Z</time>
      </trkpt>
      <trkpt lat="45.52485" lon="6.0573">
        <ele>943.59997558594</ele>
        <time>2012-03-10T11:24:11.000Z</time>
      </trkpt>
      <trkpt lat="45.52484" lon="6.05732">
        <ele>944</ele>
        <time>2012-03-10T11:24:12.000Z</time>
      </trkpt>
      <trkpt lat="45.5248" lon="6.05734">
        <ele>942.20001220703</ele>
        <time>2012-03-10T11:24:16.000Z</time>
      </trkpt>
      <trkpt lat="45.5247" lon="6.05739">
        <ele>941.20001220703</ele>
        <time>2012-03-10T11:24:25.000Z</time>
      </trkpt>
      <trkpt lat="45.52469" lon="6.05739">
        <ele>941.20001220703</ele>
        <time>2012-03-10T11:24:26.000Z</time>
      </trkpt>
      <trkpt lat="45.52463" lon="6.05739">
        <ele>942.20001220703</ele>
        <time>2012-03-10T11:24:31.000Z</time>
      </trkpt>
      <trkpt lat="45.52454" lon="6.05743">
        <ele>947.40002441406</ele>
        <time>2012-03-10T11:24:40.000Z</time>
      </trkpt>
      <trkpt lat="45.5245" lon="6.05746">
        <ele>949.40002441406</ele>
        <time>2012-03-10T11:24:48.000Z</time>
      </trkpt>
      <trkpt lat="45.52444" lon="6.05753">
        <ele>952.20001220703</ele>
        <time>2012-03-10T11:24:56.000Z</time>
      </trkpt>
      <trkpt lat="45.52443" lon="6.05756">
        <ele>951.79998779297</ele>
        <time>2012-03-10T11:24:58.000Z</time>
      </trkpt>
      <trkpt lat="45.52439" lon="6.05767">
        <ele>953.20001220703</ele>
        <time>2012-03-10T11:25:06.000Z</time>
      </trkpt>
      <trkpt lat="45.52439" lon="6.05778">
        <ele>952.20001220703</ele>
        <time>2012-03-10T11:25:12.000Z</time>
      </trkpt>
      <trkpt lat="45.52436" lon="6.05785">
        <ele>952.20001220703</ele>
        <time>2012-03-10T11:25:18.000Z</time>
      </trkpt>
      <trkpt lat="45.52433" lon="6.05796">
        <ele>952.20001220703</ele>
        <time>2012-03-10T11:25:26.000Z</time>
      </trkpt>
      <trkpt lat="45.52431" lon="6.05808">
        <ele>953.20001220703</ele>
        <time>2012-03-10T11:25:34.000Z</time>
      </trkpt>
      <trkpt lat="45.52431" lon="6.0582">
        <ele>953.20001220703</ele>
        <time>2012-03-10T11:25:42.000Z</time>
      </trkpt>
      <trkpt lat="45.52429" lon="6.05831">
        <ele>953.20001220703</ele>
        <time>2012-03-10T11:25:49.000Z</time>
      </trkpt>
      <trkpt lat="45.52429" lon="6.05844">
        <ele>951.79998779297</ele>
        <time>2012-03-10T11:25:58.000Z</time>
      </trkpt>
      <trkpt lat="45.52426" lon="6.05855">
        <ele>950.79998779297</ele>
        <time>2012-03-10T11:26:05.000Z</time>
      </trkpt>
      <trkpt lat="45.52425" lon="6.05856">
        <ele>950.79998779297</ele>
        <time>2012-03-10T11:26:06.000Z</time>
      </trkpt>
      <trkpt lat="45.52421" lon="6.0586">
        <ele>950.40002441406</ele>
        <time>2012-03-10T11:26:13.000Z</time>
      </trkpt>
      <trkpt lat="45.52417" lon="6.05861">
        <ele>950.40002441406</ele>
        <time>2012-03-10T11:26:19.000Z</time>
      </trkpt>
      <trkpt lat="45.52413" lon="6.05864">
        <ele>950.40002441406</ele>
        <time>2012-03-10T11:26:25.000Z</time>
      </trkpt>
      <trkpt lat="45.5241" lon="6.05866">
        <ele>951.79998779297</ele>
        <time>2012-03-10T11:26:31.000Z</time>
      </trkpt>
      <trkpt lat="45.52409" lon="6.05867">
        <ele>953.59997558594</ele>
        <time>2012-03-10T11:26:39.000Z</time>
      </trkpt>
      <trkpt lat="45.52403" lon="6.05869">
        <ele>955.20001220703</ele>
        <time>2012-03-10T11:26:46.000Z</time>
      </trkpt>
      <trkpt lat="45.52397" lon="6.05867">
        <ele>951.79998779297</ele>
        <time>2012-03-10T11:26:54.000Z</time>
      </trkpt>
      <trkpt lat="45.52391" lon="6.05863">
        <ele>947.79998779297</ele>
        <time>2012-03-10T11:27:01.000Z</time>
      </trkpt>
      <trkpt lat="45.52387" lon="6.0586">
        <ele>944</ele>
        <time>2012-03-10T11:27:08.000Z</time>
      </trkpt>
      <trkpt lat="45.52379" lon="6.0586">
        <ele>944</ele>
        <time>2012-03-10T11:27:15.000Z</time>
      </trkpt>
      <trkpt lat="45.52376" lon="6.05862">
        <ele>944.59997558594</ele>
        <time>2012-03-10T11:27:18.000Z</time>
      </trkpt>
      <trkpt lat="45.52368" lon="6.05865">
        <ele>947</ele>
        <time>2012-03-10T11:27:24.000Z</time>
      </trkpt>
      <trkpt lat="45.5236" lon="6.05869">
        <ele>949.40002441406</ele>
        <time>2012-03-10T11:27:30.000Z</time>
      </trkpt>
      <trkpt lat="45.52354" lon="6.05871">
        <ele>948.79998779297</ele>
        <time>2012-03-10T11:27:35.000Z</time>
      </trkpt>
      <trkpt lat="45.52352" lon="6.05872">
        <ele>948.79998779297</ele>
        <time>2012-03-10T11:27:37.000Z</time>
      </trkpt>
      <trkpt lat="45.52346" lon="6.05872">
        <ele>949.40002441406</ele>
        <time>2012-03-10T11:27:42.000Z</time>
      </trkpt>
      <trkpt lat="45.52343" lon="6.05873">
        <ele>949.40002441406</ele>
        <time>2012-03-10T11:27:45.000Z</time>
      </trkpt>
      <trkpt lat="45.52335" lon="6.05875">
        <ele>951.20001220703</ele>
        <time>2012-03-10T11:27:52.000Z</time>
      </trkpt>
      <trkpt lat="45.52329" lon="6.05875">
        <ele>948.79998779297</ele>
        <time>2012-03-10T11:27:59.000Z</time>
      </trkpt>
      <trkpt lat="45.52321" lon="6.05878">
        <ele>952.20001220703</ele>
        <time>2012-03-10T11:28:06.000Z</time>
      </trkpt>
      <trkpt lat="45.52316" lon="6.05879">
        <ele>954.20001220703</ele>
        <time>2012-03-10T11:28:10.000Z</time>
      </trkpt>
      <trkpt lat="45.52308" lon="6.0588">
        <ele>960</ele>
        <time>2012-03-10T11:28:17.000Z</time>
      </trkpt>
      <trkpt lat="45.52302" lon="6.05883">
        <ele>964.79998779297</ele>
        <time>2012-03-10T11:28:25.000Z</time>
      </trkpt>
      <trkpt lat="45.52295" lon="6.05881">
        <ele>960.40002441406</ele>
        <time>2012-03-10T11:28:31.000Z</time>
      </trkpt>
      <trkpt lat="45.52289" lon="6.05882">
        <ele>964.79998779297</ele>
        <time>2012-03-10T11:28:39.000Z</time>
      </trkpt>
      <trkpt lat="45.52281" lon="6.05878">
        <ele>962.79998779297</ele>
        <time>2012-03-10T11:28:49.000Z</time>
      </trkpt>
      <trkpt lat="45.52276" lon="6.05878">
        <ele>964.20001220703</ele>
        <time>2012-03-10T11:28:58.000Z</time>
      </trkpt>
      <trkpt lat="45.52273" lon="6.05877">
        <ele>963.79998779297</ele>
        <time>2012-03-10T11:29:04.000Z</time>
      </trkpt>
      <trkpt lat="45.52266" lon="6.05877">
        <ele>966.20001220703</ele>
        <time>2012-03-10T11:29:12.000Z</time>
      </trkpt>
      <trkpt lat="45.52263" lon="6.05877">
        <ele>968.59997558594</ele>
        <time>2012-03-10T11:29:18.000Z</time>
      </trkpt>
      <trkpt lat="45.52258" lon="6.0588">
        <ele>969</ele>
        <time>2012-03-10T11:29:26.000Z</time>
      </trkpt>
      <trkpt lat="45.52256" lon="6.05884">
        <ele>969.59997558594</ele>
        <time>2012-03-10T11:29:31.000Z</time>
      </trkpt>
      <trkpt lat="45.52256" lon="6.05889">
        <ele>969.59997558594</ele>
        <time>2012-03-10T11:29:36.000Z</time>
      </trkpt>
      <trkpt lat="45.52255" lon="6.05894">
        <ele>970</ele>
        <time>2012-03-10T11:29:42.000Z</time>
      </trkpt>
      <trkpt lat="45.52255" lon="6.059">
        <ele>974.40002441406</ele>
        <time>2012-03-10T11:29:49.000Z</time>
      </trkpt>
      <trkpt lat="45.52255" lon="6.05903">
        <ele>979.20001220703</ele>
        <time>2012-03-10T11:29:56.000Z</time>
      </trkpt>
      <trkpt lat="45.52254" lon="6.05908">
        <ele>982</ele>
        <time>2012-03-10T11:30:01.000Z</time>
      </trkpt>
      <trkpt lat="45.52255" lon="6.05917">
        <ele>983.40002441406</ele>
        <time>2012-03-10T11:30:09.000Z</time>
      </trkpt>
      <trkpt lat="45.52255" lon="6.05923">
        <ele>985</ele>
        <time>2012-03-10T11:30:16.000Z</time>
      </trkpt>
      <trkpt lat="45.52256" lon="6.05931">
        <ele>985.79998779297</ele>
        <time>2012-03-10T11:30:25.000Z</time>
      </trkpt>
      <trkpt lat="45.52255" lon="6.05937">
        <ele>983.40002441406</ele>
        <time>2012-03-10T11:30:31.000Z</time>
      </trkpt>
      <trkpt lat="45.52252" lon="6.05943">
        <ele>981</ele>
        <time>2012-03-10T11:30:38.000Z</time>
      </trkpt>
      <trkpt lat="45.52252" lon="6.05946">
        <ele>982</ele>
        <time>2012-03-10T11:30:42.000Z</time>
      </trkpt>
      <trkpt lat="45.52251" lon="6.0595">
        <ele>982.59997558594</ele>
        <time>2012-03-10T11:30:49.000Z</time>
      </trkpt>
      <trkpt lat="45.52249" lon="6.05953">
        <ele>982.59997558594</ele>
        <time>2012-03-10T11:30:55.000Z</time>
      </trkpt>
      <trkpt lat="45.52247" lon="6.05957">
        <ele>984.40002441406</ele>
        <time>2012-03-10T11:31:04.000Z</time>
      </trkpt>
      <trkpt lat="45.52246" lon="6.0596">
        <ele>986.79998779297</ele>
        <time>2012-03-10T11:31:11.000Z</time>
      </trkpt>
      <trkpt lat="45.52246" lon="6.05962">
        <ele>990.20001220703</ele>
        <time>2012-03-10T11:31:17.000Z</time>
      </trkpt>
      <trkpt lat="45.52247" lon="6.0597">
        <ele>990.59997558594</ele>
        <time>2012-03-10T11:31:23.000Z</time>
      </trkpt>
      <trkpt lat="45.52243" lon="6.05974">
        <ele>986.40002441406</ele>
        <time>2012-03-10T11:31:29.000Z</time>
      </trkpt>
      <trkpt lat="45.52238" lon="6.05979">
        <ele>985.79998779297</ele>
        <time>2012-03-10T11:31:38.000Z</time>
      </trkpt>
      <trkpt lat="45.52239" lon="6.05986">
        <ele>987.79998779297</ele>
        <time>2012-03-10T11:31:44.000Z</time>
      </trkpt>
      <trkpt lat="45.52234" lon="6.05991">
        <ele>990.59997558594</ele>
        <time>2012-03-10T11:31:51.000Z</time>
      </trkpt>
      <trkpt lat="45.52231" lon="6.05997">
        <ele>992.20001220703</ele>
        <time>2012-03-10T11:31:58.000Z</time>
      </trkpt>
      <trkpt lat="45.5223" lon="6.06">
        <ele>998.40002441406</ele>
        <time>2012-03-10T11:32:04.000Z</time>
      </trkpt>
      <trkpt lat="45.52218" lon="6.06004">
        <ele>1009</ele>
        <time>2012-03-10T11:32:31.000Z</time>
      </trkpt>
      <trkpt lat="45.52211" lon="6.06003">
        <ele>1009</ele>
        <time>2012-03-10T11:32:37.000Z</time>
      </trkpt>
      <trkpt lat="45.52207" lon="6.06003">
        <ele>1006</ele>
        <time>2012-03-10T11:32:43.000Z</time>
      </trkpt>
      <trkpt lat="45.52203" lon="6.06001">
        <ele>1002.5999755859</ele>
        <time>2012-03-10T11:32:52.000Z</time>
      </trkpt>
      <trkpt lat="45.522" lon="6.06001">
        <ele>1002.5999755859</ele>
        <time>2012-03-10T11:32:58.000Z</time>
      </trkpt>
      <trkpt lat="45.52199" lon="6.05999">
        <ele>1000.799987793</ele>
        <time>2012-03-10T11:33:04.000Z</time>
      </trkpt>
      <trkpt lat="45.52197" lon="6.05999">
        <ele>1000.200012207</ele>
        <time>2012-03-10T11:33:06.000Z</time>
      </trkpt>
      <trkpt lat="45.52191" lon="6.06001">
        <ele>999.79998779297</ele>
        <time>2012-03-10T11:33:13.000Z</time>
      </trkpt>
      <trkpt lat="45.52186" lon="6.06004">
        <ele>1007.4000244141</ele>
        <time>2012-03-10T11:33:19.000Z</time>
      </trkpt>
      <trkpt lat="45.52184" lon="6.06009">
        <ele>1013.799987793</ele>
        <time>2012-03-10T11:33:32.000Z</time>
      </trkpt>
      <trkpt lat="45.52178" lon="6.06008">
        <ele>1020</ele>
        <time>2012-03-10T11:33:40.000Z</time>
      </trkpt>
      <trkpt lat="45.52173" lon="6.06004">
        <ele>1016.5999755859</ele>
        <time>2012-03-10T11:33:52.000Z</time>
      </trkpt>
      <trkpt lat="45.52171" lon="6.06002">
        <ele>1013.799987793</ele>
        <time>2012-03-10T11:33:57.000Z</time>
      </trkpt>
      <trkpt lat="45.52167" lon="6.06">
        <ele>1011.799987793</ele>
        <time>2012-03-10T11:34:05.000Z</time>
      </trkpt>
      <trkpt lat="45.52163" lon="6.06001">
        <ele>1010.799987793</ele>
        <time>2012-03-10T11:34:13.000Z</time>
      </trkpt>
      <trkpt lat="45.52166" lon="6.06004">
        <ele>1014.799987793</ele>
        <time>2012-03-10T11:34:20.000Z</time>
      </trkpt>
      <trkpt lat="45.5217" lon="6.06004">
        <ele>1019.5999755859</ele>
        <time>2012-03-10T11:34:25.000Z</time>
      </trkpt>
      <trkpt lat="45.52174" lon="6.06007">
        <ele>1023.4000244141</ele>
        <time>2012-03-10T11:34:31.000Z</time>
      </trkpt>
      <trkpt lat="45.52174" lon="6.06012">
        <ele>1022</ele>
        <time>2012-03-10T11:34:37.000Z</time>
      </trkpt>
      <trkpt lat="45.52176" lon="6.06014">
        <ele>1023.4000244141</ele>
        <time>2012-03-10T11:34:42.000Z</time>
      </trkpt>
      <trkpt lat="45.52177" lon="6.06016">
        <ele>1024.8000488281</ele>
        <time>2012-03-10T11:34:48.000Z</time>
      </trkpt>
      <trkpt lat="45.52182" lon="6.06016">
        <ele>1026.1999511719</ele>
        <time>2012-03-10T11:34:58.000Z</time>
      </trkpt>
      <trkpt lat="45.52186" lon="6.06025">
        <ele>1023.799987793</ele>
        <time>2012-03-10T11:35:07.000Z</time>
      </trkpt>
      <trkpt lat="45.52185" lon="6.06032">
        <ele>1019</ele>
        <time>2012-03-10T11:35:13.000Z</time>
      </trkpt>
      <trkpt lat="45.52184" lon="6.0604">
        <ele>1014.799987793</ele>
        <time>2012-03-10T11:35:21.000Z</time>
      </trkpt>
      <trkpt lat="45.52183" lon="6.06044">
        <ele>1013.799987793</ele>
        <time>2012-03-10T11:35:26.000Z</time>
      </trkpt>
      <trkpt lat="45.52179" lon="6.06049">
        <ele>1014.799987793</ele>
        <time>2012-03-10T11:35:35.000Z</time>
      </trkpt>
      <trkpt lat="45.52174" lon="6.06052">
        <ele>1014.200012207</ele>
        <time>2012-03-10T11:35:41.000Z</time>
      </trkpt>
      <trkpt lat="45.52171" lon="6.06055">
        <ele>1017.5999755859</ele>
        <time>2012-03-10T11:35:47.000Z</time>
      </trkpt>
      <trkpt lat="45.52171" lon="6.06058">
        <ele>1017.5999755859</ele>
        <time>2012-03-10T11:35:52.000Z</time>
      </trkpt>
      <trkpt lat="45.52169" lon="6.06056">
        <ele>1016.5999755859</ele>
        <time>2012-03-10T11:35:58.000Z</time>
      </trkpt>
      <trkpt lat="45.52167" lon="6.06056">
        <ele>1016.200012207</ele>
        <time>2012-03-10T11:36:03.000Z</time>
      </trkpt>
      <trkpt lat="45.52166" lon="6.0606">
        <ele>1015.5999755859</ele>
        <time>2012-03-10T11:36:08.000Z</time>
      </trkpt>
      <trkpt lat="45.52162" lon="6.06061">
        <ele>1015.5999755859</ele>
        <time>2012-03-10T11:36:14.000Z</time>
      </trkpt>
      <trkpt lat="45.5216" lon="6.0606">
        <ele>1016.200012207</ele>
        <time>2012-03-10T11:36:18.000Z</time>
      </trkpt>
      <trkpt lat="45.52158" lon="6.0606">
        <ele>1018</ele>
        <time>2012-03-10T11:36:23.000Z</time>
      </trkpt>
      <trkpt lat="45.52154" lon="6.06059">
        <ele>1019</ele>
        <time>2012-03-10T11:36:29.000Z</time>
      </trkpt>
      <trkpt lat="45.5215" lon="6.06058">
        <ele>1020</ele>
        <time>2012-03-10T11:36:35.000Z</time>
      </trkpt>
      <trkpt lat="45.52144" lon="6.06059">
        <ele>1021.4000244141</ele>
        <time>2012-03-10T11:36:42.000Z</time>
      </trkpt>
      <trkpt lat="45.5214" lon="6.06061">
        <ele>1021.4000244141</ele>
        <time>2012-03-10T11:36:47.000Z</time>
      </trkpt>
      <trkpt lat="45.52139" lon="6.06063">
        <ele>1020</ele>
        <time>2012-03-10T11:36:52.000Z</time>
      </trkpt>
      <trkpt lat="45.52137" lon="6.06067">
        <ele>1019</ele>
        <time>2012-03-10T11:36:58.000Z</time>
      </trkpt>
      <trkpt lat="45.52134" lon="6.06073">
        <ele>1020.4000244141</ele>
        <time>2012-03-10T11:37:03.000Z</time>
      </trkpt>
      <trkpt lat="45.52133" lon="6.06078">
        <ele>1018.5999755859</ele>
        <time>2012-03-10T11:37:06.000Z</time>
      </trkpt>
      <trkpt lat="45.52126" lon="6.06082">
        <ele>1017.200012207</ele>
        <time>2012-03-10T11:37:14.000Z</time>
      </trkpt>
      <trkpt lat="45.52123" lon="6.06082">
        <ele>1015.200012207</ele>
        <time>2012-03-10T11:37:18.000Z</time>
      </trkpt>
      <trkpt lat="45.52118" lon="6.06086">
        <ele>1015.5999755859</ele>
        <time>2012-03-10T11:37:24.000Z</time>
      </trkpt>
      <trkpt lat="45.52117" lon="6.06087">
        <ele>1015.200012207</ele>
        <time>2012-03-10T11:37:26.000Z</time>
      </trkpt>
      <trkpt lat="45.52111" lon="6.06094">
        <ele>1018</ele>
        <time>2012-03-10T11:37:32.000Z</time>
      </trkpt>
      <trkpt lat="45.52108" lon="6.06099">
        <ele>1020</ele>
        <time>2012-03-10T11:37:36.000Z</time>
      </trkpt>
      <trkpt lat="45.52104" lon="6.06106">
        <ele>1022</ele>
        <time>2012-03-10T11:37:42.000Z</time>
      </trkpt>
      <trkpt lat="45.52103" lon="6.06112">
        <ele>1021</ele>
        <time>2012-03-10T11:37:54.000Z</time>
      </trkpt>
      <trkpt lat="45.52099" lon="6.06111">
        <ele>1018.5999755859</ele>
        <time>2012-03-10T11:38:01.000Z</time>
      </trkpt>
      <trkpt lat="45.52097" lon="6.06111">
        <ele>1017.5999755859</ele>
        <time>2012-03-10T11:38:06.000Z</time>
      </trkpt>
      <trkpt lat="45.52094" lon="6.06108">
        <ele>1017.200012207</ele>
        <time>2012-03-10T11:38:15.000Z</time>
      </trkpt>
      <trkpt lat="45.5209" lon="6.06108">
        <ele>1016.5999755859</ele>
        <time>2012-03-10T11:38:19.000Z</time>
      </trkpt>
      <trkpt lat="45.52085" lon="6.06109">
        <ele>1017.5999755859</ele>
        <time>2012-03-10T11:38:25.000Z</time>
      </trkpt>
      <trkpt lat="45.52081" lon="6.06109">
        <ele>1016.200012207</ele>
        <time>2012-03-10T11:38:31.000Z</time>
      </trkpt>
      <trkpt lat="45.52077" lon="6.06107">
        <ele>1015.5999755859</ele>
        <time>2012-03-10T11:38:36.000Z</time>
      </trkpt>
      <trkpt lat="45.52069" lon="6.06109">
        <ele>1014.799987793</ele>
        <time>2012-03-10T11:38:43.000Z</time>
      </trkpt>
      <trkpt lat="45.52062" lon="6.06103">
        <ele>1011.4000244141</ele>
        <time>2012-03-10T11:38:51.000Z</time>
      </trkpt>
      <trkpt lat="45.52058" lon="6.061">
        <ele>1010</ele>
        <time>2012-03-10T11:38:57.000Z</time>
      </trkpt>
      <trkpt lat="45.52055" lon="6.06099">
        <ele>1011.4000244141</ele>
        <time>2012-03-10T11:39:03.000Z</time>
      </trkpt>
      <trkpt lat="45.5205" lon="6.06095">
        <ele>1010</ele>
        <time>2012-03-10T11:39:09.000Z</time>
      </trkpt>
      <trkpt lat="45.52044" lon="6.06093">
        <ele>1009</ele>
        <time>2012-03-10T11:39:15.000Z</time>
      </trkpt>
      <trkpt lat="45.52041" lon="6.06092">
        <ele>1010</ele>
        <time>2012-03-10T11:39:19.000Z</time>
      </trkpt>
      <trkpt lat="45.52037" lon="6.06089">
        <ele>1011.4000244141</ele>
        <time>2012-03-10T11:39:25.000Z</time>
      </trkpt>
      <trkpt lat="45.52031" lon="6.06083">
        <ele>1010.799987793</ele>
        <time>2012-03-10T11:39:32.000Z</time>
      </trkpt>
      <trkpt lat="45.52028" lon="6.06079">
        <ele>1011.799987793</ele>
        <time>2012-03-10T11:39:37.000Z</time>
      </trkpt>
      <trkpt lat="45.52022" lon="6.06071">
        <ele>1014.799987793</ele>
        <time>2012-03-10T11:39:46.000Z</time>
      </trkpt>
      <trkpt lat="45.52019" lon="6.06065">
        <ele>1015.200012207</ele>
        <time>2012-03-10T11:39:51.000Z</time>
      </trkpt>
      <trkpt lat="45.52015" lon="6.06058">
        <ele>1016.5999755859</ele>
        <time>2012-03-10T11:39:58.000Z</time>
      </trkpt>
      <trkpt lat="45.52015" lon="6.06052">
        <ele>1016.200012207</ele>
        <time>2012-03-10T11:40:03.000Z</time>
      </trkpt>
      <trkpt lat="45.52016" lon="6.06045">
        <ele>1015.200012207</ele>
        <time>2012-03-10T11:40:08.000Z</time>
      </trkpt>
      <trkpt lat="45.52016" lon="6.06037">
        <ele>1014.799987793</ele>
        <time>2012-03-10T11:40:17.000Z</time>
      </trkpt>
      <trkpt lat="45.52016" lon="6.06032">
        <ele>1015.5999755859</ele>
        <time>2012-03-10T11:40:23.000Z</time>
      </trkpt>
      <trkpt lat="45.52017" lon="6.06024">
        <ele>1016.200012207</ele>
        <time>2012-03-10T11:40:29.000Z</time>
      </trkpt>
      <trkpt lat="45.52018" lon="6.06016">
        <ele>1018.5999755859</ele>
        <time>2012-03-10T11:40:36.000Z</time>
      </trkpt>
      <trkpt lat="45.52016" lon="6.06008">
        <ele>1021.4000244141</ele>
        <time>2012-03-10T11:40:43.000Z</time>
      </trkpt>
      <trkpt lat="45.52016" lon="6.06003">
        <ele>1026.8000488281</ele>
        <time>2012-03-10T11:40:50.000Z</time>
      </trkpt>
      <trkpt lat="45.52015" lon="6.05997">
        <ele>1029.5999755859</ele>
        <time>2012-03-10T11:40:56.000Z</time>
      </trkpt>
      <trkpt lat="45.52012" lon="6.05993">
        <ele>1031.5999755859</ele>
        <time>2012-03-10T11:41:01.000Z</time>
      </trkpt>
      <trkpt lat="45.52013" lon="6.05988">
        <ele>1033.4000244141</ele>
        <time>2012-03-10T11:41:06.000Z</time>
      </trkpt>
      <trkpt lat="45.52014" lon="6.05978">
        <ele>1035.4000244141</ele>
        <time>2012-03-10T11:41:15.000Z</time>
      </trkpt>
      <trkpt lat="45.52015" lon="6.05971">
        <ele>1032.4000244141</ele>
        <time>2012-03-10T11:41:21.000Z</time>
      </trkpt>
      <trkpt lat="45.52016" lon="6.05966">
        <ele>1031.5999755859</ele>
        <time>2012-03-10T11:41:27.000Z</time>
      </trkpt>
      <trkpt lat="45.52017" lon="6.05962">
        <ele>1032.4000244141</ele>
        <time>2012-03-10T11:41:32.000Z</time>
      </trkpt>
      <trkpt lat="45.52018" lon="6.05956">
        <ele>1034.4000244141</ele>
        <time>2012-03-10T11:41:39.000Z</time>
      </trkpt>
      <trkpt lat="45.52021" lon="6.05947">
        <ele>1035.8000488281</ele>
        <time>2012-03-10T11:41:48.000Z</time>
      </trkpt>
      <trkpt lat="45.52025" lon="6.05943">
        <ele>1037.1999511719</ele>
        <time>2012-03-10T11:41:55.000Z</time>
      </trkpt>
      <trkpt lat="45.52027" lon="6.05936">
        <ele>1034.4000244141</ele>
        <time>2012-03-10T11:42:02.000Z</time>
      </trkpt>
      <trkpt lat="45.52031" lon="6.0593">
        <ele>1034</ele>
        <time>2012-03-10T11:42:08.000Z</time>
      </trkpt>
      <trkpt lat="45.52033" lon="6.05927">
        <ele>1034.8000488281</ele>
        <time>2012-03-10T11:42:13.000Z</time>
      </trkpt>
      <trkpt lat="45.52034" lon="6.05921">
        <ele>1035.8000488281</ele>
        <time>2012-03-10T11:42:21.000Z</time>
      </trkpt>
      <trkpt lat="45.52034" lon="6.05916">
        <ele>1037.8000488281</ele>
        <time>2012-03-10T11:42:27.000Z</time>
      </trkpt>
      <trkpt lat="45.52034" lon="6.05915">
        <ele>1038.8000488281</ele>
        <time>2012-03-10T11:42:33.000Z</time>
      </trkpt>
      <trkpt lat="45.52031" lon="6.05913">
        <ele>1042.5999755859</ele>
        <time>2012-03-10T11:42:41.000Z</time>
      </trkpt>
      <trkpt lat="45.52028" lon="6.05914">
        <ele>1045</ele>
        <time>2012-03-10T11:42:48.000Z</time>
      </trkpt>
      <trkpt lat="45.52024" lon="6.0591">
        <ele>1045.4000244141</ele>
        <time>2012-03-10T11:42:54.000Z</time>
      </trkpt>
      <trkpt lat="45.52022" lon="6.05909">
        <ele>1047.8000488281</ele>
        <time>2012-03-10T11:43:01.000Z</time>
      </trkpt>
      <trkpt lat="45.52018" lon="6.05908">
        <ele>1047.8000488281</ele>
        <time>2012-03-10T11:43:07.000Z</time>
      </trkpt>
      <trkpt lat="45.52014" lon="6.05904">
        <ele>1047.8000488281</ele>
        <time>2012-03-10T11:43:15.000Z</time>
      </trkpt>
      <trkpt lat="45.52013" lon="6.05902">
        <ele>1048.4000244141</ele>
        <time>2012-03-10T11:43:20.000Z</time>
      </trkpt>
      <trkpt lat="45.52011" lon="6.05899">
        <ele>1046.4000244141</ele>
        <time>2012-03-10T11:43:26.000Z</time>
      </trkpt>
      <trkpt lat="45.52008" lon="6.05896">
        <ele>1046.4000244141</ele>
        <time>2012-03-10T11:43:33.000Z</time>
      </trkpt>
      <trkpt lat="45.52005" lon="6.05897">
        <ele>1048.4000244141</ele>
        <time>2012-03-10T11:43:41.000Z</time>
      </trkpt>
      <trkpt lat="45.52002" lon="6.05894">
        <ele>1049.4000244141</ele>
        <time>2012-03-10T11:43:49.000Z</time>
      </trkpt>
      <trkpt lat="45.51998" lon="6.05891">
        <ele>1049.8000488281</ele>
        <time>2012-03-10T11:43:55.000Z</time>
      </trkpt>
      <trkpt lat="45.51994" lon="6.05888">
        <ele>1049.8000488281</ele>
        <time>2012-03-10T11:44:02.000Z</time>
      </trkpt>
      <trkpt lat="45.51989" lon="6.05888">
        <ele>1052.5999755859</ele>
        <time>2012-03-10T11:44:09.000Z</time>
      </trkpt>
      <trkpt lat="45.51985" lon="6.05887">
        <ele>1053.5999755859</ele>
        <time>2012-03-10T11:44:16.000Z</time>
      </trkpt>
      <trkpt lat="45.51982" lon="6.05884">
        <ele>1054.5999755859</ele>
        <time>2012-03-10T11:44:21.000Z</time>
      </trkpt>
      <trkpt lat="45.51978" lon="6.0588">
        <ele>1055</ele>
        <time>2012-03-10T11:44:27.000Z</time>
      </trkpt>
      <trkpt lat="45.51974" lon="6.05876">
        <ele>1054.1999511719</ele>
        <time>2012-03-10T11:44:33.000Z</time>
      </trkpt>
      <trkpt lat="45.51972" lon="6.0587">
        <ele>1051.1999511719</ele>
        <time>2012-03-10T11:44:39.000Z</time>
      </trkpt>
      <trkpt lat="45.51966" lon="6.05865">
        <ele>1056.5999755859</ele>
        <time>2012-03-10T11:44:48.000Z</time>
      </trkpt>
      <trkpt lat="45.51962" lon="6.05861">
        <ele>1055.5999755859</ele>
        <time>2012-03-10T11:44:55.000Z</time>
      </trkpt>
      <trkpt lat="45.51958" lon="6.05856">
        <ele>1055.5999755859</ele>
        <time>2012-03-10T11:45:01.000Z</time>
      </trkpt>
      <trkpt lat="45.51955" lon="6.05851">
        <ele>1054.5999755859</ele>
        <time>2012-03-10T11:45:07.000Z</time>
      </trkpt>
      <trkpt lat="45.51949" lon="6.05849">
        <ele>1054.1999511719</ele>
        <time>2012-03-10T11:45:13.000Z</time>
      </trkpt>
      <trkpt lat="45.51945" lon="6.05848">
        <ele>1056</ele>
        <time>2012-03-10T11:45:18.000Z</time>
      </trkpt>
      <trkpt lat="45.51941" lon="6.05844">
        <ele>1055.5999755859</ele>
        <time>2012-03-10T11:45:24.000Z</time>
      </trkpt>
      <trkpt lat="45.51936" lon="6.05839">
        <ele>1055.5999755859</ele>
        <time>2012-03-10T11:45:29.000Z</time>
      </trkpt>
      <trkpt lat="45.51934" lon="6.05835">
        <ele>1057.4000244141</ele>
        <time>2012-03-10T11:45:35.000Z</time>
      </trkpt>
      <trkpt lat="45.51932" lon="6.05835">
        <ele>1058.4000244141</ele>
        <time>2012-03-10T11:45:40.000Z</time>
      </trkpt>
      <trkpt lat="45.51927" lon="6.05837">
        <ele>1060.4000244141</ele>
        <time>2012-03-10T11:45:46.000Z</time>
      </trkpt>
      <trkpt lat="45.51923" lon="6.05839">
        <ele>1060.8000488281</ele>
        <time>2012-03-10T11:45:53.000Z</time>
      </trkpt>
      <trkpt lat="45.51923" lon="6.05837">
        <ele>1060.8000488281</ele>
        <time>2012-03-10T11:45:58.000Z</time>
      </trkpt>
      <trkpt lat="45.5192" lon="6.05834">
        <ele>1059.4000244141</ele>
        <time>2012-03-10T11:46:08.000Z</time>
      </trkpt>
      <trkpt lat="45.51917" lon="6.05832">
        <ele>1057.4000244141</ele>
        <time>2012-03-10T11:46:12.000Z</time>
      </trkpt>
      <trkpt lat="45.51915" lon="6.05834">
        <ele>1056.5999755859</ele>
        <time>2012-03-10T11:46:18.000Z</time>
      </trkpt>
      <trkpt lat="45.51912" lon="6.05831">
        <ele>1055</ele>
        <time>2012-03-10T11:46:22.000Z</time>
      </trkpt>
      <trkpt lat="45.51908" lon="6.05825">
        <ele>1053.5999755859</ele>
        <time>2012-03-10T11:46:28.000Z</time>
      </trkpt>
      <trkpt lat="45.51902" lon="6.0582">
        <ele>1050.8000488281</ele>
        <time>2012-03-10T11:46:33.000Z</time>
      </trkpt>
      <trkpt lat="45.51899" lon="6.05817">
        <ele>1050.8000488281</ele>
        <time>2012-03-10T11:46:37.000Z</time>
      </trkpt>
      <trkpt lat="45.51896" lon="6.05818">
        <ele>1050.1999511719</ele>
        <time>2012-03-10T11:46:43.000Z</time>
      </trkpt>
      <trkpt lat="45.51896" lon="6.05819">
        <ele>1049.4000244141</ele>
        <time>2012-03-10T11:46:51.000Z</time>
      </trkpt>
      <trkpt lat="45.51897" lon="6.05816">
        <ele>1047.8000488281</ele>
        <time>2012-03-10T11:47:03.000Z</time>
      </trkpt>
      <trkpt lat="45.51897" lon="6.05817">
        <ele>1047.8000488281</ele>
        <time>2012-03-10T11:47:09.000Z</time>
      </trkpt>
      <trkpt lat="45.51897" lon="6.05817">
        <ele>1047.4000244141</ele>
        <time>2012-03-10T11:47:16.000Z</time>
      </trkpt>
      <trkpt lat="45.51896" lon="6.05818">
        <ele>1048.4000244141</ele>
        <time>2012-03-10T11:47:27.000Z</time>
      </trkpt>
      <trkpt lat="45.51895" lon="6.05818">
        <ele>1048.4000244141</ele>
        <time>2012-03-10T11:47:34.000Z</time>
      </trkpt>
      <trkpt lat="45.51894" lon="6.05818">
        <ele>1047.4000244141</ele>
        <time>2012-03-10T11:47:46.000Z</time>
      </trkpt>
      <trkpt lat="45.51895" lon="6.05817">
        <ele>1047</ele>
        <time>2012-03-10T11:47:52.000Z</time>
      </trkpt>
      <trkpt lat="45.51894" lon="6.05817">
        <ele>1047</ele>
        <time>2012-03-10T11:47:56.000Z</time>
      </trkpt>
      <trkpt lat="45.51895" lon="6.05817">
        <ele>1047</ele>
        <time>2012-03-10T11:48:05.000Z</time>
      </trkpt>
      <trkpt lat="45.51895" lon="6.05816">
        <ele>1047</ele>
        <time>2012-03-10T11:48:12.000Z</time>
      </trkpt>
      <trkpt lat="45.51895" lon="6.05818">
        <ele>1046.4000244141</ele>
        <time>2012-03-10T11:48:24.000Z</time>
      </trkpt>
      <trkpt lat="45.51896" lon="6.05813">
        <ele>1046</ele>
        <time>2012-03-10T11:48:33.000Z</time>
      </trkpt>
      <trkpt lat="45.51896" lon="6.05812">
        <ele>1046.4000244141</ele>
        <time>2012-03-10T11:48:40.000Z</time>
      </trkpt>
      <trkpt lat="45.51896" lon="6.05812">
        <ele>1047.8000488281</ele>
        <time>2012-03-10T11:48:53.000Z</time>
      </trkpt>
      <trkpt lat="45.51896" lon="6.05814">
        <ele>1049.4000244141</ele>
        <time>2012-03-10T11:49:02.000Z</time>
      </trkpt>
      <trkpt lat="45.51895" lon="6.05815">
        <ele>1051.1999511719</ele>
        <time>2012-03-10T11:49:25.000Z</time>
      </trkpt>
      <trkpt lat="45.51898" lon="6.05816">
        <ele>1051.1999511719</ele>
        <time>2012-03-10T11:49:31.000Z</time>
      </trkpt>
      <trkpt lat="45.51901" lon="6.05821">
        <ele>1051.1999511719</ele>
        <time>2012-03-10T11:49:39.000Z</time>
      </trkpt>
      <trkpt lat="45.51903" lon="6.05823">
        <ele>1050.8000488281</ele>
        <time>2012-03-10T11:49:45.000Z</time>
      </trkpt>
      <trkpt lat="45.51905" lon="6.05824">
        <ele>1050.8000488281</ele>
        <time>2012-03-10T11:49:51.000Z</time>
      </trkpt>
      <trkpt lat="45.51908" lon="6.05827">
        <ele>1051.1999511719</ele>
        <time>2012-03-10T11:49:57.000Z</time>
      </trkpt>
      <trkpt lat="45.51909" lon="6.0583">
        <ele>1052.5999755859</ele>
        <time>2012-03-10T11:50:04.000Z</time>
      </trkpt>
      <trkpt lat="45.51911" lon="6.05832">
        <ele>1052.5999755859</ele>
        <time>2012-03-10T11:50:13.000Z</time>
      </trkpt>
      <trkpt lat="45.51913" lon="6.05834">
        <ele>1054.1999511719</ele>
        <time>2012-03-10T11:50:18.000Z</time>
      </trkpt>
      <trkpt lat="45.51916" lon="6.05832">
        <ele>1057</ele>
        <time>2012-03-10T11:50:25.000Z</time>
      </trkpt>
      <trkpt lat="45.51918" lon="6.05836">
        <ele>1059</ele>
        <time>2012-03-10T11:50:30.000Z</time>
      </trkpt>
      <trkpt lat="45.5192" lon="6.05838">
        <ele>1061.4000244141</ele>
        <time>2012-03-10T11:50:34.000Z</time>
      </trkpt>
      <trkpt lat="45.51923" lon="6.05838">
        <ele>1060.8000488281</ele>
        <time>2012-03-10T11:50:39.000Z</time>
      </trkpt>
      <trkpt lat="45.51924" lon="6.05838">
        <ele>1059.8000488281</ele>
        <time>2012-03-10T11:50:40.000Z</time>
      </trkpt>
      <trkpt lat="45.5193" lon="6.05835">
        <ele>1056.5999755859</ele>
        <time>2012-03-10T11:50:45.000Z</time>
      </trkpt>
      <trkpt lat="45.51934" lon="6.0583">
        <ele>1054.1999511719</ele>
        <time>2012-03-10T11:50:51.000Z</time>
      </trkpt>
      <trkpt lat="45.51936" lon="6.05828">
        <ele>1052.5999755859</ele>
        <time>2012-03-10T11:50:54.000Z</time>
      </trkpt>
      <trkpt lat="45.51939" lon="6.05818">
        <ele>1052.5999755859</ele>
        <time>2012-03-10T11:51:00.000Z</time>
      </trkpt>
      <trkpt lat="45.51942" lon="6.05814">
        <ele>1051.8000488281</ele>
        <time>2012-03-10T11:51:03.000Z</time>
      </trkpt>
      <trkpt lat="45.51949" lon="6.0581">
        <ele>1052.1999511719</ele>
        <time>2012-03-10T11:51:08.000Z</time>
      </trkpt>
      <trkpt lat="45.51951" lon="6.05804">
        <ele>1053.5999755859</ele>
        <time>2012-03-10T11:51:15.000Z</time>
      </trkpt>
      <trkpt lat="45.51952" lon="6.05798">
        <ele>1053.5999755859</ele>
        <time>2012-03-10T11:51:20.000Z</time>
      </trkpt>
      <trkpt lat="45.51954" lon="6.05789">
        <ele>1053.5999755859</ele>
        <time>2012-03-10T11:51:26.000Z</time>
      </trkpt>
      <trkpt lat="45.51955" lon="6.05782">
        <ele>1054.1999511719</ele>
        <time>2012-03-10T11:51:31.000Z</time>
      </trkpt>
      <trkpt lat="45.51955" lon="6.0578">
        <ele>1053.5999755859</ele>
        <time>2012-03-10T11:51:33.000Z</time>
      </trkpt>
      <trkpt lat="45.51951" lon="6.05768">
        <ele>1055</ele>
        <time>2012-03-10T11:51:39.000Z</time>
      </trkpt>
      <trkpt lat="45.51949" lon="6.05759">
        <ele>1055.5999755859</ele>
        <time>2012-03-10T11:51:45.000Z</time>
      </trkpt>
      <trkpt lat="45.51948" lon="6.05756">
        <ele>1055.5999755859</ele>
        <time>2012-03-10T11:51:47.000Z</time>
      </trkpt>
      <trkpt lat="45.51946" lon="6.0575">
        <ele>1054.1999511719</ele>
        <time>2012-03-10T11:51:51.000Z</time>
      </trkpt>
      <trkpt lat="45.51943" lon="6.05742">
        <ele>1053.5999755859</ele>
        <time>2012-03-10T11:51:57.000Z</time>
      </trkpt>
      <trkpt lat="45.5194" lon="6.05738">
        <ele>1054.1999511719</ele>
        <time>2012-03-10T11:52:00.000Z</time>
      </trkpt>
      <trkpt lat="45.51938" lon="6.05731">
        <ele>1053.1999511719</ele>
        <time>2012-03-10T11:52:05.000Z</time>
      </trkpt>
      <trkpt lat="45.51937" lon="6.05727">
        <ele>1052.1999511719</ele>
        <time>2012-03-10T11:52:07.000Z</time>
      </trkpt>
      <trkpt lat="45.51932" lon="6.05718">
        <ele>1054.1999511719</ele>
        <time>2012-03-10T11:52:12.000Z</time>
      </trkpt>
      <trkpt lat="45.51929" lon="6.05712">
        <ele>1055.5999755859</ele>
        <time>2012-03-10T11:52:16.000Z</time>
      </trkpt>
      <trkpt lat="45.51926" lon="6.05705">
        <ele>1056.5999755859</ele>
        <time>2012-03-10T11:52:20.000Z</time>
      </trkpt>
      <trkpt lat="45.51925" lon="6.05701">
        <ele>1056</ele>
        <time>2012-03-10T11:52:22.000Z</time>
      </trkpt>
      <trkpt lat="45.51921" lon="6.05694">
        <ele>1055.5999755859</ele>
        <time>2012-03-10T11:52:26.000Z</time>
      </trkpt>
      <trkpt lat="45.51918" lon="6.05683">
        <ele>1057</ele>
        <time>2012-03-10T11:52:32.000Z</time>
      </trkpt>
      <trkpt lat="45.51915" lon="6.05676">
        <ele>1058</ele>
        <time>2012-03-10T11:52:38.000Z</time>
      </trkpt>
      <trkpt lat="45.51915" lon="6.05668">
        <ele>1057</ele>
        <time>2012-03-10T11:52:46.000Z</time>
      </trkpt>
      <trkpt lat="45.51916" lon="6.05662">
        <ele>1054.5999755859</ele>
        <time>2012-03-10T11:52:54.000Z</time>
      </trkpt>
      <trkpt lat="45.51916" lon="6.05658">
        <ele>1054.1999511719</ele>
        <time>2012-03-10T11:53:00.000Z</time>
      </trkpt>
      <trkpt lat="45.51915" lon="6.05652">
        <ele>1053.1999511719</ele>
        <time>2012-03-10T11:53:07.000Z</time>
      </trkpt>
      <trkpt lat="45.51914" lon="6.05647">
        <ele>1054.1999511719</ele>
        <time>2012-03-10T11:53:14.000Z</time>
      </trkpt>
      <trkpt lat="45.51916" lon="6.05644">
        <ele>1055</ele>
        <time>2012-03-10T11:53:20.000Z</time>
      </trkpt>
      <trkpt lat="45.51915" lon="6.05639">
        <ele>1054.1999511719</ele>
        <time>2012-03-10T11:53:26.000Z</time>
      </trkpt>
      <trkpt lat="45.51919" lon="6.05635">
        <ele>1057</ele>
        <time>2012-03-10T11:53:34.000Z</time>
      </trkpt>
      <trkpt lat="45.5192" lon="6.0563">
        <ele>1059</ele>
        <time>2012-03-10T11:53:40.000Z</time>
      </trkpt>
      <trkpt lat="45.51919" lon="6.05625">
        <ele>1060.4000244141</ele>
        <time>2012-03-10T11:53:47.000Z</time>
      </trkpt>
      <trkpt lat="45.51916" lon="6.05623">
        <ele>1061.8000488281</ele>
        <time>2012-03-10T11:53:53.000Z</time>
      </trkpt>
      <trkpt lat="45.51912" lon="6.05623">
        <ele>1062.8000488281</ele>
        <time>2012-03-10T11:54:00.000Z</time>
      </trkpt>
      <trkpt lat="45.51907" lon="6.05622">
        <ele>1062.8000488281</ele>
        <time>2012-03-10T11:54:07.000Z</time>
      </trkpt>
      <trkpt lat="45.51905" lon="6.0562">
        <ele>1062.8000488281</ele>
        <time>2012-03-10T11:54:13.000Z</time>
      </trkpt>
      <trkpt lat="45.51905" lon="6.05616">
        <ele>1063.1999511719</ele>
        <time>2012-03-10T11:54:19.000Z</time>
      </trkpt>
      <trkpt lat="45.51903" lon="6.05608">
        <ele>1063.1999511719</ele>
        <time>2012-03-10T11:54:26.000Z</time>
      </trkpt>
      <trkpt lat="45.51902" lon="6.05605">
        <ele>1063.1999511719</ele>
        <time>2012-03-10T11:54:32.000Z</time>
      </trkpt>
      <trkpt lat="45.51901" lon="6.05601">
        <ele>1064.1999511719</ele>
        <time>2012-03-10T11:54:36.000Z</time>
      </trkpt>
      <trkpt lat="45.51898" lon="6.05596">
        <ele>1064.5999755859</ele>
        <time>2012-03-10T11:54:40.000Z</time>
      </trkpt>
      <trkpt lat="45.51896" lon="6.0559">
        <ele>1065.1999511719</ele>
        <time>2012-03-10T11:54:47.000Z</time>
      </trkpt>
      <trkpt lat="45.51892" lon="6.05582">
        <ele>1066.5999755859</ele>
        <time>2012-03-10T11:54:54.000Z</time>
      </trkpt>
      <trkpt lat="45.5189" lon="6.05576">
        <ele>1069.5999755859</ele>
        <time>2012-03-10T11:54:59.000Z</time>
      </trkpt>
      <trkpt lat="45.51888" lon="6.05572">
        <ele>1070</ele>
        <time>2012-03-10T11:55:04.000Z</time>
      </trkpt>
      <trkpt lat="45.51887" lon="6.05569">
        <ele>1071.4000244141</ele>
        <time>2012-03-10T11:55:10.000Z</time>
      </trkpt>
      <trkpt lat="45.51885" lon="6.05564">
        <ele>1072.4000244141</ele>
        <time>2012-03-10T11:55:17.000Z</time>
      </trkpt>
      <trkpt lat="45.51884" lon="6.0556">
        <ele>1073.8000488281</ele>
        <time>2012-03-10T11:55:23.000Z</time>
      </trkpt>
      <trkpt lat="45.51885" lon="6.05557">
        <ele>1074.8000488281</ele>
        <time>2012-03-10T11:55:31.000Z</time>
      </trkpt>
      <trkpt lat="45.51888" lon="6.05554">
        <ele>1075.8000488281</ele>
        <time>2012-03-10T11:55:37.000Z</time>
      </trkpt>
      <trkpt lat="45.51894" lon="6.05547">
        <ele>1072</ele>
        <time>2012-03-10T11:55:46.000Z</time>
      </trkpt>
      <trkpt lat="45.51899" lon="6.05541">
        <ele>1071.4000244141</ele>
        <time>2012-03-10T11:55:55.000Z</time>
      </trkpt>
      <trkpt lat="45.51903" lon="6.05536">
        <ele>1072.4000244141</ele>
        <time>2012-03-10T11:56:03.000Z</time>
      </trkpt>
      <trkpt lat="45.51906" lon="6.0553">
        <ele>1073.8000488281</ele>
        <time>2012-03-10T11:56:11.000Z</time>
      </trkpt>
      <trkpt lat="45.51908" lon="6.05525">
        <ele>1080</ele>
        <time>2012-03-10T11:56:19.000Z</time>
      </trkpt>
      <trkpt lat="45.5191" lon="6.05518">
        <ele>1080</ele>
        <time>2012-03-10T11:56:28.000Z</time>
      </trkpt>
      <trkpt lat="45.51911" lon="6.05513">
        <ele>1080.5999755859</ele>
        <time>2012-03-10T11:56:34.000Z</time>
      </trkpt>
      <trkpt lat="45.51913" lon="6.05507">
        <ele>1083</ele>
        <time>2012-03-10T11:56:42.000Z</time>
      </trkpt>
      <trkpt lat="45.51912" lon="6.05503">
        <ele>1084</ele>
        <time>2012-03-10T11:56:49.000Z</time>
      </trkpt>
      <trkpt lat="45.51911" lon="6.05501">
        <ele>1084.8000488281</ele>
        <time>2012-03-10T11:56:55.000Z</time>
      </trkpt>
      <trkpt lat="45.5191" lon="6.05502">
        <ele>1085.8000488281</ele>
        <time>2012-03-10T11:57:04.000Z</time>
      </trkpt>
      <trkpt lat="45.51909" lon="6.05503">
        <ele>1085.8000488281</ele>
        <time>2012-03-10T11:57:13.000Z</time>
      </trkpt>
      <trkpt lat="45.51908" lon="6.05504">
        <ele>1087.1999511719</ele>
        <time>2012-03-10T11:57:20.000Z</time>
      </trkpt>
      <trkpt lat="45.51906" lon="6.05506">
        <ele>1089.1999511719</ele>
        <time>2012-03-10T11:57:26.000Z</time>
      </trkpt>
      <trkpt lat="45.51903" lon="6.05506">
        <ele>1092</ele>
        <time>2012-03-10T11:57:32.000Z</time>
      </trkpt>
      <trkpt lat="45.51898" lon="6.05504">
        <ele>1092</ele>
        <time>2012-03-10T11:57:39.000Z</time>
      </trkpt>
      <trkpt lat="45.51895" lon="6.05501">
        <ele>1093</ele>
        <time>2012-03-10T11:57:45.000Z</time>
      </trkpt>
      <trkpt lat="45.5189" lon="6.05499">
        <ele>1094</ele>
        <time>2012-03-10T11:57:52.000Z</time>
      </trkpt>
      <trkpt lat="45.51887" lon="6.05495">
        <ele>1095</ele>
        <time>2012-03-10T11:57:59.000Z</time>
      </trkpt>
      <trkpt lat="45.51884" lon="6.0549">
        <ele>1094.4000244141</ele>
        <time>2012-03-10T11:58:06.000Z</time>
      </trkpt>
      <trkpt lat="45.51878" lon="6.05487">
        <ele>1096.4000244141</ele>
        <time>2012-03-10T11:58:14.000Z</time>
      </trkpt>
      <trkpt lat="45.5187" lon="6.05483">
        <ele>1097</ele>
        <time>2012-03-10T11:58:22.000Z</time>
      </trkpt>
      <trkpt lat="45.51865" lon="6.05478">
        <ele>1097.8000488281</ele>
        <time>2012-03-10T11:58:29.000Z</time>
      </trkpt>
      <trkpt lat="45.51863" lon="6.0547">
        <ele>1098.4000244141</ele>
        <time>2012-03-10T11:58:37.000Z</time>
      </trkpt>
      <trkpt lat="45.51861" lon="6.05462">
        <ele>1099.4000244141</ele>
        <time>2012-03-10T11:58:44.000Z</time>
      </trkpt>
      <trkpt lat="45.51859" lon="6.05451">
        <ele>1099.4000244141</ele>
        <time>2012-03-10T11:58:53.000Z</time>
      </trkpt>
      <trkpt lat="45.51859" lon="6.05442">
        <ele>1099.4000244141</ele>
        <time>2012-03-10T11:59:02.000Z</time>
      </trkpt>
      <trkpt lat="45.51857" lon="6.05433">
        <ele>1098.8000488281</ele>
        <time>2012-03-10T11:59:11.000Z</time>
      </trkpt>
      <trkpt lat="45.51856" lon="6.05425">
        <ele>1099.4000244141</ele>
        <time>2012-03-10T11:59:17.000Z</time>
      </trkpt>
      <trkpt lat="45.51855" lon="6.0542">
        <ele>1099.8000488281</ele>
        <time>2012-03-10T11:59:21.000Z</time>
      </trkpt>
      <trkpt lat="45.51854" lon="6.05414">
        <ele>1099.8000488281</ele>
        <time>2012-03-10T11:59:25.000Z</time>
      </trkpt>
      <trkpt lat="45.51851" lon="6.05402">
        <ele>1099.8000488281</ele>
        <time>2012-03-10T11:59:34.000Z</time>
      </trkpt>
      <trkpt lat="45.51849" lon="6.05396">
        <ele>1102.5999755859</ele>
        <time>2012-03-10T11:59:40.000Z</time>
      </trkpt>
      <trkpt lat="45.51847" lon="6.05389">
        <ele>1103.5999755859</ele>
        <time>2012-03-10T11:59:47.000Z</time>
      </trkpt>
      <trkpt lat="45.51846" lon="6.05381">
        <ele>1104.1999511719</ele>
        <time>2012-03-10T11:59:53.000Z</time>
      </trkpt>
      <trkpt lat="45.51847" lon="6.05373">
        <ele>1106</ele>
        <time>2012-03-10T12:00:00.000Z</time>
      </trkpt>
      <trkpt lat="45.51848" lon="6.05363">
        <ele>1109</ele>
        <time>2012-03-10T12:00:10.000Z</time>
      </trkpt>
      <trkpt lat="45.51849" lon="6.05356">
        <ele>1109.8000488281</ele>
        <time>2012-03-10T12:00:17.000Z</time>
      </trkpt>
      <trkpt lat="45.5185" lon="6.0535">
        <ele>1110.4000244141</ele>
        <time>2012-03-10T12:00:23.000Z</time>
      </trkpt>
      <trkpt lat="45.5185" lon="6.0534">
        <ele>1109.8000488281</ele>
        <time>2012-03-10T12:00:32.000Z</time>
      </trkpt>
      <trkpt lat="45.51852" lon="6.05335">
        <ele>1109.4000244141</ele>
        <time>2012-03-10T12:00:39.000Z</time>
      </trkpt>
      <trkpt lat="45.51853" lon="6.05329">
        <ele>1110.8000488281</ele>
        <time>2012-03-10T12:00:46.000Z</time>
      </trkpt>
      <trkpt lat="45.51857" lon="6.05324">
        <ele>1112.8000488281</ele>
        <time>2012-03-10T12:00:54.000Z</time>
      </trkpt>
      <trkpt lat="45.5186" lon="6.05329">
        <ele>1113.1999511719</ele>
        <time>2012-03-10T12:01:01.000Z</time>
      </trkpt>
      <trkpt lat="45.51865" lon="6.05335">
        <ele>1114.1999511719</ele>
        <time>2012-03-10T12:01:10.000Z</time>
      </trkpt>
      <trkpt lat="45.51868" lon="6.05341">
        <ele>1115.1999511719</ele>
        <time>2012-03-10T12:01:18.000Z</time>
      </trkpt>
      <trkpt lat="45.51872" lon="6.05345">
        <ele>1116.1999511719</ele>
        <time>2012-03-10T12:01:26.000Z</time>
      </trkpt>
      <trkpt lat="45.51873" lon="6.05346">
        <ele>1117.5999755859</ele>
        <time>2012-03-10T12:01:32.000Z</time>
      </trkpt>
      <trkpt lat="45.51873" lon="6.05345">
        <ele>1118.5999755859</ele>
        <time>2012-03-10T12:01:46.000Z</time>
      </trkpt>
      <trkpt lat="45.51873" lon="6.05345">
        <ele>1118</ele>
        <time>2012-03-10T12:01:54.000Z</time>
      </trkpt>
      <trkpt lat="45.51874" lon="6.05343">
        <ele>1118.5999755859</ele>
        <time>2012-03-10T12:02:02.000Z</time>
      </trkpt>
      <trkpt lat="45.51875" lon="6.0534">
        <ele>1119.4000244141</ele>
        <time>2012-03-10T12:02:18.000Z</time>
      </trkpt>
      <trkpt lat="45.51871" lon="6.05335">
        <ele>1119</ele>
        <time>2012-03-10T12:02:26.000Z</time>
      </trkpt>
      <trkpt lat="45.51867" lon="6.05332">
        <ele>1118</ele>
        <time>2012-03-10T12:02:33.000Z</time>
      </trkpt>
      <trkpt lat="45.51865" lon="6.05327">
        <ele>1117.5999755859</ele>
        <time>2012-03-10T12:02:39.000Z</time>
      </trkpt>
      <trkpt lat="45.51863" lon="6.05326">
        <ele>1117.5999755859</ele>
        <time>2012-03-10T12:02:47.000Z</time>
      </trkpt>
      <trkpt lat="45.51861" lon="6.05325">
        <ele>1118</ele>
        <time>2012-03-10T12:02:52.000Z</time>
      </trkpt>
      <trkpt lat="45.5186" lon="6.05323">
        <ele>1119</ele>
        <time>2012-03-10T12:02:57.000Z</time>
      </trkpt>
      <trkpt lat="45.5186" lon="6.05323">
        <ele>1120</ele>
        <time>2012-03-10T12:03:01.000Z</time>
      </trkpt>
      <trkpt lat="45.51859" lon="6.05322">
        <ele>1119</ele>
        <time>2012-03-10T12:03:05.000Z</time>
      </trkpt>
      <trkpt lat="45.5186" lon="6.05322">
        <ele>1118.5999755859</ele>
        <time>2012-03-10T12:03:10.000Z</time>
      </trkpt>
      <trkpt lat="45.51859" lon="6.05321">
        <ele>1117.5999755859</ele>
        <time>2012-03-10T12:03:15.000Z</time>
      </trkpt>
      <trkpt lat="45.51859" lon="6.0532">
        <ele>1117</ele>
        <time>2012-03-10T12:03:19.000Z</time>
      </trkpt>
      <trkpt lat="45.51857" lon="6.05319">
        <ele>1117.5999755859</ele>
        <time>2012-03-10T12:03:24.000Z</time>
      </trkpt>
      <trkpt lat="45.51855" lon="6.05318">
        <ele>1118</ele>
        <time>2012-03-10T12:03:29.000Z</time>
      </trkpt>
      <trkpt lat="45.51855" lon="6.05316">
        <ele>1118</ele>
        <time>2012-03-10T12:03:34.000Z</time>
      </trkpt>
      <trkpt lat="45.51855" lon="6.05315">
        <ele>1118.5999755859</ele>
        <time>2012-03-10T12:03:37.000Z</time>
      </trkpt>
      <trkpt lat="45.51857" lon="6.0531">
        <ele>1119.4000244141</ele>
        <time>2012-03-10T12:03:44.000Z</time>
      </trkpt>
      <trkpt lat="45.51855" lon="6.05308">
        <ele>1123.4000244141</ele>
        <time>2012-03-10T12:03:54.000Z</time>
      </trkpt>
      <trkpt lat="45.51854" lon="6.05307">
        <ele>1122.8000488281</ele>
        <time>2012-03-10T12:04:00.000Z</time>
      </trkpt>
      <trkpt lat="45.51852" lon="6.05303">
        <ele>1122.4000244141</ele>
        <time>2012-03-10T12:04:07.000Z</time>
      </trkpt>
      <trkpt lat="45.51851" lon="6.05299">
        <ele>1121.8000488281</ele>
        <time>2012-03-10T12:04:12.000Z</time>
      </trkpt>
      <trkpt lat="45.51852" lon="6.05295">
        <ele>1122.4000244141</ele>
        <time>2012-03-10T12:04:20.000Z</time>
      </trkpt>
      <trkpt lat="45.51852" lon="6.05295">
        <ele>1122.8000488281</ele>
        <time>2012-03-10T12:04:26.000Z</time>
      </trkpt>
      <trkpt lat="45.51854" lon="6.05294">
        <ele>1124.1999511719</ele>
        <time>2012-03-10T12:04:36.000Z</time>
      </trkpt>
      <trkpt lat="45.51856" lon="6.05296">
        <ele>1123.8000488281</ele>
        <time>2012-03-10T12:04:42.000Z</time>
      </trkpt>
      <trkpt lat="45.51855" lon="6.05295">
        <ele>1124.1999511719</ele>
        <time>2012-03-10T12:04:48.000Z</time>
      </trkpt>
      <trkpt lat="45.51857" lon="6.05288">
        <ele>1123.8000488281</ele>
        <time>2012-03-10T12:04:57.000Z</time>
      </trkpt>
      <trkpt lat="45.51859" lon="6.05283">
        <ele>1121</ele>
        <time>2012-03-10T12:05:06.000Z</time>
      </trkpt>
      <trkpt lat="45.5186" lon="6.0528">
        <ele>1119.4000244141</ele>
        <time>2012-03-10T12:05:14.000Z</time>
      </trkpt>
      <trkpt lat="45.5186" lon="6.05276">
        <ele>1119</ele>
        <time>2012-03-10T12:05:21.000Z</time>
      </trkpt>
      <trkpt lat="45.5186" lon="6.05272">
        <ele>1120</ele>
        <time>2012-03-10T12:05:28.000Z</time>
      </trkpt>
      <trkpt lat="45.51861" lon="6.05268">
        <ele>1121.8000488281</ele>
        <time>2012-03-10T12:05:35.000Z</time>
      </trkpt>
      <trkpt lat="45.51861" lon="6.05262">
        <ele>1122.8000488281</ele>
        <time>2012-03-10T12:05:42.000Z</time>
      </trkpt>
      <trkpt lat="45.51861" lon="6.05256">
        <ele>1124.1999511719</ele>
        <time>2012-03-10T12:05:49.000Z</time>
      </trkpt>
      <trkpt lat="45.51864" lon="6.05249">
        <ele>1124.8000488281</ele>
        <time>2012-03-10T12:05:55.000Z</time>
      </trkpt>
      <trkpt lat="45.51864" lon="6.05242">
        <ele>1126.8000488281</ele>
        <time>2012-03-10T12:06:01.000Z</time>
      </trkpt>
      <trkpt lat="45.51862" lon="6.05235">
        <ele>1128.1999511719</ele>
        <time>2012-03-10T12:06:07.000Z</time>
      </trkpt>
      <trkpt lat="45.51861" lon="6.05234">
        <ele>1128.1999511719</ele>
        <time>2012-03-10T12:06:09.000Z</time>
      </trkpt>
      <trkpt lat="45.51859" lon="6.05227">
        <ele>1126.8000488281</ele>
        <time>2012-03-10T12:06:14.000Z</time>
      </trkpt>
      <trkpt lat="45.51857" lon="6.05219">
        <ele>1129.1999511719</ele>
        <time>2012-03-10T12:06:22.000Z</time>
      </trkpt>
      <trkpt lat="45.51856" lon="6.05216">
        <ele>1131.5999755859</ele>
        <time>2012-03-10T12:06:27.000Z</time>
      </trkpt>
      <trkpt lat="45.51855" lon="6.05212">
        <ele>1135.4000244141</ele>
        <time>2012-03-10T12:06:34.000Z</time>
      </trkpt>
      <trkpt lat="45.51852" lon="6.05206">
        <ele>1136.4000244141</ele>
        <time>2012-03-10T12:06:41.000Z</time>
      </trkpt>
      <trkpt lat="45.5185" lon="6.05202">
        <ele>1140.5999755859</ele>
        <time>2012-03-10T12:06:49.000Z</time>
      </trkpt>
      <trkpt lat="45.51849" lon="6.05197">
        <ele>1140.5999755859</ele>
        <time>2012-03-10T12:06:55.000Z</time>
      </trkpt>
      <trkpt lat="45.51846" lon="6.05193">
        <ele>1140.1999511719</ele>
        <time>2012-03-10T12:07:01.000Z</time>
      </trkpt>
      <trkpt lat="45.51843" lon="6.05188">
        <ele>1141.5999755859</ele>
        <time>2012-03-10T12:07:11.000Z</time>
      </trkpt>
      <trkpt lat="45.5184" lon="6.05187">
        <ele>1143.5999755859</ele>
        <time>2012-03-10T12:07:19.000Z</time>
      </trkpt>
      <trkpt lat="45.51838" lon="6.05187">
        <ele>1144.4000244141</ele>
        <time>2012-03-10T12:07:25.000Z</time>
      </trkpt>
      <trkpt lat="45.51836" lon="6.05188">
        <ele>1150.1999511719</ele>
        <time>2012-03-10T12:07:39.000Z</time>
      </trkpt>
      <trkpt lat="45.51833" lon="6.05186">
        <ele>1149.8000488281</ele>
        <time>2012-03-10T12:07:47.000Z</time>
      </trkpt>
      <trkpt lat="45.51829" lon="6.05181">
        <ele>1150.8000488281</ele>
        <time>2012-03-10T12:07:57.000Z</time>
      </trkpt>
      <trkpt lat="45.51828" lon="6.05179">
        <ele>1150.8000488281</ele>
        <time>2012-03-10T12:08:04.000Z</time>
      </trkpt>
      <trkpt lat="45.51824" lon="6.05178">
        <ele>1151.5999755859</ele>
        <time>2012-03-10T12:08:11.000Z</time>
      </trkpt>
      <trkpt lat="45.51822" lon="6.05174">
        <ele>1152.1999511719</ele>
        <time>2012-03-10T12:08:15.000Z</time>
      </trkpt>
      <trkpt lat="45.5182" lon="6.05168">
        <ele>1151.5999755859</ele>
        <time>2012-03-10T12:08:21.000Z</time>
      </trkpt>
      <trkpt lat="45.51817" lon="6.05161">
        <ele>1150.8000488281</ele>
        <time>2012-03-10T12:08:28.000Z</time>
      </trkpt>
      <trkpt lat="45.51815" lon="6.05157">
        <ele>1150.1999511719</ele>
        <time>2012-03-10T12:08:34.000Z</time>
      </trkpt>
      <trkpt lat="45.51813" lon="6.0515">
        <ele>1147.8000488281</ele>
        <time>2012-03-10T12:08:40.000Z</time>
      </trkpt>
      <trkpt lat="45.51812" lon="6.05143">
        <ele>1146.8000488281</ele>
        <time>2012-03-10T12:08:46.000Z</time>
      </trkpt>
      <trkpt lat="45.51812" lon="6.05136">
        <ele>1148.4000244141</ele>
        <time>2012-03-10T12:08:53.000Z</time>
      </trkpt>
      <trkpt lat="45.51811" lon="6.05131">
        <ele>1149.1999511719</ele>
        <time>2012-03-10T12:08:58.000Z</time>
      </trkpt>
      <trkpt lat="45.51812" lon="6.05127">
        <ele>1152.5999755859</ele>
        <time>2012-03-10T12:09:06.000Z</time>
      </trkpt>
      <trkpt lat="45.51808" lon="6.05124">
        <ele>1157.4000244141</ele>
        <time>2012-03-10T12:09:13.000Z</time>
      </trkpt>
      <trkpt lat="45.51807" lon="6.05123">
        <ele>1157.4000244141</ele>
        <time>2012-03-10T12:09:14.000Z</time>
      </trkpt>
      <trkpt lat="45.51804" lon="6.05119">
        <ele>1158</ele>
        <time>2012-03-10T12:09:18.000Z</time>
      </trkpt>
      <trkpt lat="45.518" lon="6.05116">
        <ele>1157</ele>
        <time>2012-03-10T12:09:23.000Z</time>
      </trkpt>
      <trkpt lat="45.51794" lon="6.05115">
        <ele>1156</ele>
        <time>2012-03-10T12:09:30.000Z</time>
      </trkpt>
      <trkpt lat="45.51787" lon="6.0511">
        <ele>1155</ele>
        <time>2012-03-10T12:09:37.000Z</time>
      </trkpt>
      <trkpt lat="45.51782" lon="6.0511">
        <ele>1161.4000244141</ele>
        <time>2012-03-10T12:09:43.000Z</time>
      </trkpt>
      <trkpt lat="45.51777" lon="6.05108">
        <ele>1163.8000488281</ele>
        <time>2012-03-10T12:09:50.000Z</time>
      </trkpt>
      <trkpt lat="45.51773" lon="6.05107">
        <ele>1166.1999511719</ele>
        <time>2012-03-10T12:09:55.000Z</time>
      </trkpt>
      <trkpt lat="45.51769" lon="6.05105">
        <ele>1168.5999755859</ele>
        <time>2012-03-10T12:10:00.000Z</time>
      </trkpt>
      <trkpt lat="45.51765" lon="6.05102">
        <ele>1171.8000488281</ele>
        <time>2012-03-10T12:10:06.000Z</time>
      </trkpt>
      <trkpt lat="45.51761" lon="6.05097">
        <ele>1174.1999511719</ele>
        <time>2012-03-10T12:10:12.000Z</time>
      </trkpt>
      <trkpt lat="45.51761" lon="6.05093">
        <ele>1175.1999511719</ele>
        <time>2012-03-10T12:10:16.000Z</time>
      </trkpt>
      <trkpt lat="45.51759" lon="6.05089">
        <ele>1177.5999755859</ele>
        <time>2012-03-10T12:10:21.000Z</time>
      </trkpt>
      <trkpt lat="45.51756" lon="6.05086">
        <ele>1179.5999755859</ele>
        <time>2012-03-10T12:10:26.000Z</time>
      </trkpt>
      <trkpt lat="45.51754" lon="6.05083">
        <ele>1181</ele>
        <time>2012-03-10T12:10:32.000Z</time>
      </trkpt>
      <trkpt lat="45.51753" lon="6.05082">
        <ele>1182.4000244141</ele>
        <time>2012-03-10T12:10:40.000Z</time>
      </trkpt>
      <trkpt lat="45.51752" lon="6.05083">
        <ele>1183.4000244141</ele>
        <time>2012-03-10T12:10:47.000Z</time>
      </trkpt>
      <trkpt lat="45.51751" lon="6.05083">
        <ele>1184</ele>
        <time>2012-03-10T12:10:54.000Z</time>
      </trkpt>
      <trkpt lat="45.51751" lon="6.0508">
        <ele>1184.4000244141</ele>
        <time>2012-03-10T12:11:00.000Z</time>
      </trkpt>
      <trkpt lat="45.51748" lon="6.05075">
        <ele>1184.8000488281</ele>
        <time>2012-03-10T12:11:06.000Z</time>
      </trkpt>
      <trkpt lat="45.51745" lon="6.05066">
        <ele>1186.4000244141</ele>
        <time>2012-03-10T12:11:14.000Z</time>
      </trkpt>
      <trkpt lat="45.51744" lon="6.05058">
        <ele>1187.1999511719</ele>
        <time>2012-03-10T12:11:22.000Z</time>
      </trkpt>
      <trkpt lat="45.51741" lon="6.05051">
        <ele>1190.1999511719</ele>
        <time>2012-03-10T12:11:31.000Z</time>
      </trkpt>
      <trkpt lat="45.51742" lon="6.05044">
        <ele>1192.5999755859</ele>
        <time>2012-03-10T12:11:38.000Z</time>
      </trkpt>
      <trkpt lat="45.51742" lon="6.05041">
        <ele>1193.5999755859</ele>
        <time>2012-03-10T12:11:44.000Z</time>
      </trkpt>
      <trkpt lat="45.51744" lon="6.05037">
        <ele>1194.4000244141</ele>
        <time>2012-03-10T12:11:50.000Z</time>
      </trkpt>
      <trkpt lat="45.51743" lon="6.05031">
        <ele>1195</ele>
        <time>2012-03-10T12:11:56.000Z</time>
      </trkpt>
      <trkpt lat="45.51743" lon="6.05026">
        <ele>1196.8000488281</ele>
        <time>2012-03-10T12:12:01.000Z</time>
      </trkpt>
      <trkpt lat="45.51741" lon="6.05019">
        <ele>1199.1999511719</ele>
        <time>2012-03-10T12:12:07.000Z</time>
      </trkpt>
      <trkpt lat="45.51738" lon="6.05013">
        <ele>1199.8000488281</ele>
        <time>2012-03-10T12:12:14.000Z</time>
      </trkpt>
      <trkpt lat="45.51734" lon="6.05008">
        <ele>1199.1999511719</ele>
        <time>2012-03-10T12:12:18.000Z</time>
      </trkpt>
      <trkpt lat="45.51733" lon="6.05007">
        <ele>1199.1999511719</ele>
        <time>2012-03-10T12:12:19.000Z</time>
      </trkpt>
      <trkpt lat="45.51732" lon="6.04998">
        <ele>1200.8000488281</ele>
        <time>2012-03-10T12:12:26.000Z</time>
      </trkpt>
      <trkpt lat="45.51731" lon="6.04993">
        <ele>1201.5999755859</ele>
        <time>2012-03-10T12:12:31.000Z</time>
      </trkpt>
      <trkpt lat="45.51728" lon="6.04987">
        <ele>1203.5999755859</ele>
        <time>2012-03-10T12:12:37.000Z</time>
      </trkpt>
      <trkpt lat="45.51727" lon="6.04983">
        <ele>1203.5999755859</ele>
        <time>2012-03-10T12:12:42.000Z</time>
      </trkpt>
      <trkpt lat="45.51724" lon="6.04977">
        <ele>1206</ele>
        <time>2012-03-10T12:12:49.000Z</time>
      </trkpt>
      <trkpt lat="45.51723" lon="6.04973">
        <ele>1206</ele>
        <time>2012-03-10T12:12:54.000Z</time>
      </trkpt>
      <trkpt lat="45.51723" lon="6.04969">
        <ele>1206.4000244141</ele>
        <time>2012-03-10T12:12:58.000Z</time>
      </trkpt>
      <trkpt lat="45.51722" lon="6.04964">
        <ele>1207.4000244141</ele>
        <time>2012-03-10T12:13:05.000Z</time>
      </trkpt>
      <trkpt lat="45.51719" lon="6.04959">
        <ele>1208.8000488281</ele>
        <time>2012-03-10T12:13:11.000Z</time>
      </trkpt>
      <trkpt lat="45.51718" lon="6.04953">
        <ele>1209.8000488281</ele>
        <time>2012-03-10T12:13:17.000Z</time>
      </trkpt>
      <trkpt lat="45.51716" lon="6.04947">
        <ele>1210.8000488281</ele>
        <time>2012-03-10T12:13:23.000Z</time>
      </trkpt>
      <trkpt lat="45.51714" lon="6.04941">
        <ele>1211.8000488281</ele>
        <time>2012-03-10T12:13:30.000Z</time>
      </trkpt>
      <trkpt lat="45.51713" lon="6.04937">
        <ele>1212.1999511719</ele>
        <time>2012-03-10T12:13:35.000Z</time>
      </trkpt>
      <trkpt lat="45.51713" lon="6.04932">
        <ele>1212.8000488281</ele>
        <time>2012-03-10T12:13:41.000Z</time>
      </trkpt>
      <trkpt lat="45.51712" lon="6.04926">
        <ele>1212.8000488281</ele>
        <time>2012-03-10T12:13:47.000Z</time>
      </trkpt>
      <trkpt lat="45.51711" lon="6.0492">
        <ele>1213.1999511719</ele>
        <time>2012-03-10T12:13:53.000Z</time>
      </trkpt>
      <trkpt lat="45.51711" lon="6.04913">
        <ele>1212.8000488281</ele>
        <time>2012-03-10T12:14:00.000Z</time>
      </trkpt>
      <trkpt lat="45.51711" lon="6.04908">
        <ele>1213.8000488281</ele>
        <time>2012-03-10T12:14:04.000Z</time>
      </trkpt>
      <trkpt lat="45.5171" lon="6.04902">
        <ele>1214.5999755859</ele>
        <time>2012-03-10T12:14:09.000Z</time>
      </trkpt>
      <trkpt lat="45.5171" lon="6.04894">
        <ele>1215.1999511719</ele>
        <time>2012-03-10T12:14:15.000Z</time>
      </trkpt>
      <trkpt lat="45.5171" lon="6.04891">
        <ele>1214.5999755859</ele>
        <time>2012-03-10T12:14:21.000Z</time>
      </trkpt>
      <trkpt lat="45.5171" lon="6.04891">
        <ele>1214.5999755859</ele>
        <time>2012-03-10T12:14:22.000Z</time>
      </trkpt>
      <trkpt lat="45.5171" lon="6.04891">
        <ele>1214.5999755859</ele>
        <time>2012-03-10T12:14:22.000Z</time>
      </trkpt>
      <trkpt lat="45.5171" lon="6.0489">
        <ele>1214.1999511719</ele>
        <time>2012-03-10T12:14:27.000Z</time>
      </trkpt>
      <trkpt lat="45.51709" lon="6.04891">
        <ele>1214.1999511719</ele>
        <time>2012-03-10T12:14:52.000Z</time>
      </trkpt>
      <trkpt lat="45.51709" lon="6.04889">
        <ele>1214.1999511719</ele>
        <time>2012-03-10T12:14:58.000Z</time>
      </trkpt>
      <trkpt lat="45.51707" lon="6.04885">
        <ele>1214.1999511719</ele>
        <time>2012-03-10T12:15:05.000Z</time>
      </trkpt>
      <trkpt lat="45.51706" lon="6.04885">
        <ele>1212.8000488281</ele>
        <time>2012-03-10T12:15:26.000Z</time>
      </trkpt>
      <trkpt lat="45.51706" lon="6.04885">
        <ele>1213.1999511719</ele>
        <time>2012-03-10T12:15:34.000Z</time>
      </trkpt>
      <trkpt lat="45.51705" lon="6.04883">
        <ele>1212.8000488281</ele>
        <time>2012-03-10T12:16:16.000Z</time>
      </trkpt>
      <trkpt lat="45.51705" lon="6.04884">
        <ele>1211.8000488281</ele>
        <time>2012-03-10T12:16:23.000Z</time>
      </trkpt>
      <trkpt lat="45.51705" lon="6.04883">
        <ele>1212.1999511719</ele>
        <time>2012-03-10T12:16:29.000Z</time>
      </trkpt>
      <trkpt lat="45.51706" lon="6.04884">
        <ele>1212.1999511719</ele>
        <time>2012-03-10T12:16:38.000Z</time>
      </trkpt>
      <trkpt lat="45.51706" lon="6.04885">
        <ele>1213.8000488281</ele>
        <time>2012-03-10T12:16:53.000Z</time>
      </trkpt>
      <trkpt lat="45.51707" lon="6.04885">
        <ele>1213.1999511719</ele>
        <time>2012-03-10T12:17:08.000Z</time>
      </trkpt>
      <trkpt lat="45.51706" lon="6.04884">
        <ele>1211.8000488281</ele>
        <time>2012-03-10T12:17:14.000Z</time>
      </trkpt>
      <trkpt lat="45.51707" lon="6.04884">
        <ele>1211.1999511719</ele>
        <time>2012-03-10T12:17:22.000Z</time>
      </trkpt>
      <trkpt lat="45.51706" lon="6.04884">
        <ele>1209.8000488281</ele>
        <time>2012-03-10T12:17:33.000Z</time>
      </trkpt>
      <trkpt lat="45.51706" lon="6.04884">
        <ele>1209.4000244141</ele>
        <time>2012-03-10T12:17:38.000Z</time>
      </trkpt>
      <trkpt lat="45.51706" lon="6.04883">
        <ele>1208.8000488281</ele>
        <time>2012-03-10T12:17:45.000Z</time>
      </trkpt>
      <trkpt lat="45.51706" lon="6.04884">
        <ele>1208.4000244141</ele>
        <time>2012-03-10T12:17:51.000Z</time>
      </trkpt>
      <trkpt lat="45.51706" lon="6.04884">
        <ele>1208.8000488281</ele>
        <time>2012-03-10T12:18:02.000Z</time>
      </trkpt>
      <trkpt lat="45.51706" lon="6.04885">
        <ele>1208.8000488281</ele>
        <time>2012-03-10T12:18:09.000Z</time>
      </trkpt>
      <trkpt lat="45.51707" lon="6.04885">
        <ele>1209.4000244141</ele>
        <time>2012-03-10T12:18:20.000Z</time>
      </trkpt>
      <trkpt lat="45.51707" lon="6.04885">
        <ele>1209.8000488281</ele>
        <time>2012-03-10T12:18:25.000Z</time>
      </trkpt>
      <trkpt lat="45.51708" lon="6.04886">
        <ele>1210.8000488281</ele>
        <time>2012-03-10T12:18:38.000Z</time>
      </trkpt>
      <trkpt lat="45.51708" lon="6.04886">
        <ele>1210.8000488281</ele>
        <time>2012-03-10T12:18:44.000Z</time>
      </trkpt>
      <trkpt lat="45.51707" lon="6.04886">
        <ele>1211.8000488281</ele>
        <time>2012-03-10T12:19:03.000Z</time>
      </trkpt>
      <trkpt lat="45.51707" lon="6.04885">
        <ele>1216.5999755859</ele>
        <time>2012-03-10T12:20:03.000Z</time>
      </trkpt>
      <trkpt lat="45.51706" lon="6.04886">
        <ele>1217</ele>
        <time>2012-03-10T12:21:00.000Z</time>
      </trkpt>
      <trkpt lat="45.51705" lon="6.04886">
        <ele>1217</ele>
        <time>2012-03-10T12:21:06.000Z</time>
      </trkpt>
      <trkpt lat="45.51705" lon="6.04885">
        <ele>1214.5999755859</ele>
        <time>2012-03-10T12:21:20.000Z</time>
      </trkpt>
      <trkpt lat="45.51705" lon="6.04885">
        <ele>1213.8000488281</ele>
        <time>2012-03-10T12:21:28.000Z</time>
      </trkpt>
      <trkpt lat="45.51704" lon="6.04884">
        <ele>1213.8000488281</ele>
        <time>2012-03-10T12:21:34.000Z</time>
      </trkpt>
      <trkpt lat="45.51705" lon="6.04884">
        <ele>1213.8000488281</ele>
        <time>2012-03-10T12:21:42.000Z</time>
      </trkpt>
      <trkpt lat="45.51706" lon="6.04882">
        <ele>1213.8000488281</ele>
        <time>2012-03-10T12:22:24.000Z</time>
      </trkpt>
      <trkpt lat="45.51705" lon="6.04885">
        <ele>1217</ele>
        <time>2012-03-10T12:22:46.000Z</time>
      </trkpt>
      <trkpt lat="45.51703" lon="6.04885">
        <ele>1216.1999511719</ele>
        <time>2012-03-10T12:23:15.000Z</time>
      </trkpt>
      <trkpt lat="45.51703" lon="6.04885">
        <ele>1215.5999755859</ele>
        <time>2012-03-10T12:23:18.000Z</time>
      </trkpt>
      <trkpt lat="45.51703" lon="6.04884">
        <ele>1213.1999511719</ele>
        <time>2012-03-10T12:23:39.000Z</time>
      </trkpt>
      <trkpt lat="45.51704" lon="6.04884">
        <ele>1212.8000488281</ele>
        <time>2012-03-10T12:23:48.000Z</time>
      </trkpt>
      <trkpt lat="45.51703" lon="6.04884">
        <ele>1212.1999511719</ele>
        <time>2012-03-10T12:23:53.000Z</time>
      </trkpt>
      <trkpt lat="45.51704" lon="6.04886">
        <ele>1211.8000488281</ele>
        <time>2012-03-10T12:24:00.000Z</time>
      </trkpt>
      <trkpt lat="45.51704" lon="6.04886">
        <ele>1211.1999511719</ele>
        <time>2012-03-10T12:24:05.000Z</time>
      </trkpt>
      <trkpt lat="45.51704" lon="6.04886">
        <ele>1211.8000488281</ele>
        <time>2012-03-10T12:24:10.000Z</time>
      </trkpt>
      <trkpt lat="45.51705" lon="6.04886">
        <ele>1212.1999511719</ele>
        <time>2012-03-10T12:24:18.000Z</time>
      </trkpt>
      <trkpt lat="45.51705" lon="6.04887">
        <ele>1212.8000488281</ele>
        <time>2012-03-10T12:24:23.000Z</time>
      </trkpt>
      <trkpt lat="45.51705" lon="6.04883">
        <ele>1212.1999511719</ele>
        <time>2012-03-10T12:24:27.000Z</time>
      </trkpt>
      <trkpt lat="45.51705" lon="6.04884">
        <ele>1212.1999511719</ele>
        <time>2012-03-10T12:24:33.000Z</time>
      </trkpt>
      <trkpt lat="45.51705" lon="6.04884">
        <ele>1212.1999511719</ele>
        <time>2012-03-10T12:24:38.000Z</time>
      </trkpt>
      <trkpt lat="45.51705" lon="6.04884">
        <ele>1214.5999755859</ele>
        <time>2012-03-10T12:24:47.000Z</time>
      </trkpt>
      <trkpt lat="45.51704" lon="6.04884">
        <ele>1215.1999511719</ele>
        <time>2012-03-10T12:24:52.000Z</time>
      </trkpt>
      <trkpt lat="45.51704" lon="6.04884">
        <ele>1216.1999511719</ele>
        <time>2012-03-10T12:25:00.000Z</time>
      </trkpt>
      <trkpt lat="45.51706" lon="6.04883">
        <ele>1214.1999511719</ele>
        <time>2012-03-10T12:27:39.000Z</time>
      </trkpt>
      <trkpt lat="45.51706" lon="6.04883">
        <ele>1214.1999511719</ele>
        <time>2012-03-10T12:27:45.000Z</time>
      </trkpt>
      <trkpt lat="45.51707" lon="6.04882">
        <ele>1213.8000488281</ele>
        <time>2012-03-10T12:28:14.000Z</time>
      </trkpt>
      <trkpt lat="45.51707" lon="6.04882">
        <ele>1214.5999755859</ele>
        <time>2012-03-10T12:28:30.000Z</time>
      </trkpt>
      <trkpt lat="45.51707" lon="6.0488">
        <ele>1214.1999511719</ele>
        <time>2012-03-10T12:28:47.000Z</time>
      </trkpt>
      <trkpt lat="45.51704" lon="6.0488">
        <ele>1208.4000244141</ele>
        <time>2012-03-10T12:29:54.000Z</time>
      </trkpt>
      <trkpt lat="45.51703" lon="6.04885">
        <ele>1205.5999755859</ele>
        <time>2012-03-10T12:30:31.000Z</time>
      </trkpt>
      <trkpt lat="45.51702" lon="6.04884">
        <ele>1205.5999755859</ele>
        <time>2012-03-10T12:30:37.000Z</time>
      </trkpt>
      <trkpt lat="45.51703" lon="6.04884">
        <ele>1208.4000244141</ele>
        <time>2012-03-10T12:30:52.000Z</time>
      </trkpt>
      <trkpt lat="45.51705" lon="6.04883">
        <ele>1211.8000488281</ele>
        <time>2012-03-10T12:31:28.000Z</time>
      </trkpt>
      <trkpt lat="45.51704" lon="6.04885">
        <ele>1211.1999511719</ele>
        <time>2012-03-10T12:31:43.000Z</time>
      </trkpt>
      <trkpt lat="45.51704" lon="6.04884">
        <ele>1209.8000488281</ele>
        <time>2012-03-10T12:32:58.000Z</time>
      </trkpt>
      <trkpt lat="45.51704" lon="6.04886">
        <ele>1209.8000488281</ele>
        <time>2012-03-10T12:33:08.000Z</time>
      </trkpt>
      <trkpt lat="45.51703" lon="6.04888">
        <ele>1211.1999511719</ele>
        <time>2012-03-10T12:33:22.000Z</time>
      </trkpt>
      <trkpt lat="45.51702" lon="6.04889">
        <ele>1212.8000488281</ele>
        <time>2012-03-10T12:33:41.000Z</time>
      </trkpt>
      <trkpt lat="45.51704" lon="6.04885">
        <ele>1209.8000488281</ele>
        <time>2012-03-10T12:33:52.000Z</time>
      </trkpt>
      <trkpt lat="45.51706" lon="6.04884">
        <ele>1210.8000488281</ele>
        <time>2012-03-10T12:34:14.000Z</time>
      </trkpt>
      <trkpt lat="45.51706" lon="6.04885">
        <ele>1211.1999511719</ele>
        <time>2012-03-10T12:34:19.000Z</time>
      </trkpt>
      <trkpt lat="45.51706" lon="6.04884">
        <ele>1211.1999511719</ele>
        <time>2012-03-10T12:34:30.000Z</time>
      </trkpt>
      <trkpt lat="45.51706" lon="6.04884">
        <ele>1210.4000244141</ele>
        <time>2012-03-10T12:34:38.000Z</time>
      </trkpt>
      <trkpt lat="45.51705" lon="6.04884">
        <ele>1210.4000244141</ele>
        <time>2012-03-10T12:34:46.000Z</time>
      </trkpt>
      <trkpt lat="45.51706" lon="6.04883">
        <ele>1209.8000488281</ele>
        <time>2012-03-10T12:35:39.000Z</time>
      </trkpt>
      <trkpt lat="45.51706" lon="6.04883">
        <ele>1209.8000488281</ele>
        <time>2012-03-10T12:35:48.000Z</time>
      </trkpt>
      <trkpt lat="45.51705" lon="6.04883">
        <ele>1209.4000244141</ele>
        <time>2012-03-10T12:36:03.000Z</time>
      </trkpt>
      <trkpt lat="45.51705" lon="6.04882">
        <ele>1208.8000488281</ele>
        <time>2012-03-10T12:36:22.000Z</time>
      </trkpt>
      <trkpt lat="45.51705" lon="6.04881">
        <ele>1209.4000244141</ele>
        <time>2012-03-10T12:36:35.000Z</time>
      </trkpt>
      <trkpt lat="45.51706" lon="6.0488">
        <ele>1208</ele>
        <time>2012-03-10T12:37:09.000Z</time>
      </trkpt>
      <trkpt lat="45.51706" lon="6.0488">
        <ele>1208.8000488281</ele>
        <time>2012-03-10T12:37:22.000Z</time>
      </trkpt>
      <trkpt lat="45.51705" lon="6.04881">
        <ele>1209.4000244141</ele>
        <time>2012-03-10T12:37:34.000Z</time>
      </trkpt>
      <trkpt lat="45.51705" lon="6.04881">
        <ele>1210.8000488281</ele>
        <time>2012-03-10T12:37:46.000Z</time>
      </trkpt>
      <trkpt lat="45.51706" lon="6.04881">
        <ele>1205.5999755859</ele>
        <time>2012-03-10T12:38:40.000Z</time>
      </trkpt>
      <trkpt lat="45.51705" lon="6.04881">
        <ele>1204.5999755859</ele>
        <time>2012-03-10T12:39:15.000Z</time>
      </trkpt>
      <trkpt lat="45.51704" lon="6.04882">
        <ele>1204.5999755859</ele>
        <time>2012-03-10T12:39:23.000Z</time>
      </trkpt>
      <trkpt lat="45.51704" lon="6.04883">
        <ele>1205.5999755859</ele>
        <time>2012-03-10T12:39:57.000Z</time>
      </trkpt>
      <trkpt lat="45.51706" lon="6.04883">
        <ele>1207</ele>
        <time>2012-03-10T12:40:33.000Z</time>
      </trkpt>
      <trkpt lat="45.51705" lon="6.04884">
        <ele>1208</ele>
        <time>2012-03-10T12:40:39.000Z</time>
      </trkpt>
      <trkpt lat="45.51704" lon="6.04883">
        <ele>1208.8000488281</ele>
        <time>2012-03-10T12:40:48.000Z</time>
      </trkpt>
      <trkpt lat="45.51704" lon="6.04884">
        <ele>1208.8000488281</ele>
        <time>2012-03-10T12:40:55.000Z</time>
      </trkpt>
      <trkpt lat="45.51703" lon="6.04884">
        <ele>1208.8000488281</ele>
        <time>2012-03-10T12:41:07.000Z</time>
      </trkpt>
      <trkpt lat="45.51703" lon="6.04884">
        <ele>1208.4000244141</ele>
        <time>2012-03-10T12:41:16.000Z</time>
      </trkpt>
      <trkpt lat="45.51705" lon="6.04884">
        <ele>1209.4000244141</ele>
        <time>2012-03-10T12:41:25.000Z</time>
      </trkpt>
      <trkpt lat="45.51705" lon="6.04884">
        <ele>1208.8000488281</ele>
        <time>2012-03-10T12:41:34.000Z</time>
      </trkpt>
      <trkpt lat="45.51705" lon="6.04884">
        <ele>1206.4000244141</ele>
        <time>2012-03-10T12:41:49.000Z</time>
      </trkpt>
      <trkpt lat="45.51705" lon="6.04883">
        <ele>1207</ele>
        <time>2012-03-10T12:41:59.000Z</time>
      </trkpt>
      <trkpt lat="45.51705" lon="6.04882">
        <ele>1206.4000244141</ele>
        <time>2012-03-10T12:42:05.000Z</time>
      </trkpt>
      <trkpt lat="45.51706" lon="6.04884">
        <ele>1205.5999755859</ele>
        <time>2012-03-10T12:42:19.000Z</time>
      </trkpt>
      <trkpt lat="45.51706" lon="6.04884">
        <ele>1206</ele>
        <time>2012-03-10T12:42:20.000Z</time>
      </trkpt>
      <trkpt lat="45.51706" lon="6.04884">
        <ele>1206</ele>
        <time>2012-03-10T12:42:20.000Z</time>
      </trkpt>
      <trkpt lat="45.51708" lon="6.04884">
        <ele>1206</ele>
        <time>2012-03-10T12:42:25.000Z</time>
      </trkpt>
      <trkpt lat="45.51709" lon="6.04883">
        <ele>1206.4000244141</ele>
        <time>2012-03-10T12:42:31.000Z</time>
      </trkpt>
      <trkpt lat="45.5171" lon="6.04883">
        <ele>1207</ele>
        <time>2012-03-10T12:42:38.000Z</time>
      </trkpt>
      <trkpt lat="45.51712" lon="6.04884">
        <ele>1206.4000244141</ele>
        <time>2012-03-10T12:42:44.000Z</time>
      </trkpt>
      <trkpt lat="45.51713" lon="6.04886">
        <ele>1206</ele>
        <time>2012-03-10T12:42:49.000Z</time>
      </trkpt>
      <trkpt lat="45.51716" lon="6.04889">
        <ele>1204</ele>
        <time>2012-03-10T12:42:56.000Z</time>
      </trkpt>
      <trkpt lat="45.51718" lon="6.04891">
        <ele>1203.1999511719</ele>
        <time>2012-03-10T12:43:01.000Z</time>
      </trkpt>
      <trkpt lat="45.5172" lon="6.04892">
        <ele>1202.5999755859</ele>
        <time>2012-03-10T12:43:09.000Z</time>
      </trkpt>
      <trkpt lat="45.51723" lon="6.04893">
        <ele>1201.1999511719</ele>
        <time>2012-03-10T12:43:13.000Z</time>
      </trkpt>
      <trkpt lat="45.51725" lon="6.04894">
        <ele>1200.8000488281</ele>
        <time>2012-03-10T12:43:18.000Z</time>
      </trkpt>
      <trkpt lat="45.51726" lon="6.04896">
        <ele>1200.8000488281</ele>
        <time>2012-03-10T12:43:26.000Z</time>
      </trkpt>
      <trkpt lat="45.51727" lon="6.04899">
        <ele>1199.1999511719</ele>
        <time>2012-03-10T12:43:32.000Z</time>
      </trkpt>
      <trkpt lat="45.5173" lon="6.04904">
        <ele>1197.4000244141</ele>
        <time>2012-03-10T12:43:38.000Z</time>
      </trkpt>
      <trkpt lat="45.5173" lon="6.04909">
        <ele>1195.4000244141</ele>
        <time>2012-03-10T12:43:43.000Z</time>
      </trkpt>
      <trkpt lat="45.51731" lon="6.04912">
        <ele>1195</ele>
        <time>2012-03-10T12:43:51.000Z</time>
      </trkpt>
      <trkpt lat="45.51731" lon="6.04912">
        <ele>1199.1999511719</ele>
        <time>2012-03-10T12:44:05.000Z</time>
      </trkpt>
      <trkpt lat="45.51733" lon="6.04915">
        <ele>1197.4000244141</ele>
        <time>2012-03-10T12:44:11.000Z</time>
      </trkpt>
      <trkpt lat="45.51734" lon="6.04917">
        <ele>1195</ele>
        <time>2012-03-10T12:44:18.000Z</time>
      </trkpt>
      <trkpt lat="45.51735" lon="6.04923">
        <ele>1194</ele>
        <time>2012-03-10T12:44:24.000Z</time>
      </trkpt>
      <trkpt lat="45.51735" lon="6.04928">
        <ele>1191.5999755859</ele>
        <time>2012-03-10T12:44:30.000Z</time>
      </trkpt>
      <trkpt lat="45.51738" lon="6.04924">
        <ele>1189.5999755859</ele>
        <time>2012-03-10T12:44:35.000Z</time>
      </trkpt>
      <trkpt lat="45.5174" lon="6.04918">
        <ele>1186.8000488281</ele>
        <time>2012-03-10T12:44:41.000Z</time>
      </trkpt>
      <trkpt lat="45.51742" lon="6.04912">
        <ele>1185.4000244141</ele>
        <time>2012-03-10T12:44:48.000Z</time>
      </trkpt>
      <trkpt lat="45.51743" lon="6.04909">
        <ele>1186.8000488281</ele>
        <time>2012-03-10T12:44:54.000Z</time>
      </trkpt>
      <trkpt lat="45.51741" lon="6.04904">
        <ele>1188.8000488281</ele>
        <time>2012-03-10T12:45:01.000Z</time>
      </trkpt>
      <trkpt lat="45.51738" lon="6.04898">
        <ele>1187.1999511719</ele>
        <time>2012-03-10T12:45:08.000Z</time>
      </trkpt>
      <trkpt lat="45.51738" lon="6.04889">
        <ele>1186.4000244141</ele>
        <time>2012-03-10T12:45:15.000Z</time>
      </trkpt>
      <trkpt lat="45.51736" lon="6.04883">
        <ele>1185.4000244141</ele>
        <time>2012-03-10T12:45:21.000Z</time>
      </trkpt>
      <trkpt lat="45.51735" lon="6.04876">
        <ele>1188.1999511719</ele>
        <time>2012-03-10T12:45:27.000Z</time>
      </trkpt>
      <trkpt lat="45.51735" lon="6.04873">
        <ele>1189.1999511719</ele>
        <time>2012-03-10T12:45:32.000Z</time>
      </trkpt>
      <trkpt lat="45.51735" lon="6.04872">
        <ele>1188.8000488281</ele>
        <time>2012-03-10T12:45:41.000Z</time>
      </trkpt>
      <trkpt lat="45.51734" lon="6.04871">
        <ele>1189.1999511719</ele>
        <time>2012-03-10T12:45:47.000Z</time>
      </trkpt>
      <trkpt lat="45.51732" lon="6.04866">
        <ele>1189.5999755859</ele>
        <time>2012-03-10T12:45:52.000Z</time>
      </trkpt>
      <trkpt lat="45.5173" lon="6.04858">
        <ele>1191.1999511719</ele>
        <time>2012-03-10T12:45:58.000Z</time>
      </trkpt>
      <trkpt lat="45.51726" lon="6.04855">
        <ele>1191.1999511719</ele>
        <time>2012-03-10T12:46:05.000Z</time>
      </trkpt>
      <trkpt lat="45.51725" lon="6.04854">
        <ele>1191.1999511719</ele>
        <time>2012-03-10T12:46:10.000Z</time>
      </trkpt>
      <trkpt lat="45.51722" lon="6.04854">
        <ele>1190.1999511719</ele>
        <time>2012-03-10T12:46:15.000Z</time>
      </trkpt>
      <trkpt lat="45.51719" lon="6.04849">
        <ele>1188.1999511719</ele>
        <time>2012-03-10T12:46:21.000Z</time>
      </trkpt>
      <trkpt lat="45.51717" lon="6.04848">
        <ele>1187.8000488281</ele>
        <time>2012-03-10T12:46:27.000Z</time>
      </trkpt>
      <trkpt lat="45.51715" lon="6.04845">
        <ele>1188.8000488281</ele>
        <time>2012-03-10T12:46:33.000Z</time>
      </trkpt>
      <trkpt lat="45.51712" lon="6.04841">
        <ele>1187.1999511719</ele>
        <time>2012-03-10T12:46:39.000Z</time>
      </trkpt>
      <trkpt lat="45.51709" lon="6.04841">
        <ele>1188.8000488281</ele>
        <time>2012-03-10T12:46:45.000Z</time>
      </trkpt>
      <trkpt lat="45.51708" lon="6.0484">
        <ele>1187.8000488281</ele>
        <time>2012-03-10T12:46:50.000Z</time>
      </trkpt>
      <trkpt lat="45.51709" lon="6.04841">
        <ele>1186.4000244141</ele>
        <time>2012-03-10T12:46:55.000Z</time>
      </trkpt>
      <trkpt lat="45.51709" lon="6.04837">
        <ele>1185.4000244141</ele>
        <time>2012-03-10T12:46:57.000Z</time>
      </trkpt>
      <trkpt lat="45.51708" lon="6.0483">
        <ele>1180.5999755859</ele>
        <time>2012-03-10T12:47:04.000Z</time>
      </trkpt>
      <trkpt lat="45.51707" lon="6.04831">
        <ele>1180.5999755859</ele>
        <time>2012-03-10T12:47:05.000Z</time>
      </trkpt>
      <trkpt lat="45.51704" lon="6.0483">
        <ele>1177.1999511719</ele>
        <time>2012-03-10T12:47:10.000Z</time>
      </trkpt>
      <trkpt lat="45.51699" lon="6.04822">
        <ele>1175.1999511719</ele>
        <time>2012-03-10T12:47:16.000Z</time>
      </trkpt>
      <trkpt lat="45.51692" lon="6.04817">
        <ele>1174.1999511719</ele>
        <time>2012-03-10T12:47:23.000Z</time>
      </trkpt>
      <trkpt lat="45.51688" lon="6.04815">
        <ele>1176.1999511719</ele>
        <time>2012-03-10T12:47:27.000Z</time>
      </trkpt>
      <trkpt lat="45.51685" lon="6.04811">
        <ele>1180.5999755859</ele>
        <time>2012-03-10T12:47:37.000Z</time>
      </trkpt>
      <trkpt lat="45.5168" lon="6.04812">
        <ele>1179.5999755859</ele>
        <time>2012-03-10T12:47:43.000Z</time>
      </trkpt>
      <trkpt lat="45.51675" lon="6.04814">
        <ele>1178.1999511719</ele>
        <time>2012-03-10T12:47:48.000Z</time>
      </trkpt>
      <trkpt lat="45.51671" lon="6.04816">
        <ele>1178.1999511719</ele>
        <time>2012-03-10T12:47:55.000Z</time>
      </trkpt>
      <trkpt lat="45.51673" lon="6.04813">
        <ele>1179.5999755859</ele>
        <time>2012-03-10T12:48:02.000Z</time>
      </trkpt>
      <trkpt lat="45.51673" lon="6.04813">
        <ele>1178.1999511719</ele>
        <time>2012-03-10T12:48:07.000Z</time>
      </trkpt>
      <trkpt lat="45.51675" lon="6.04811">
        <ele>1181</ele>
        <time>2012-03-10T12:48:39.000Z</time>
      </trkpt>
      <trkpt lat="45.51673" lon="6.04814">
        <ele>1177.5999755859</ele>
        <time>2012-03-10T12:48:45.000Z</time>
      </trkpt>
      <trkpt lat="45.5167" lon="6.04816">
        <ele>1176.1999511719</ele>
        <time>2012-03-10T12:48:51.000Z</time>
      </trkpt>
      <trkpt lat="45.51666" lon="6.04818">
        <ele>1176.5999755859</ele>
        <time>2012-03-10T12:48:57.000Z</time>
      </trkpt>
      <trkpt lat="45.5166" lon="6.04822">
        <ele>1179</ele>
        <time>2012-03-10T12:49:03.000Z</time>
      </trkpt>
      <trkpt lat="45.51656" lon="6.0482">
        <ele>1177.1999511719</ele>
        <time>2012-03-10T12:49:10.000Z</time>
      </trkpt>
      <trkpt lat="45.51652" lon="6.04814">
        <ele>1177.1999511719</ele>
        <time>2012-03-10T12:49:17.000Z</time>
      </trkpt>
      <trkpt lat="45.51648" lon="6.04809">
        <ele>1178.1999511719</ele>
        <time>2012-03-10T12:49:24.000Z</time>
      </trkpt>
      <trkpt lat="45.51646" lon="6.04805">
        <ele>1178.5999755859</ele>
        <time>2012-03-10T12:49:30.000Z</time>
      </trkpt>
      <trkpt lat="45.51645" lon="6.048">
        <ele>1180.5999755859</ele>
        <time>2012-03-10T12:49:36.000Z</time>
      </trkpt>
      <trkpt lat="45.5164" lon="6.04797">
        <ele>1183</ele>
        <time>2012-03-10T12:49:44.000Z</time>
      </trkpt>
      <trkpt lat="45.51635" lon="6.04794">
        <ele>1184</ele>
        <time>2012-03-10T12:49:52.000Z</time>
      </trkpt>
      <trkpt lat="45.51629" lon="6.0479">
        <ele>1183.4000244141</ele>
        <time>2012-03-10T12:50:01.000Z</time>
      </trkpt>
      <trkpt lat="45.51626" lon="6.04791">
        <ele>1182.4000244141</ele>
        <time>2012-03-10T12:50:05.000Z</time>
      </trkpt>
      <trkpt lat="45.51626" lon="6.04789">
        <ele>1180</ele>
        <time>2012-03-10T12:50:09.000Z</time>
      </trkpt>
      <trkpt lat="45.51624" lon="6.04787">
        <ele>1178.5999755859</ele>
        <time>2012-03-10T12:50:15.000Z</time>
      </trkpt>
      <trkpt lat="45.51623" lon="6.04787">
        <ele>1176.5999755859</ele>
        <time>2012-03-10T12:50:20.000Z</time>
      </trkpt>
      <trkpt lat="45.51621" lon="6.04787">
        <ele>1176.5999755859</ele>
        <time>2012-03-10T12:50:26.000Z</time>
      </trkpt>
      <trkpt lat="45.51617" lon="6.04786">
        <ele>1175.8000488281</ele>
        <time>2012-03-10T12:50:32.000Z</time>
      </trkpt>
      <trkpt lat="45.51612" lon="6.04785">
        <ele>1177.1999511719</ele>
        <time>2012-03-10T12:50:37.000Z</time>
      </trkpt>
      <trkpt lat="45.5161" lon="6.04781">
        <ele>1177.1999511719</ele>
        <time>2012-03-10T12:50:43.000Z</time>
      </trkpt>
      <trkpt lat="45.5161" lon="6.04781">
        <ele>1176.1999511719</ele>
        <time>2012-03-10T12:50:50.000Z</time>
      </trkpt>
      <trkpt lat="45.51609" lon="6.04776">
        <ele>1174.8000488281</ele>
        <time>2012-03-10T12:51:00.000Z</time>
      </trkpt>
      <trkpt lat="45.51607" lon="6.0477">
        <ele>1174.1999511719</ele>
        <time>2012-03-10T12:51:08.000Z</time>
      </trkpt>
      <trkpt lat="45.51607" lon="6.04763">
        <ele>1173.8000488281</ele>
        <time>2012-03-10T12:51:15.000Z</time>
      </trkpt>
      <trkpt lat="45.51606" lon="6.04756">
        <ele>1173.4000244141</ele>
        <time>2012-03-10T12:51:22.000Z</time>
      </trkpt>
      <trkpt lat="45.51604" lon="6.04749">
        <ele>1176.1999511719</ele>
        <time>2012-03-10T12:51:27.000Z</time>
      </trkpt>
      <trkpt lat="45.51601" lon="6.04744">
        <ele>1179.5999755859</ele>
        <time>2012-03-10T12:51:32.000Z</time>
      </trkpt>
      <trkpt lat="45.51596" lon="6.04734">
        <ele>1183.4000244141</ele>
        <time>2012-03-10T12:51:41.000Z</time>
      </trkpt>
      <trkpt lat="45.51594" lon="6.04725">
        <ele>1184</ele>
        <time>2012-03-10T12:51:48.000Z</time>
      </trkpt>
      <trkpt lat="45.51592" lon="6.04716">
        <ele>1184.4000244141</ele>
        <time>2012-03-10T12:51:55.000Z</time>
      </trkpt>
      <trkpt lat="45.51591" lon="6.04708">
        <ele>1184.8000488281</ele>
        <time>2012-03-10T12:52:01.000Z</time>
      </trkpt>
      <trkpt lat="45.51588" lon="6.047">
        <ele>1185.8000488281</ele>
        <time>2012-03-10T12:52:07.000Z</time>
      </trkpt>
      <trkpt lat="45.51587" lon="6.04691">
        <ele>1186.4000244141</ele>
        <time>2012-03-10T12:52:14.000Z</time>
      </trkpt>
      <trkpt lat="45.51587" lon="6.04685">
        <ele>1187.1999511719</ele>
        <time>2012-03-10T12:52:20.000Z</time>
      </trkpt>
      <trkpt lat="45.51588" lon="6.04681">
        <ele>1187.1999511719</ele>
        <time>2012-03-10T12:52:25.000Z</time>
      </trkpt>
      <trkpt lat="45.51587" lon="6.04675">
        <ele>1186.4000244141</ele>
        <time>2012-03-10T12:52:32.000Z</time>
      </trkpt>
      <trkpt lat="45.51585" lon="6.04669">
        <ele>1186.8000488281</ele>
        <time>2012-03-10T12:52:38.000Z</time>
      </trkpt>
      <trkpt lat="45.51584" lon="6.04662">
        <ele>1187.1999511719</ele>
        <time>2012-03-10T12:52:45.000Z</time>
      </trkpt>
      <trkpt lat="45.51583" lon="6.04652">
        <ele>1188.1999511719</ele>
        <time>2012-03-10T12:52:55.000Z</time>
      </trkpt>
      <trkpt lat="45.51582" lon="6.04646">
        <ele>1187.8000488281</ele>
        <time>2012-03-10T12:53:01.000Z</time>
      </trkpt>
      <trkpt lat="45.51583" lon="6.04638">
        <ele>1187.8000488281</ele>
        <time>2012-03-10T12:53:07.000Z</time>
      </trkpt>
      <trkpt lat="45.51583" lon="6.04631">
        <ele>1185.4000244141</ele>
        <time>2012-03-10T12:53:13.000Z</time>
      </trkpt>
      <trkpt lat="45.51583" lon="6.04623">
        <ele>1182.4000244141</ele>
        <time>2012-03-10T12:53:20.000Z</time>
      </trkpt>
      <trkpt lat="45.51585" lon="6.04613">
        <ele>1179.5999755859</ele>
        <time>2012-03-10T12:53:28.000Z</time>
      </trkpt>
      <trkpt lat="45.51585" lon="6.04603">
        <ele>1179</ele>
        <time>2012-03-10T12:53:34.000Z</time>
      </trkpt>
      <trkpt lat="45.51582" lon="6.04597">
        <ele>1182.4000244141</ele>
        <time>2012-03-10T12:53:40.000Z</time>
      </trkpt>
      <trkpt lat="45.51581" lon="6.04592">
        <ele>1186.4000244141</ele>
        <time>2012-03-10T12:53:44.000Z</time>
      </trkpt>
      <trkpt lat="45.51582" lon="6.04588">
        <ele>1186.8000488281</ele>
        <time>2012-03-10T12:53:49.000Z</time>
      </trkpt>
      <trkpt lat="45.51581" lon="6.04581">
        <ele>1187.8000488281</ele>
        <time>2012-03-10T12:53:55.000Z</time>
      </trkpt>
      <trkpt lat="45.5158" lon="6.04572">
        <ele>1188.1999511719</ele>
        <time>2012-03-10T12:54:02.000Z</time>
      </trkpt>
      <trkpt lat="45.5158" lon="6.0456">
        <ele>1190.5999755859</ele>
        <time>2012-03-10T12:54:10.000Z</time>
      </trkpt>
      <trkpt lat="45.5158" lon="6.04559">
        <ele>1191.1999511719</ele>
        <time>2012-03-10T12:54:11.000Z</time>
      </trkpt>
      <trkpt lat="45.51579" lon="6.04554">
        <ele>1189.5999755859</ele>
        <time>2012-03-10T12:54:17.000Z</time>
      </trkpt>
      <trkpt lat="45.51578" lon="6.04548">
        <ele>1187.8000488281</ele>
        <time>2012-03-10T12:54:23.000Z</time>
      </trkpt>
      <trkpt lat="45.51578" lon="6.04539">
        <ele>1185.4000244141</ele>
        <time>2012-03-10T12:54:30.000Z</time>
      </trkpt>
      <trkpt lat="45.51577" lon="6.04535">
        <ele>1186.8000488281</ele>
        <time>2012-03-10T12:54:35.000Z</time>
      </trkpt>
      <trkpt lat="45.51576" lon="6.0453">
        <ele>1188.8000488281</ele>
        <time>2012-03-10T12:54:49.000Z</time>
      </trkpt>
      <trkpt lat="45.51575" lon="6.04523">
        <ele>1190.1999511719</ele>
        <time>2012-03-10T12:54:56.000Z</time>
      </trkpt>
      <trkpt lat="45.51575" lon="6.04526">
        <ele>1191.1999511719</ele>
        <time>2012-03-10T12:55:03.000Z</time>
      </trkpt>
      <trkpt lat="45.51577" lon="6.04531">
        <ele>1189.5999755859</ele>
        <time>2012-03-10T12:55:09.000Z</time>
      </trkpt>
      <trkpt lat="45.51577" lon="6.04532">
        <ele>1189.1999511719</ele>
        <time>2012-03-10T12:55:13.000Z</time>
      </trkpt>
      <trkpt lat="45.51576" lon="6.04525">
        <ele>1194.4000244141</ele>
        <time>2012-03-10T12:55:29.000Z</time>
      </trkpt>
      <trkpt lat="45.51574" lon="6.04518">
        <ele>1196</ele>
        <time>2012-03-10T12:55:36.000Z</time>
      </trkpt>
      <trkpt lat="45.51571" lon="6.04517">
        <ele>1195.4000244141</ele>
        <time>2012-03-10T12:55:44.000Z</time>
      </trkpt>
      <trkpt lat="45.51568" lon="6.04514">
        <ele>1196.8000488281</ele>
        <time>2012-03-10T12:55:51.000Z</time>
      </trkpt>
      <trkpt lat="45.51567" lon="6.0451">
        <ele>1196.4000244141</ele>
        <time>2012-03-10T12:55:58.000Z</time>
      </trkpt>
      <trkpt lat="45.51566" lon="6.04509">
        <ele>1195.4000244141</ele>
        <time>2012-03-10T12:56:06.000Z</time>
      </trkpt>
      <trkpt lat="45.51564" lon="6.04508">
        <ele>1192.5999755859</ele>
        <time>2012-03-10T12:56:14.000Z</time>
      </trkpt>
      <trkpt lat="45.51562" lon="6.04507">
        <ele>1191.5999755859</ele>
        <time>2012-03-10T12:56:20.000Z</time>
      </trkpt>
      <trkpt lat="45.51559" lon="6.04509">
        <ele>1192.5999755859</ele>
        <time>2012-03-10T12:56:25.000Z</time>
      </trkpt>
      <trkpt lat="45.51556" lon="6.04514">
        <ele>1194</ele>
        <time>2012-03-10T12:56:32.000Z</time>
      </trkpt>
      <trkpt lat="45.51552" lon="6.04515">
        <ele>1194</ele>
        <time>2012-03-10T12:56:39.000Z</time>
      </trkpt>
      <trkpt lat="45.51549" lon="6.04517">
        <ele>1195</ele>
        <time>2012-03-10T12:56:45.000Z</time>
      </trkpt>
      <trkpt lat="45.51548" lon="6.04516">
        <ele>1195</ele>
        <time>2012-03-10T12:56:49.000Z</time>
      </trkpt>
      <trkpt lat="45.51548" lon="6.04515">
        <ele>1196.4000244141</ele>
        <time>2012-03-10T12:56:54.000Z</time>
      </trkpt>
      <trkpt lat="45.51548" lon="6.04514">
        <ele>1196.4000244141</ele>
        <time>2012-03-10T12:56:59.000Z</time>
      </trkpt>
      <trkpt lat="45.51546" lon="6.04511">
        <ele>1196.4000244141</ele>
        <time>2012-03-10T12:57:01.000Z</time>
      </trkpt>
      <trkpt lat="45.51545" lon="6.04508">
        <ele>1197.8000488281</ele>
        <time>2012-03-10T12:57:03.000Z</time>
      </trkpt>
      <trkpt lat="45.51545" lon="6.04503">
        <ele>1196.8000488281</ele>
        <time>2012-03-10T12:57:07.000Z</time>
      </trkpt>
      <trkpt lat="45.51543" lon="6.04496">
        <ele>1198.4000244141</ele>
        <time>2012-03-10T12:57:15.000Z</time>
      </trkpt>
      <trkpt lat="45.51543" lon="6.04492">
        <ele>1199.8000488281</ele>
        <time>2012-03-10T12:57:20.000Z</time>
      </trkpt>
      <trkpt lat="45.51544" lon="6.0449">
        <ele>1201.1999511719</ele>
        <time>2012-03-10T12:57:26.000Z</time>
      </trkpt>
      <trkpt lat="45.51541" lon="6.04487">
        <ele>1202.5999755859</ele>
        <time>2012-03-10T12:57:31.000Z</time>
      </trkpt>
      <trkpt lat="45.51541" lon="6.04485">
        <ele>1203.5999755859</ele>
        <time>2012-03-10T12:57:35.000Z</time>
      </trkpt>
      <trkpt lat="45.51541" lon="6.0448">
        <ele>1205</ele>
        <time>2012-03-10T12:57:41.000Z</time>
      </trkpt>
      <trkpt lat="45.5154" lon="6.04478">
        <ele>1206.4000244141</ele>
        <time>2012-03-10T12:57:46.000Z</time>
      </trkpt>
      <trkpt lat="45.51541" lon="6.04478">
        <ele>1207.4000244141</ele>
        <time>2012-03-10T12:57:52.000Z</time>
      </trkpt>
      <trkpt lat="45.51541" lon="6.04479">
        <ele>1206</ele>
        <time>2012-03-10T12:58:10.000Z</time>
      </trkpt>
      <trkpt lat="45.51541" lon="6.04478">
        <ele>1205.5999755859</ele>
        <time>2012-03-10T12:58:31.000Z</time>
      </trkpt>
      <trkpt lat="45.51542" lon="6.04475">
        <ele>1205.5999755859</ele>
        <time>2012-03-10T12:58:37.000Z</time>
      </trkpt>
      <trkpt lat="45.51542" lon="6.0447">
        <ele>1205.5999755859</ele>
        <time>2012-03-10T12:58:43.000Z</time>
      </trkpt>
      <trkpt lat="45.51542" lon="6.04466">
        <ele>1205.5999755859</ele>
        <time>2012-03-10T12:58:49.000Z</time>
      </trkpt>
      <trkpt lat="45.51541" lon="6.04466">
        <ele>1205.5999755859</ele>
        <time>2012-03-10T12:58:54.000Z</time>
      </trkpt>
      <trkpt lat="45.5154" lon="6.04462">
        <ele>1205</ele>
        <time>2012-03-10T12:58:59.000Z</time>
      </trkpt>
      <trkpt lat="45.51541" lon="6.04457">
        <ele>1204.5999755859</ele>
        <time>2012-03-10T12:59:05.000Z</time>
      </trkpt>
      <trkpt lat="45.51542" lon="6.04452">
        <ele>1201.5999755859</ele>
        <time>2012-03-10T12:59:12.000Z</time>
      </trkpt>
      <trkpt lat="45.51542" lon="6.04448">
        <ele>1200.1999511719</ele>
        <time>2012-03-10T12:59:16.000Z</time>
      </trkpt>
      <trkpt lat="45.51542" lon="6.04444">
        <ele>1199.8000488281</ele>
        <time>2012-03-10T12:59:21.000Z</time>
      </trkpt>
      <trkpt lat="45.51544" lon="6.04441">
        <ele>1200.8000488281</ele>
        <time>2012-03-10T12:59:27.000Z</time>
      </trkpt>
      <trkpt lat="45.51546" lon="6.04437">
        <ele>1201.1999511719</ele>
        <time>2012-03-10T12:59:33.000Z</time>
      </trkpt>
      <trkpt lat="45.51545" lon="6.04433">
        <ele>1201.5999755859</ele>
        <time>2012-03-10T12:59:38.000Z</time>
      </trkpt>
      <trkpt lat="45.51544" lon="6.04428">
        <ele>1201.5999755859</ele>
        <time>2012-03-10T12:59:43.000Z</time>
      </trkpt>
      <trkpt lat="45.51545" lon="6.04423">
        <ele>1200.8000488281</ele>
        <time>2012-03-10T12:59:48.000Z</time>
      </trkpt>
      <trkpt lat="45.51543" lon="6.04418">
        <ele>1202.5999755859</ele>
        <time>2012-03-10T12:59:54.000Z</time>
      </trkpt>
      <trkpt lat="45.51544" lon="6.04411">
        <ele>1203.1999511719</ele>
        <time>2012-03-10T13:00:01.000Z</time>
      </trkpt>
      <trkpt lat="45.51546" lon="6.044">
        <ele>1201.5999755859</ele>
        <time>2012-03-10T13:00:09.000Z</time>
      </trkpt>
      <trkpt lat="45.51546" lon="6.04396">
        <ele>1201.1999511719</ele>
        <time>2012-03-10T13:00:12.000Z</time>
      </trkpt>
      <trkpt lat="45.51546" lon="6.04386">
        <ele>1201.1999511719</ele>
        <time>2012-03-10T13:00:18.000Z</time>
      </trkpt>
      <trkpt lat="45.51546" lon="6.04379">
        <ele>1200.1999511719</ele>
        <time>2012-03-10T13:00:22.000Z</time>
      </trkpt>
      <trkpt lat="45.51542" lon="6.04366">
        <ele>1200.8000488281</ele>
        <time>2012-03-10T13:00:33.000Z</time>
      </trkpt>
      <trkpt lat="45.51544" lon="6.04358">
        <ele>1200.1999511719</ele>
        <time>2012-03-10T13:00:40.000Z</time>
      </trkpt>
      <trkpt lat="45.51544" lon="6.04354">
        <ele>1199.1999511719</ele>
        <time>2012-03-10T13:00:45.000Z</time>
      </trkpt>
      <trkpt lat="45.51543" lon="6.04344">
        <ele>1197.8000488281</ele>
        <time>2012-03-10T13:00:54.000Z</time>
      </trkpt>
      <trkpt lat="45.51543" lon="6.04342">
        <ele>1197.4000244141</ele>
        <time>2012-03-10T13:01:00.000Z</time>
      </trkpt>
      <trkpt lat="45.51542" lon="6.04337">
        <ele>1196.8000488281</ele>
        <time>2012-03-10T13:01:06.000Z</time>
      </trkpt>
      <trkpt lat="45.51542" lon="6.04333">
        <ele>1196.8000488281</ele>
        <time>2012-03-10T13:01:13.000Z</time>
      </trkpt>
      <trkpt lat="45.51543" lon="6.04332">
        <ele>1196.8000488281</ele>
        <time>2012-03-10T13:01:17.000Z</time>
      </trkpt>
      <trkpt lat="45.51544" lon="6.04329">
        <ele>1196</ele>
        <time>2012-03-10T13:01:20.000Z</time>
      </trkpt>
      <trkpt lat="45.51545" lon="6.04324">
        <ele>1195</ele>
        <time>2012-03-10T13:01:27.000Z</time>
      </trkpt>
      <trkpt lat="45.51544" lon="6.04324">
        <ele>1195</ele>
        <time>2012-03-10T13:01:43.000Z</time>
      </trkpt>
      <trkpt lat="45.51545" lon="6.04321">
        <ele>1195.4000244141</ele>
        <time>2012-03-10T13:01:57.000Z</time>
      </trkpt>
      <trkpt lat="45.51544" lon="6.04319">
        <ele>1195.4000244141</ele>
        <time>2012-03-10T13:02:04.000Z</time>
      </trkpt>
      <trkpt lat="45.51543" lon="6.04318">
        <ele>1195</ele>
        <time>2012-03-10T13:02:10.000Z</time>
      </trkpt>
      <trkpt lat="45.51545" lon="6.04311">
        <ele>1193</ele>
        <time>2012-03-10T13:02:19.000Z</time>
      </trkpt>
      <trkpt lat="45.51546" lon="6.04309">
        <ele>1191.5999755859</ele>
        <time>2012-03-10T13:02:25.000Z</time>
      </trkpt>
      <trkpt lat="45.51549" lon="6.04306">
        <ele>1190.5999755859</ele>
        <time>2012-03-10T13:02:31.000Z</time>
      </trkpt>
      <trkpt lat="45.51551" lon="6.04304">
        <ele>1190.1999511719</ele>
        <time>2012-03-10T13:02:36.000Z</time>
      </trkpt>
      <trkpt lat="45.51551" lon="6.04304">
        <ele>1189.1999511719</ele>
        <time>2012-03-10T13:02:44.000Z</time>
      </trkpt>
      <trkpt lat="45.51551" lon="6.04305">
        <ele>1188.1999511719</ele>
        <time>2012-03-10T13:02:57.000Z</time>
      </trkpt>
      <trkpt lat="45.5155" lon="6.04308">
        <ele>1185.8000488281</ele>
        <time>2012-03-10T13:03:16.000Z</time>
      </trkpt>
      <trkpt lat="45.51551" lon="6.04308">
        <ele>1184.8000488281</ele>
        <time>2012-03-10T13:03:32.000Z</time>
      </trkpt>
      <trkpt lat="45.51551" lon="6.04307">
        <ele>1184.8000488281</ele>
        <time>2012-03-10T13:03:39.000Z</time>
      </trkpt>
      <trkpt lat="45.5155" lon="6.04307">
        <ele>1183</ele>
        <time>2012-03-10T13:03:56.000Z</time>
      </trkpt>
      <trkpt lat="45.51548" lon="6.04307">
        <ele>1181.4000244141</ele>
        <time>2012-03-10T13:04:06.000Z</time>
      </trkpt>
      <trkpt lat="45.51548" lon="6.04305">
        <ele>1184</ele>
        <time>2012-03-10T13:04:30.000Z</time>
      </trkpt>
      <trkpt lat="45.5155" lon="6.04306">
        <ele>1185.8000488281</ele>
        <time>2012-03-10T13:04:54.000Z</time>
      </trkpt>
      <trkpt lat="45.51551" lon="6.04306">
        <ele>1186.8000488281</ele>
        <time>2012-03-10T13:05:07.000Z</time>
      </trkpt>
      <trkpt lat="45.51552" lon="6.04308">
        <ele>1186.8000488281</ele>
        <time>2012-03-10T13:05:35.000Z</time>
      </trkpt>
      <trkpt lat="45.51553" lon="6.04308">
        <ele>1184.8000488281</ele>
        <time>2012-03-10T13:05:45.000Z</time>
      </trkpt>
      <trkpt lat="45.51554" lon="6.04309">
        <ele>1183.4000244141</ele>
        <time>2012-03-10T13:05:49.000Z</time>
      </trkpt>
      <trkpt lat="45.51556" lon="6.04308">
        <ele>1182.4000244141</ele>
        <time>2012-03-10T13:05:57.000Z</time>
      </trkpt>
      <trkpt lat="45.51556" lon="6.04305">
        <ele>1181.4000244141</ele>
        <time>2012-03-10T13:06:02.000Z</time>
      </trkpt>
      <trkpt lat="45.5156" lon="6.04307">
        <ele>1179</ele>
        <time>2012-03-10T13:06:11.000Z</time>
      </trkpt>
      <trkpt lat="45.51562" lon="6.04306">
        <ele>1177.5999755859</ele>
        <time>2012-03-10T13:06:17.000Z</time>
      </trkpt>
      <trkpt lat="45.51563" lon="6.04303">
        <ele>1177.1999511719</ele>
        <time>2012-03-10T13:06:25.000Z</time>
      </trkpt>
      <trkpt lat="45.51563" lon="6.043">
        <ele>1176.5999755859</ele>
        <time>2012-03-10T13:06:30.000Z</time>
      </trkpt>
      <trkpt lat="45.51561" lon="6.04295">
        <ele>1176.5999755859</ele>
        <time>2012-03-10T13:06:38.000Z</time>
      </trkpt>
      <trkpt lat="45.51561" lon="6.04294">
        <ele>1176.1999511719</ele>
        <time>2012-03-10T13:06:44.000Z</time>
      </trkpt>
      <trkpt lat="45.51564" lon="6.04296">
        <ele>1174.8000488281</ele>
        <time>2012-03-10T13:06:55.000Z</time>
      </trkpt>
      <trkpt lat="45.51567" lon="6.04297">
        <ele>1175.8000488281</ele>
        <time>2012-03-10T13:06:59.000Z</time>
      </trkpt>
      <trkpt lat="45.51567" lon="6.04296">
        <ele>1175.8000488281</ele>
        <time>2012-03-10T13:07:09.000Z</time>
      </trkpt>
      <trkpt lat="45.51566" lon="6.04294">
        <ele>1176.1999511719</ele>
        <time>2012-03-10T13:07:18.000Z</time>
      </trkpt>
      <trkpt lat="45.51567" lon="6.04292">
        <ele>1174.1999511719</ele>
        <time>2012-03-10T13:07:24.000Z</time>
      </trkpt>
      <trkpt lat="45.51569" lon="6.04291">
        <ele>1171.8000488281</ele>
        <time>2012-03-10T13:07:29.000Z</time>
      </trkpt>
      <trkpt lat="45.51567" lon="6.04287">
        <ele>1170.4000244141</ele>
        <time>2012-03-10T13:07:38.000Z</time>
      </trkpt>
      <trkpt lat="45.51566" lon="6.04283">
        <ele>1170.4000244141</ele>
        <time>2012-03-10T13:07:43.000Z</time>
      </trkpt>
      <trkpt lat="45.51563" lon="6.04284">
        <ele>1171</ele>
        <time>2012-03-10T13:07:47.000Z</time>
      </trkpt>
      <trkpt lat="45.51563" lon="6.0428">
        <ele>1168.5999755859</ele>
        <time>2012-03-10T13:08:07.000Z</time>
      </trkpt>
      <trkpt lat="45.51562" lon="6.04278">
        <ele>1167.5999755859</ele>
        <time>2012-03-10T13:08:13.000Z</time>
      </trkpt>
      <trkpt lat="45.51561" lon="6.04279">
        <ele>1165.5999755859</ele>
        <time>2012-03-10T13:08:20.000Z</time>
      </trkpt>
      <trkpt lat="45.51561" lon="6.04281">
        <ele>1164.1999511719</ele>
        <time>2012-03-10T13:08:32.000Z</time>
      </trkpt>
      <trkpt lat="45.5156" lon="6.04279">
        <ele>1163.8000488281</ele>
        <time>2012-03-10T13:08:37.000Z</time>
      </trkpt>
      <trkpt lat="45.51557" lon="6.04277">
        <ele>1163.8000488281</ele>
        <time>2012-03-10T13:08:41.000Z</time>
      </trkpt>
      <trkpt lat="45.51556" lon="6.04277">
        <ele>1164.1999511719</ele>
        <time>2012-03-10T13:08:47.000Z</time>
      </trkpt>
      <trkpt lat="45.51554" lon="6.04274">
        <ele>1163.8000488281</ele>
        <time>2012-03-10T13:08:53.000Z</time>
      </trkpt>
      <trkpt lat="45.51553" lon="6.04273">
        <ele>1163.8000488281</ele>
        <time>2012-03-10T13:08:56.000Z</time>
      </trkpt>
      <trkpt lat="45.51554" lon="6.04273">
        <ele>1163.1999511719</ele>
        <time>2012-03-10T13:09:01.000Z</time>
      </trkpt>
      <trkpt lat="45.51555" lon="6.04275">
        <ele>1161.8000488281</ele>
        <time>2012-03-10T13:09:08.000Z</time>
      </trkpt>
      <trkpt lat="45.51557" lon="6.04275">
        <ele>1161.8000488281</ele>
        <time>2012-03-10T13:09:13.000Z</time>
      </trkpt>
      <trkpt lat="45.51558" lon="6.04271">
        <ele>1161.8000488281</ele>
        <time>2012-03-10T13:09:18.000Z</time>
      </trkpt>
      <trkpt lat="45.5156" lon="6.04272">
        <ele>1161.8000488281</ele>
        <time>2012-03-10T13:09:23.000Z</time>
      </trkpt>
      <trkpt lat="45.51559" lon="6.04271">
        <ele>1163.8000488281</ele>
        <time>2012-03-10T13:09:29.000Z</time>
      </trkpt>
      <trkpt lat="45.51561" lon="6.0427">
        <ele>1162.8000488281</ele>
        <time>2012-03-10T13:09:36.000Z</time>
      </trkpt>
      <trkpt lat="45.51562" lon="6.04272">
        <ele>1161.8000488281</ele>
        <time>2012-03-10T13:09:40.000Z</time>
      </trkpt>
      <trkpt lat="45.51564" lon="6.04273">
        <ele>1161.4000244141</ele>
        <time>2012-03-10T13:09:45.000Z</time>
      </trkpt>
      <trkpt lat="45.51567" lon="6.04274">
        <ele>1161.8000488281</ele>
        <time>2012-03-10T13:09:52.000Z</time>
      </trkpt>
      <trkpt lat="45.51569" lon="6.04273">
        <ele>1162.8000488281</ele>
        <time>2012-03-10T13:09:59.000Z</time>
      </trkpt>
      <trkpt lat="45.5157" lon="6.04273">
        <ele>1163.1999511719</ele>
        <time>2012-03-10T13:10:03.000Z</time>
      </trkpt>
      <trkpt lat="45.51572" lon="6.04274">
        <ele>1166.1999511719</ele>
        <time>2012-03-10T13:10:31.000Z</time>
      </trkpt>
      <trkpt lat="45.51574" lon="6.04275">
        <ele>1165.1999511719</ele>
        <time>2012-03-10T13:10:36.000Z</time>
      </trkpt>
      <trkpt lat="45.51576" lon="6.04275">
        <ele>1163.8000488281</ele>
        <time>2012-03-10T13:10:46.000Z</time>
      </trkpt>
      <trkpt lat="45.51575" lon="6.04278">
        <ele>1159.8000488281</ele>
        <time>2012-03-10T13:10:56.000Z</time>
      </trkpt>
      <trkpt lat="45.51577" lon="6.04277">
        <ele>1155.5999755859</ele>
        <time>2012-03-10T13:11:09.000Z</time>
      </trkpt>
      <trkpt lat="45.51579" lon="6.04275">
        <ele>1158</ele>
        <time>2012-03-10T13:11:16.000Z</time>
      </trkpt>
      <trkpt lat="45.5158" lon="6.04272">
        <ele>1156</ele>
        <time>2012-03-10T13:11:21.000Z</time>
      </trkpt>
      <trkpt lat="45.51582" lon="6.04269">
        <ele>1155.5999755859</ele>
        <time>2012-03-10T13:11:26.000Z</time>
      </trkpt>
      <trkpt lat="45.51584" lon="6.04266">
        <ele>1155.5999755859</ele>
        <time>2012-03-10T13:11:37.000Z</time>
      </trkpt>
      <trkpt lat="45.51586" lon="6.04264">
        <ele>1152.1999511719</ele>
        <time>2012-03-10T13:11:42.000Z</time>
      </trkpt>
      <trkpt lat="45.51587" lon="6.0426">
        <ele>1150.1999511719</ele>
        <time>2012-03-10T13:11:46.000Z</time>
      </trkpt>
      <trkpt lat="45.51587" lon="6.04258">
        <ele>1147.4000244141</ele>
        <time>2012-03-10T13:11:54.000Z</time>
      </trkpt>
      <trkpt lat="45.51584" lon="6.04253">
        <ele>1145.4000244141</ele>
        <time>2012-03-10T13:11:59.000Z</time>
      </trkpt>
      <trkpt lat="45.51583" lon="6.04248">
        <ele>1144</ele>
        <time>2012-03-10T13:12:04.000Z</time>
      </trkpt>
      <trkpt lat="45.51583" lon="6.04247">
        <ele>1144.4000244141</ele>
        <time>2012-03-10T13:12:13.000Z</time>
      </trkpt>
      <trkpt lat="45.51585" lon="6.04244">
        <ele>1144</ele>
        <time>2012-03-10T13:12:19.000Z</time>
      </trkpt>
      <trkpt lat="45.51588" lon="6.04243">
        <ele>1142.5999755859</ele>
        <time>2012-03-10T13:12:23.000Z</time>
      </trkpt>
      <trkpt lat="45.5159" lon="6.04239">
        <ele>1141.1999511719</ele>
        <time>2012-03-10T13:12:29.000Z</time>
      </trkpt>
      <trkpt lat="45.5159" lon="6.04239">
        <ele>1141.1999511719</ele>
        <time>2012-03-10T13:12:33.000Z</time>
      </trkpt>
      <trkpt lat="45.51592" lon="6.04235">
        <ele>1141.5999755859</ele>
        <time>2012-03-10T13:12:40.000Z</time>
      </trkpt>
      <trkpt lat="45.5159" lon="6.04236">
        <ele>1141.1999511719</ele>
        <time>2012-03-10T13:12:47.000Z</time>
      </trkpt>
      <trkpt lat="45.51587" lon="6.04232">
        <ele>1138.1999511719</ele>
        <time>2012-03-10T13:12:53.000Z</time>
      </trkpt>
      <trkpt lat="45.51585" lon="6.04227">
        <ele>1135.4000244141</ele>
        <time>2012-03-10T13:12:58.000Z</time>
      </trkpt>
      <trkpt lat="45.51583" lon="6.04224">
        <ele>1133.4000244141</ele>
        <time>2012-03-10T13:13:04.000Z</time>
      </trkpt>
      <trkpt lat="45.51583" lon="6.04223">
        <ele>1133</ele>
        <time>2012-03-10T13:13:05.000Z</time>
      </trkpt>
      <trkpt lat="45.51579" lon="6.04213">
        <ele>1133</ele>
        <time>2012-03-10T13:13:10.000Z</time>
      </trkpt>
      <trkpt lat="45.51575" lon="6.04206">
        <ele>1133.4000244141</ele>
        <time>2012-03-10T13:13:14.000Z</time>
      </trkpt>
      <trkpt lat="45.51574" lon="6.042">
        <ele>1132.4000244141</ele>
        <time>2012-03-10T13:13:19.000Z</time>
      </trkpt>
      <trkpt lat="45.51572" lon="6.04198">
        <ele>1131</ele>
        <time>2012-03-10T13:13:26.000Z</time>
      </trkpt>
      <trkpt lat="45.5157" lon="6.04198">
        <ele>1127.5999755859</ele>
        <time>2012-03-10T13:13:35.000Z</time>
      </trkpt>
      <trkpt lat="45.51565" lon="6.04192">
        <ele>1129.1999511719</ele>
        <time>2012-03-10T13:13:41.000Z</time>
      </trkpt>
      <trkpt lat="45.51561" lon="6.04184">
        <ele>1131</ele>
        <time>2012-03-10T13:13:48.000Z</time>
      </trkpt>
      <trkpt lat="45.51559" lon="6.04177">
        <ele>1131</ele>
        <time>2012-03-10T13:13:56.000Z</time>
      </trkpt>
      <trkpt lat="45.51558" lon="6.04173">
        <ele>1130.5999755859</ele>
        <time>2012-03-10T13:14:01.000Z</time>
      </trkpt>
      <trkpt lat="45.51558" lon="6.04168">
        <ele>1130.5999755859</ele>
        <time>2012-03-10T13:14:07.000Z</time>
      </trkpt>
      <trkpt lat="45.51557" lon="6.04163">
        <ele>1131.5999755859</ele>
        <time>2012-03-10T13:14:14.000Z</time>
      </trkpt>
      <trkpt lat="45.51557" lon="6.04158">
        <ele>1129.1999511719</ele>
        <time>2012-03-10T13:14:18.000Z</time>
      </trkpt>
      <trkpt lat="45.51558" lon="6.04146">
        <ele>1126.8000488281</ele>
        <time>2012-03-10T13:14:25.000Z</time>
      </trkpt>
      <trkpt lat="45.51558" lon="6.04144">
        <ele>1126.1999511719</ele>
        <time>2012-03-10T13:14:26.000Z</time>
      </trkpt>
      <trkpt lat="45.5156" lon="6.04132">
        <ele>1121.8000488281</ele>
        <time>2012-03-10T13:14:34.000Z</time>
      </trkpt>
      <trkpt lat="45.51565" lon="6.04122">
        <ele>1119.4000244141</ele>
        <time>2012-03-10T13:14:42.000Z</time>
      </trkpt>
      <trkpt lat="45.51569" lon="6.04118">
        <ele>1116.5999755859</ele>
        <time>2012-03-10T13:14:49.000Z</time>
      </trkpt>
      <trkpt lat="45.5157" lon="6.04118">
        <ele>1116.5999755859</ele>
        <time>2012-03-10T13:14:55.000Z</time>
      </trkpt>
      <trkpt lat="45.51571" lon="6.0412">
        <ele>1116.1999511719</ele>
        <time>2012-03-10T13:15:05.000Z</time>
      </trkpt>
      <trkpt lat="45.51572" lon="6.04124">
        <ele>1116.5999755859</ele>
        <time>2012-03-10T13:15:12.000Z</time>
      </trkpt>
      <trkpt lat="45.51575" lon="6.04122">
        <ele>1119.4000244141</ele>
        <time>2012-03-10T13:15:25.000Z</time>
      </trkpt>
      <trkpt lat="45.51578" lon="6.04119">
        <ele>1119.4000244141</ele>
        <time>2012-03-10T13:15:31.000Z</time>
      </trkpt>
      <trkpt lat="45.5158" lon="6.04117">
        <ele>1121</ele>
        <time>2012-03-10T13:15:48.000Z</time>
      </trkpt>
      <trkpt lat="45.51577" lon="6.04119">
        <ele>1120</ele>
        <time>2012-03-10T13:16:06.000Z</time>
      </trkpt>
      <trkpt lat="45.5158" lon="6.04114">
        <ele>1116.5999755859</ele>
        <time>2012-03-10T13:16:14.000Z</time>
      </trkpt>
      <trkpt lat="45.51584" lon="6.04113">
        <ele>1117</ele>
        <time>2012-03-10T13:16:20.000Z</time>
      </trkpt>
      <trkpt lat="45.51587" lon="6.04115">
        <ele>1118</ele>
        <time>2012-03-10T13:16:32.000Z</time>
      </trkpt>
      <trkpt lat="45.51591" lon="6.04118">
        <ele>1118.5999755859</ele>
        <time>2012-03-10T13:16:36.000Z</time>
      </trkpt>
      <trkpt lat="45.51596" lon="6.04123">
        <ele>1119</ele>
        <time>2012-03-10T13:16:41.000Z</time>
      </trkpt>
      <trkpt lat="45.516" lon="6.04131">
        <ele>1118.5999755859</ele>
        <time>2012-03-10T13:16:46.000Z</time>
      </trkpt>
      <trkpt lat="45.516" lon="6.04133">
        <ele>1118.5999755859</ele>
        <time>2012-03-10T13:16:48.000Z</time>
      </trkpt>
      <trkpt lat="45.51602" lon="6.04136">
        <ele>1119</ele>
        <time>2012-03-10T13:16:51.000Z</time>
      </trkpt>
      <trkpt lat="45.51605" lon="6.0414">
        <ele>1116.5999755859</ele>
        <time>2012-03-10T13:16:57.000Z</time>
      </trkpt>
      <trkpt lat="45.51609" lon="6.04142">
        <ele>1115.5999755859</ele>
        <time>2012-03-10T13:17:04.000Z</time>
      </trkpt>
      <trkpt lat="45.51616" lon="6.04145">
        <ele>1114.5999755859</ele>
        <time>2012-03-10T13:17:12.000Z</time>
      </trkpt>
      <trkpt lat="45.51621" lon="6.0415">
        <ele>1114.1999511719</ele>
        <time>2012-03-10T13:17:19.000Z</time>
      </trkpt>
      <trkpt lat="45.51627" lon="6.0415">
        <ele>1112.1999511719</ele>
        <time>2012-03-10T13:17:26.000Z</time>
      </trkpt>
      <trkpt lat="45.5163" lon="6.04152">
        <ele>1110.8000488281</ele>
        <time>2012-03-10T13:17:31.000Z</time>
      </trkpt>
      <trkpt lat="45.51635" lon="6.04152">
        <ele>1109.8000488281</ele>
        <time>2012-03-10T13:17:35.000Z</time>
      </trkpt>
      <trkpt lat="45.51639" lon="6.04157">
        <ele>1110.8000488281</ele>
        <time>2012-03-10T13:17:39.000Z</time>
      </trkpt>
      <trkpt lat="45.51641" lon="6.0416">
        <ele>1111.4000244141</ele>
        <time>2012-03-10T13:17:42.000Z</time>
      </trkpt>
      <trkpt lat="45.51646" lon="6.04165">
        <ele>1115.5999755859</ele>
        <time>2012-03-10T13:17:47.000Z</time>
      </trkpt>
      <trkpt lat="45.5165" lon="6.04168">
        <ele>1119</ele>
        <time>2012-03-10T13:17:51.000Z</time>
      </trkpt>
      <trkpt lat="45.51653" lon="6.04169">
        <ele>1119</ele>
        <time>2012-03-10T13:17:54.000Z</time>
      </trkpt>
      <trkpt lat="45.51659" lon="6.04174">
        <ele>1118.5999755859</ele>
        <time>2012-03-10T13:18:00.000Z</time>
      </trkpt>
      <trkpt lat="45.51661" lon="6.04174">
        <ele>1117.5999755859</ele>
        <time>2012-03-10T13:18:02.000Z</time>
      </trkpt>
      <trkpt lat="45.51665" lon="6.04178">
        <ele>1116.1999511719</ele>
        <time>2012-03-10T13:18:06.000Z</time>
      </trkpt>
      <trkpt lat="45.51669" lon="6.04183">
        <ele>1111.8000488281</ele>
        <time>2012-03-10T13:18:11.000Z</time>
      </trkpt>
      <trkpt lat="45.51669" lon="6.04186">
        <ele>1110.4000244141</ele>
        <time>2012-03-10T13:18:14.000Z</time>
      </trkpt>
      <trkpt lat="45.51675" lon="6.04183">
        <ele>1105.5999755859</ele>
        <time>2012-03-10T13:18:20.000Z</time>
      </trkpt>
      <trkpt lat="45.51678" lon="6.04177">
        <ele>1104.5999755859</ele>
        <time>2012-03-10T13:18:29.000Z</time>
      </trkpt>
      <trkpt lat="45.51685" lon="6.0418">
        <ele>1104.5999755859</ele>
        <time>2012-03-10T13:18:35.000Z</time>
      </trkpt>
      <trkpt lat="45.51688" lon="6.04182">
        <ele>1103.5999755859</ele>
        <time>2012-03-10T13:18:38.000Z</time>
      </trkpt>
      <trkpt lat="45.51695" lon="6.04186">
        <ele>1103.1999511719</ele>
        <time>2012-03-10T13:18:46.000Z</time>
      </trkpt>
      <trkpt lat="45.51699" lon="6.0419">
        <ele>1101.8000488281</ele>
        <time>2012-03-10T13:18:51.000Z</time>
      </trkpt>
      <trkpt lat="45.51703" lon="6.04192">
        <ele>1100.8000488281</ele>
        <time>2012-03-10T13:18:57.000Z</time>
      </trkpt>
      <trkpt lat="45.51706" lon="6.04194">
        <ele>1100.1999511719</ele>
        <time>2012-03-10T13:19:03.000Z</time>
      </trkpt>
      <trkpt lat="45.5171" lon="6.04197">
        <ele>1100.1999511719</ele>
        <time>2012-03-10T13:19:10.000Z</time>
      </trkpt>
      <trkpt lat="45.51714" lon="6.04203">
        <ele>1101.1999511719</ele>
        <time>2012-03-10T13:19:16.000Z</time>
      </trkpt>
      <trkpt lat="45.51717" lon="6.04206">
        <ele>1103.1999511719</ele>
        <time>2012-03-10T13:19:20.000Z</time>
      </trkpt>
      <trkpt lat="45.51716" lon="6.04212">
        <ele>1104.5999755859</ele>
        <time>2012-03-10T13:19:24.000Z</time>
      </trkpt>
      <trkpt lat="45.51716" lon="6.04216">
        <ele>1105</ele>
        <time>2012-03-10T13:19:27.000Z</time>
      </trkpt>
      <trkpt lat="45.51718" lon="6.0422">
        <ele>1106</ele>
        <time>2012-03-10T13:19:32.000Z</time>
      </trkpt>
      <trkpt lat="45.51718" lon="6.04224">
        <ele>1109.4000244141</ele>
        <time>2012-03-10T13:19:38.000Z</time>
      </trkpt>
      <trkpt lat="45.51721" lon="6.04229">
        <ele>1113.8000488281</ele>
        <time>2012-03-10T13:19:44.000Z</time>
      </trkpt>
      <trkpt lat="45.51723" lon="6.0423">
        <ele>1113.1999511719</ele>
        <time>2012-03-10T13:19:55.000Z</time>
      </trkpt>
      <trkpt lat="45.51723" lon="6.04237">
        <ele>1107</ele>
        <time>2012-03-10T13:20:31.000Z</time>
      </trkpt>
      <trkpt lat="45.5172" lon="6.04231">
        <ele>1104.5999755859</ele>
        <time>2012-03-10T13:20:51.000Z</time>
      </trkpt>
      <trkpt lat="45.51723" lon="6.04227">
        <ele>1108</ele>
        <time>2012-03-10T13:20:57.000Z</time>
      </trkpt>
      <trkpt lat="45.51727" lon="6.0423">
        <ele>1109</ele>
        <time>2012-03-10T13:21:06.000Z</time>
      </trkpt>
      <trkpt lat="45.51726" lon="6.04232">
        <ele>1115.5999755859</ele>
        <time>2012-03-10T13:21:21.000Z</time>
      </trkpt>
      <trkpt lat="45.51726" lon="6.04233">
        <ele>1114.5999755859</ele>
        <time>2012-03-10T13:21:27.000Z</time>
      </trkpt>
      <trkpt lat="45.51725" lon="6.04233">
        <ele>1113.1999511719</ele>
        <time>2012-03-10T13:21:36.000Z</time>
      </trkpt>
      <trkpt lat="45.5173" lon="6.04235">
        <ele>1110.4000244141</ele>
        <time>2012-03-10T13:21:42.000Z</time>
      </trkpt>
      <trkpt lat="45.51734" lon="6.04233">
        <ele>1107.4000244141</ele>
        <time>2012-03-10T13:21:47.000Z</time>
      </trkpt>
      <trkpt lat="45.51738" lon="6.04232">
        <ele>1104.1999511719</ele>
        <time>2012-03-10T13:21:53.000Z</time>
      </trkpt>
      <trkpt lat="45.51742" lon="6.04229">
        <ele>1101.1999511719</ele>
        <time>2012-03-10T13:21:59.000Z</time>
      </trkpt>
      <trkpt lat="45.51747" lon="6.04226">
        <ele>1099.8000488281</ele>
        <time>2012-03-10T13:22:05.000Z</time>
      </trkpt>
      <trkpt lat="45.5175" lon="6.04227">
        <ele>1099.4000244141</ele>
        <time>2012-03-10T13:22:11.000Z</time>
      </trkpt>
      <trkpt lat="45.51754" lon="6.04225">
        <ele>1096.4000244141</ele>
        <time>2012-03-10T13:22:16.000Z</time>
      </trkpt>
      <trkpt lat="45.51756" lon="6.04226">
        <ele>1096</ele>
        <time>2012-03-10T13:22:20.000Z</time>
      </trkpt>
      <trkpt lat="45.51762" lon="6.04227">
        <ele>1098.4000244141</ele>
        <time>2012-03-10T13:22:27.000Z</time>
      </trkpt>
      <trkpt lat="45.51765" lon="6.04228">
        <ele>1098.8000488281</ele>
        <time>2012-03-10T13:22:29.000Z</time>
      </trkpt>
      <trkpt lat="45.51773" lon="6.04229">
        <ele>1098.4000244141</ele>
        <time>2012-03-10T13:22:36.000Z</time>
      </trkpt>
      <trkpt lat="45.51778" lon="6.04226">
        <ele>1094.4000244141</ele>
        <time>2012-03-10T13:22:45.000Z</time>
      </trkpt>
      <trkpt lat="45.51781" lon="6.04226">
        <ele>1090.1999511719</ele>
        <time>2012-03-10T13:22:49.000Z</time>
      </trkpt>
      <trkpt lat="45.51786" lon="6.04227">
        <ele>1090.5999755859</ele>
        <time>2012-03-10T13:22:55.000Z</time>
      </trkpt>
      <trkpt lat="45.5179" lon="6.04225">
        <ele>1089.5999755859</ele>
        <time>2012-03-10T13:23:00.000Z</time>
      </trkpt>
      <trkpt lat="45.51797" lon="6.04224">
        <ele>1091.5999755859</ele>
        <time>2012-03-10T13:23:06.000Z</time>
      </trkpt>
      <trkpt lat="45.51802" lon="6.04227">
        <ele>1091.5999755859</ele>
        <time>2012-03-10T13:23:11.000Z</time>
      </trkpt>
      <trkpt lat="45.51804" lon="6.04234">
        <ele>1087.1999511719</ele>
        <time>2012-03-10T13:23:18.000Z</time>
      </trkpt>
      <trkpt lat="45.51805" lon="6.04234">
        <ele>1087.1999511719</ele>
        <time>2012-03-10T13:23:19.000Z</time>
      </trkpt>
      <trkpt lat="45.51809" lon="6.04238">
        <ele>1087.1999511719</ele>
        <time>2012-03-10T13:23:24.000Z</time>
      </trkpt>
      <trkpt lat="45.51809" lon="6.04239">
        <ele>1086.8000488281</ele>
        <time>2012-03-10T13:23:25.000Z</time>
      </trkpt>
      <trkpt lat="45.51814" lon="6.04241">
        <ele>1091.5999755859</ele>
        <time>2012-03-10T13:23:31.000Z</time>
      </trkpt>
      <trkpt lat="45.51814" lon="6.04241">
        <ele>1092.5999755859</ele>
        <time>2012-03-10T13:23:32.000Z</time>
      </trkpt>
      <trkpt lat="45.51817" lon="6.04245">
        <ele>1095</ele>
        <time>2012-03-10T13:23:36.000Z</time>
      </trkpt>
      <trkpt lat="45.51819" lon="6.04247">
        <ele>1095</ele>
        <time>2012-03-10T13:23:39.000Z</time>
      </trkpt>
      <trkpt lat="45.51821" lon="6.04251">
        <ele>1093.5999755859</ele>
        <time>2012-03-10T13:23:45.000Z</time>
      </trkpt>
      <trkpt lat="45.51823" lon="6.04256">
        <ele>1095</ele>
        <time>2012-03-10T13:23:50.000Z</time>
      </trkpt>
      <trkpt lat="45.51823" lon="6.04261">
        <ele>1094.4000244141</ele>
        <time>2012-03-10T13:23:56.000Z</time>
      </trkpt>
      <trkpt lat="45.51825" lon="6.04264">
        <ele>1094</ele>
        <time>2012-03-10T13:24:01.000Z</time>
      </trkpt>
      <trkpt lat="45.5183" lon="6.04267">
        <ele>1092.5999755859</ele>
        <time>2012-03-10T13:24:08.000Z</time>
      </trkpt>
      <trkpt lat="45.51831" lon="6.04269">
        <ele>1089.5999755859</ele>
        <time>2012-03-10T13:24:12.000Z</time>
      </trkpt>
      <trkpt lat="45.51834" lon="6.04275">
        <ele>1088.1999511719</ele>
        <time>2012-03-10T13:24:17.000Z</time>
      </trkpt>
      <trkpt lat="45.51837" lon="6.04283">
        <ele>1087.1999511719</ele>
        <time>2012-03-10T13:24:24.000Z</time>
      </trkpt>
      <trkpt lat="45.5184" lon="6.04284">
        <ele>1086.4000244141</ele>
        <time>2012-03-10T13:24:29.000Z</time>
      </trkpt>
      <trkpt lat="45.51844" lon="6.04286">
        <ele>1087.8000488281</ele>
        <time>2012-03-10T13:24:33.000Z</time>
      </trkpt>
      <trkpt lat="45.5185" lon="6.04288">
        <ele>1087.8000488281</ele>
        <time>2012-03-10T13:24:40.000Z</time>
      </trkpt>
      <trkpt lat="45.51853" lon="6.04289">
        <ele>1087.8000488281</ele>
        <time>2012-03-10T13:24:47.000Z</time>
      </trkpt>
      <trkpt lat="45.51855" lon="6.04288">
        <ele>1089.5999755859</ele>
        <time>2012-03-10T13:24:52.000Z</time>
      </trkpt>
      <trkpt lat="45.51856" lon="6.04281">
        <ele>1092.5999755859</ele>
        <time>2012-03-10T13:25:05.000Z</time>
      </trkpt>
      <trkpt lat="45.51858" lon="6.04276">
        <ele>1092.5999755859</ele>
        <time>2012-03-10T13:25:11.000Z</time>
      </trkpt>
      <trkpt lat="45.5186" lon="6.04277">
        <ele>1088.8000488281</ele>
        <time>2012-03-10T13:25:25.000Z</time>
      </trkpt>
      <trkpt lat="45.51858" lon="6.04281">
        <ele>1087.8000488281</ele>
        <time>2012-03-10T13:25:30.000Z</time>
      </trkpt>
      <trkpt lat="45.51859" lon="6.04288">
        <ele>1090.5999755859</ele>
        <time>2012-03-10T13:25:35.000Z</time>
      </trkpt>
      <trkpt lat="45.51862" lon="6.04288">
        <ele>1090.5999755859</ele>
        <time>2012-03-10T13:25:44.000Z</time>
      </trkpt>
      <trkpt lat="45.51865" lon="6.04287">
        <ele>1086.4000244141</ele>
        <time>2012-03-10T13:25:49.000Z</time>
      </trkpt>
      <trkpt lat="45.51866" lon="6.0429">
        <ele>1078.5999755859</ele>
        <time>2012-03-10T13:25:56.000Z</time>
      </trkpt>
      <trkpt lat="45.51873" lon="6.04292">
        <ele>1076.1999511719</ele>
        <time>2012-03-10T13:26:02.000Z</time>
      </trkpt>
      <trkpt lat="45.51881" lon="6.04295">
        <ele>1077.5999755859</ele>
        <time>2012-03-10T13:26:12.000Z</time>
      </trkpt>
      <trkpt lat="45.51883" lon="6.04298">
        <ele>1076.1999511719</ele>
        <time>2012-03-10T13:26:18.000Z</time>
      </trkpt>
      <trkpt lat="45.51885" lon="6.04301">
        <ele>1071.4000244141</ele>
        <time>2012-03-10T13:26:27.000Z</time>
      </trkpt>
      <trkpt lat="45.51885" lon="6.04301">
        <ele>1070.4000244141</ele>
        <time>2012-03-10T13:26:28.000Z</time>
      </trkpt>
      <trkpt lat="45.51889" lon="6.04302">
        <ele>1066.1999511719</ele>
        <time>2012-03-10T13:26:35.000Z</time>
      </trkpt>
      <trkpt lat="45.51894" lon="6.04301">
        <ele>1064.1999511719</ele>
        <time>2012-03-10T13:26:41.000Z</time>
      </trkpt>
      <trkpt lat="45.51895" lon="6.04301">
        <ele>1064.1999511719</ele>
        <time>2012-03-10T13:26:43.000Z</time>
      </trkpt>
      <trkpt lat="45.51899" lon="6.04299">
        <ele>1064.5999755859</ele>
        <time>2012-03-10T13:26:50.000Z</time>
      </trkpt>
      <trkpt lat="45.51902" lon="6.04298">
        <ele>1063.8000488281</ele>
        <time>2012-03-10T13:26:56.000Z</time>
      </trkpt>
      <trkpt lat="45.51904" lon="6.04295">
        <ele>1063.1999511719</ele>
        <time>2012-03-10T13:27:00.000Z</time>
      </trkpt>
      <trkpt lat="45.51907" lon="6.04292">
        <ele>1062.8000488281</ele>
        <time>2012-03-10T13:27:06.000Z</time>
      </trkpt>
      <trkpt lat="45.5191" lon="6.04293">
        <ele>1058.4000244141</ele>
        <time>2012-03-10T13:27:13.000Z</time>
      </trkpt>
      <trkpt lat="45.51912" lon="6.04295">
        <ele>1058</ele>
        <time>2012-03-10T13:27:23.000Z</time>
      </trkpt>
      <trkpt lat="45.51914" lon="6.04298">
        <ele>1054.5999755859</ele>
        <time>2012-03-10T13:27:30.000Z</time>
      </trkpt>
      <trkpt lat="45.51918" lon="6.04303">
        <ele>1052.1999511719</ele>
        <time>2012-03-10T13:27:38.000Z</time>
      </trkpt>
      <trkpt lat="45.51919" lon="6.04308">
        <ele>1048.4000244141</ele>
        <time>2012-03-10T13:27:44.000Z</time>
      </trkpt>
      <trkpt lat="45.51922" lon="6.0431">
        <ele>1047.4000244141</ele>
        <time>2012-03-10T13:27:50.000Z</time>
      </trkpt>
      <trkpt lat="45.51923" lon="6.04311">
        <ele>1047.8000488281</ele>
        <time>2012-03-10T13:27:51.000Z</time>
      </trkpt>
      <trkpt lat="45.51926" lon="6.04311">
        <ele>1050.8000488281</ele>
        <time>2012-03-10T13:27:53.000Z</time>
      </trkpt>
      <trkpt lat="45.51928" lon="6.04312">
        <ele>1049.8000488281</ele>
        <time>2012-03-10T13:27:59.000Z</time>
      </trkpt>
      <trkpt lat="45.51931" lon="6.04315">
        <ele>1047.4000244141</ele>
        <time>2012-03-10T13:28:07.000Z</time>
      </trkpt>
      <trkpt lat="45.51933" lon="6.04314">
        <ele>1048.8000488281</ele>
        <time>2012-03-10T13:28:13.000Z</time>
      </trkpt>
      <trkpt lat="45.51935" lon="6.0431">
        <ele>1052.5999755859</ele>
        <time>2012-03-10T13:28:29.000Z</time>
      </trkpt>
      <trkpt lat="45.51937" lon="6.04311">
        <ele>1051.8000488281</ele>
        <time>2012-03-10T13:28:31.000Z</time>
      </trkpt>
      <trkpt lat="45.51942" lon="6.04313">
        <ele>1049.4000244141</ele>
        <time>2012-03-10T13:28:38.000Z</time>
      </trkpt>
      <trkpt lat="45.51945" lon="6.04315">
        <ele>1047.4000244141</ele>
        <time>2012-03-10T13:28:43.000Z</time>
      </trkpt>
      <trkpt lat="45.51949" lon="6.04316">
        <ele>1045.4000244141</ele>
        <time>2012-03-10T13:28:49.000Z</time>
      </trkpt>
      <trkpt lat="45.51954" lon="6.04317">
        <ele>1043.5999755859</ele>
        <time>2012-03-10T13:28:55.000Z</time>
      </trkpt>
      <trkpt lat="45.51956" lon="6.04317">
        <ele>1040.5999755859</ele>
        <time>2012-03-10T13:29:00.000Z</time>
      </trkpt>
      <trkpt lat="45.51955" lon="6.04319">
        <ele>1038.1999511719</ele>
        <time>2012-03-10T13:29:05.000Z</time>
      </trkpt>
      <trkpt lat="45.51958" lon="6.0432">
        <ele>1035.8000488281</ele>
        <time>2012-03-10T13:29:11.000Z</time>
      </trkpt>
      <trkpt lat="45.51961" lon="6.04321">
        <ele>1031</ele>
        <time>2012-03-10T13:29:18.000Z</time>
      </trkpt>
      <trkpt lat="45.51964" lon="6.04323">
        <ele>1028.5999755859</ele>
        <time>2012-03-10T13:29:24.000Z</time>
      </trkpt>
      <trkpt lat="45.51968" lon="6.04323">
        <ele>1029.1999511719</ele>
        <time>2012-03-10T13:29:30.000Z</time>
      </trkpt>
      <trkpt lat="45.51973" lon="6.04325">
        <ele>1029.5999755859</ele>
        <time>2012-03-10T13:29:39.000Z</time>
      </trkpt>
      <trkpt lat="45.51975" lon="6.04326">
        <ele>1027.5999755859</ele>
        <time>2012-03-10T13:29:43.000Z</time>
      </trkpt>
      <trkpt lat="45.51979" lon="6.04327">
        <ele>1026.1999511719</ele>
        <time>2012-03-10T13:29:48.000Z</time>
      </trkpt>
      <trkpt lat="45.51982" lon="6.04331">
        <ele>1022</ele>
        <time>2012-03-10T13:29:54.000Z</time>
      </trkpt>
      <trkpt lat="45.51983" lon="6.04331">
        <ele>1019</ele>
        <time>2012-03-10T13:30:00.000Z</time>
      </trkpt>
      <trkpt lat="45.51988" lon="6.04327">
        <ele>1021.4000244141</ele>
        <time>2012-03-10T13:30:10.000Z</time>
      </trkpt>
      <trkpt lat="45.51987" lon="6.04325">
        <ele>1019.5999755859</ele>
        <time>2012-03-10T13:30:16.000Z</time>
      </trkpt>
      <trkpt lat="45.51987" lon="6.04324">
        <ele>1019</ele>
        <time>2012-03-10T13:30:22.000Z</time>
      </trkpt>
      <trkpt lat="45.51985" lon="6.04321">
        <ele>1016.5999755859</ele>
        <time>2012-03-10T13:30:28.000Z</time>
      </trkpt>
      <trkpt lat="45.51984" lon="6.04318">
        <ele>1017.5999755859</ele>
        <time>2012-03-10T13:30:32.000Z</time>
      </trkpt>
      <trkpt lat="45.51982" lon="6.04316">
        <ele>1017.5999755859</ele>
        <time>2012-03-10T13:30:40.000Z</time>
      </trkpt>
      <trkpt lat="45.5198" lon="6.04316">
        <ele>1020</ele>
        <time>2012-03-10T13:30:46.000Z</time>
      </trkpt>
      <trkpt lat="45.51978" lon="6.04314">
        <ele>1022.4000244141</ele>
        <time>2012-03-10T13:30:52.000Z</time>
      </trkpt>
      <trkpt lat="45.51978" lon="6.04311">
        <ele>1023.4000244141</ele>
        <time>2012-03-10T13:31:00.000Z</time>
      </trkpt>
      <trkpt lat="45.5198" lon="6.0431">
        <ele>1019.5999755859</ele>
        <time>2012-03-10T13:31:11.000Z</time>
      </trkpt>
      <trkpt lat="45.51981" lon="6.04307">
        <ele>1023.4000244141</ele>
        <time>2012-03-10T13:31:23.000Z</time>
      </trkpt>
      <trkpt lat="45.51982" lon="6.04306">
        <ele>1025.8000488281</ele>
        <time>2012-03-10T13:31:34.000Z</time>
      </trkpt>
      <trkpt lat="45.5198" lon="6.04304">
        <ele>1023.4000244141</ele>
        <time>2012-03-10T13:31:39.000Z</time>
      </trkpt>
      <trkpt lat="45.51978" lon="6.043">
        <ele>1020.4000244141</ele>
        <time>2012-03-10T13:31:45.000Z</time>
      </trkpt>
      <trkpt lat="45.51974" lon="6.04295">
        <ele>1012.4000244141</ele>
        <time>2012-03-10T13:31:57.000Z</time>
      </trkpt>
      <trkpt lat="45.51976" lon="6.04296">
        <ele>1014.200012207</ele>
        <time>2012-03-10T13:32:03.000Z</time>
      </trkpt>
      <trkpt lat="45.51979" lon="6.04282">
        <ele>1016.200012207</ele>
        <time>2012-03-10T13:32:09.000Z</time>
      </trkpt>
      <trkpt lat="45.51985" lon="6.04275">
        <ele>1011.799987793</ele>
        <time>2012-03-10T13:32:13.000Z</time>
      </trkpt>
      <trkpt lat="45.51986" lon="6.04275">
        <ele>1011.799987793</ele>
        <time>2012-03-10T13:32:14.000Z</time>
      </trkpt>
      <trkpt lat="45.51988" lon="6.04272">
        <ele>1009.4000244141</ele>
        <time>2012-03-10T13:32:16.000Z</time>
      </trkpt>
      <trkpt lat="45.51992" lon="6.04266">
        <ele>1005.5999755859</ele>
        <time>2012-03-10T13:32:20.000Z</time>
      </trkpt>
      <trkpt lat="45.51993" lon="6.04266">
        <ele>1003.200012207</ele>
        <time>2012-03-10T13:32:25.000Z</time>
      </trkpt>
      <trkpt lat="45.51991" lon="6.04269">
        <ele>1002.5999755859</ele>
        <time>2012-03-10T13:32:33.000Z</time>
      </trkpt>
      <trkpt lat="45.5199" lon="6.04276">
        <ele>1002.5999755859</ele>
        <time>2012-03-10T13:32:53.000Z</time>
      </trkpt>
      <trkpt lat="45.51993" lon="6.04275">
        <ele>1004.200012207</ele>
        <time>2012-03-10T13:32:56.000Z</time>
      </trkpt>
      <trkpt lat="45.52001" lon="6.04274">
        <ele>1004.200012207</ele>
        <time>2012-03-10T13:33:03.000Z</time>
      </trkpt>
      <trkpt lat="45.52005" lon="6.04275">
        <ele>1005.5999755859</ele>
        <time>2012-03-10T13:33:08.000Z</time>
      </trkpt>
      <trkpt lat="45.52014" lon="6.04279">
        <ele>1011.799987793</ele>
        <time>2012-03-10T13:33:15.000Z</time>
      </trkpt>
      <trkpt lat="45.52018" lon="6.04281">
        <ele>1011.799987793</ele>
        <time>2012-03-10T13:33:21.000Z</time>
      </trkpt>
      <trkpt lat="45.52024" lon="6.04282">
        <ele>1010.4000244141</ele>
        <time>2012-03-10T13:33:27.000Z</time>
      </trkpt>
      <trkpt lat="45.52029" lon="6.04286">
        <ele>1007.4000244141</ele>
        <time>2012-03-10T13:33:34.000Z</time>
      </trkpt>
      <trkpt lat="45.52031" lon="6.04291">
        <ele>1007</ele>
        <time>2012-03-10T13:33:39.000Z</time>
      </trkpt>
      <trkpt lat="45.52035" lon="6.04294">
        <ele>1002.200012207</ele>
        <time>2012-03-10T13:33:46.000Z</time>
      </trkpt>
      <trkpt lat="45.52037" lon="6.04288">
        <ele>1000.200012207</ele>
        <time>2012-03-10T13:33:52.000Z</time>
      </trkpt>
      <trkpt lat="45.52041" lon="6.04287">
        <ele>997.79998779297</ele>
        <time>2012-03-10T13:33:58.000Z</time>
      </trkpt>
      <trkpt lat="45.52041" lon="6.04292">
        <ele>995.40002441406</ele>
        <time>2012-03-10T13:34:04.000Z</time>
      </trkpt>
      <trkpt lat="45.52043" lon="6.04296">
        <ele>997.79998779297</ele>
        <time>2012-03-10T13:34:15.000Z</time>
      </trkpt>
      <trkpt lat="45.52045" lon="6.04303">
        <ele>998.79998779297</ele>
        <time>2012-03-10T13:34:27.000Z</time>
      </trkpt>
      <trkpt lat="45.52046" lon="6.043">
        <ele>997</ele>
        <time>2012-03-10T13:34:41.000Z</time>
      </trkpt>
      <trkpt lat="45.52047" lon="6.04303">
        <ele>997</ele>
        <time>2012-03-10T13:34:48.000Z</time>
      </trkpt>
      <trkpt lat="45.5205" lon="6.04307">
        <ele>995.40002441406</ele>
        <time>2012-03-10T13:34:53.000Z</time>
      </trkpt>
      <trkpt lat="45.52052" lon="6.04309">
        <ele>993</ele>
        <time>2012-03-10T13:34:58.000Z</time>
      </trkpt>
      <trkpt lat="45.52053" lon="6.04309">
        <ele>993</ele>
        <time>2012-03-10T13:34:59.000Z</time>
      </trkpt>
      <trkpt lat="45.52055" lon="6.04314">
        <ele>993.59997558594</ele>
        <time>2012-03-10T13:35:05.000Z</time>
      </trkpt>
      <trkpt lat="45.52058" lon="6.0432">
        <ele>992.59997558594</ele>
        <time>2012-03-10T13:35:09.000Z</time>
      </trkpt>
      <trkpt lat="45.52061" lon="6.04324">
        <ele>993</ele>
        <time>2012-03-10T13:35:14.000Z</time>
      </trkpt>
      <trkpt lat="45.52067" lon="6.04331">
        <ele>991.59997558594</ele>
        <time>2012-03-10T13:35:21.000Z</time>
      </trkpt>
      <trkpt lat="45.52068" lon="6.04332">
        <ele>991.59997558594</ele>
        <time>2012-03-10T13:35:22.000Z</time>
      </trkpt>
      <trkpt lat="45.52073" lon="6.04336">
        <ele>995</ele>
        <time>2012-03-10T13:35:30.000Z</time>
      </trkpt>
      <trkpt lat="45.52074" lon="6.0434">
        <ele>992.59997558594</ele>
        <time>2012-03-10T13:35:35.000Z</time>
      </trkpt>
      <trkpt lat="45.52079" lon="6.04345">
        <ele>987.40002441406</ele>
        <time>2012-03-10T13:35:41.000Z</time>
      </trkpt>
      <trkpt lat="45.52079" lon="6.04347">
        <ele>983.40002441406</ele>
        <time>2012-03-10T13:35:45.000Z</time>
      </trkpt>
      <trkpt lat="45.52086" lon="6.04352">
        <ele>984</ele>
        <time>2012-03-10T13:35:59.000Z</time>
      </trkpt>
      <trkpt lat="45.52091" lon="6.04356">
        <ele>978.20001220703</ele>
        <time>2012-03-10T13:36:07.000Z</time>
      </trkpt>
      <trkpt lat="45.52097" lon="6.04361">
        <ele>980.20001220703</ele>
        <time>2012-03-10T13:36:16.000Z</time>
      </trkpt>
      <trkpt lat="45.521" lon="6.04361">
        <ele>981</ele>
        <time>2012-03-10T13:36:21.000Z</time>
      </trkpt>
      <trkpt lat="45.52103" lon="6.04361">
        <ele>982</ele>
        <time>2012-03-10T13:36:27.000Z</time>
      </trkpt>
      <trkpt lat="45.52106" lon="6.04367">
        <ele>980.20001220703</ele>
        <time>2012-03-10T13:36:36.000Z</time>
      </trkpt>
      <trkpt lat="45.52109" lon="6.04366">
        <ele>978.59997558594</ele>
        <time>2012-03-10T13:36:42.000Z</time>
      </trkpt>
      <trkpt lat="45.52116" lon="6.04364">
        <ele>979.59997558594</ele>
        <time>2012-03-10T13:36:49.000Z</time>
      </trkpt>
      <trkpt lat="45.52121" lon="6.04368">
        <ele>976.79998779297</ele>
        <time>2012-03-10T13:36:53.000Z</time>
      </trkpt>
      <trkpt lat="45.52122" lon="6.04368">
        <ele>974.79998779297</ele>
        <time>2012-03-10T13:36:55.000Z</time>
      </trkpt>
      <trkpt lat="45.52126" lon="6.04367">
        <ele>972</ele>
        <time>2012-03-10T13:37:02.000Z</time>
      </trkpt>
      <trkpt lat="45.52131" lon="6.04366">
        <ele>971</ele>
        <time>2012-03-10T13:37:08.000Z</time>
      </trkpt>
      <trkpt lat="45.52133" lon="6.04366">
        <ele>971</ele>
        <time>2012-03-10T13:37:11.000Z</time>
      </trkpt>
      <trkpt lat="45.52136" lon="6.04365">
        <ele>971</ele>
        <time>2012-03-10T13:37:15.000Z</time>
      </trkpt>
      <trkpt lat="45.52141" lon="6.04365">
        <ele>971.40002441406</ele>
        <time>2012-03-10T13:37:21.000Z</time>
      </trkpt>
      <trkpt lat="45.52144" lon="6.04364">
        <ele>970.40002441406</ele>
        <time>2012-03-10T13:37:26.000Z</time>
      </trkpt>
      <trkpt lat="45.52148" lon="6.04366">
        <ele>969</ele>
        <time>2012-03-10T13:37:31.000Z</time>
      </trkpt>
      <trkpt lat="45.52154" lon="6.04367">
        <ele>967.59997558594</ele>
        <time>2012-03-10T13:37:35.000Z</time>
      </trkpt>
      <trkpt lat="45.52159" lon="6.04366">
        <ele>965.20001220703</ele>
        <time>2012-03-10T13:37:40.000Z</time>
      </trkpt>
      <trkpt lat="45.52162" lon="6.04365">
        <ele>966.59997558594</ele>
        <time>2012-03-10T13:37:49.000Z</time>
      </trkpt>
      <trkpt lat="45.52166" lon="6.04363">
        <ele>966.59997558594</ele>
        <time>2012-03-10T13:37:54.000Z</time>
      </trkpt>
      <trkpt lat="45.52167" lon="6.04358">
        <ele>967.59997558594</ele>
        <time>2012-03-10T13:37:59.000Z</time>
      </trkpt>
      <trkpt lat="45.5217" lon="6.04354">
        <ele>967.20001220703</ele>
        <time>2012-03-10T13:38:04.000Z</time>
      </trkpt>
      <trkpt lat="45.52174" lon="6.04354">
        <ele>967.20001220703</ele>
        <time>2012-03-10T13:38:09.000Z</time>
      </trkpt>
      <trkpt lat="45.52178" lon="6.04356">
        <ele>961.40002441406</ele>
        <time>2012-03-10T13:38:15.000Z</time>
      </trkpt>
      <trkpt lat="45.52183" lon="6.04358">
        <ele>962.40002441406</ele>
        <time>2012-03-10T13:38:23.000Z</time>
      </trkpt>
      <trkpt lat="45.52188" lon="6.04356">
        <ele>963.20001220703</ele>
        <time>2012-03-10T13:38:29.000Z</time>
      </trkpt>
      <trkpt lat="45.52191" lon="6.0436">
        <ele>963.20001220703</ele>
        <time>2012-03-10T13:38:34.000Z</time>
      </trkpt>
      <trkpt lat="45.52195" lon="6.04362">
        <ele>967.59997558594</ele>
        <time>2012-03-10T13:38:41.000Z</time>
      </trkpt>
      <trkpt lat="45.52195" lon="6.04364">
        <ele>967.20001220703</ele>
        <time>2012-03-10T13:38:51.000Z</time>
      </trkpt>
      <trkpt lat="45.52196" lon="6.04366">
        <ele>967.59997558594</ele>
        <time>2012-03-10T13:38:56.000Z</time>
      </trkpt>
      <trkpt lat="45.52205" lon="6.04379">
        <ele>973.79998779297</ele>
        <time>2012-03-10T13:39:19.000Z</time>
      </trkpt>
      <trkpt lat="45.52208" lon="6.04376">
        <ele>963.79998779297</ele>
        <time>2012-03-10T13:39:28.000Z</time>
      </trkpt>
      <trkpt lat="45.5221" lon="6.04376">
        <ele>959.40002441406</ele>
        <time>2012-03-10T13:39:32.000Z</time>
      </trkpt>
      <trkpt lat="45.52214" lon="6.04377">
        <ele>953.59997558594</ele>
        <time>2012-03-10T13:39:38.000Z</time>
      </trkpt>
      <trkpt lat="45.52217" lon="6.0438">
        <ele>951.20001220703</ele>
        <time>2012-03-10T13:39:44.000Z</time>
      </trkpt>
      <trkpt lat="45.5222" lon="6.04386">
        <ele>951.20001220703</ele>
        <time>2012-03-10T13:39:50.000Z</time>
      </trkpt>
      <trkpt lat="45.52226" lon="6.04385">
        <ele>950.79998779297</ele>
        <time>2012-03-10T13:40:00.000Z</time>
      </trkpt>
      <trkpt lat="45.52231" lon="6.04388">
        <ele>949.79998779297</ele>
        <time>2012-03-10T13:40:08.000Z</time>
      </trkpt>
      <trkpt lat="45.52236" lon="6.04392">
        <ele>946</ele>
        <time>2012-03-10T13:40:15.000Z</time>
      </trkpt>
      <trkpt lat="45.52242" lon="6.04395">
        <ele>942.20001220703</ele>
        <time>2012-03-10T13:40:21.000Z</time>
      </trkpt>
      <trkpt lat="45.52243" lon="6.04396">
        <ele>941.59997558594</ele>
        <time>2012-03-10T13:40:22.000Z</time>
      </trkpt>
      <trkpt lat="45.52249" lon="6.04396">
        <ele>941.20001220703</ele>
        <time>2012-03-10T13:40:31.000Z</time>
      </trkpt>
      <trkpt lat="45.52253" lon="6.04397">
        <ele>942.20001220703</ele>
        <time>2012-03-10T13:40:37.000Z</time>
      </trkpt>
      <trkpt lat="45.52255" lon="6.04399">
        <ele>941.20001220703</ele>
        <time>2012-03-10T13:40:42.000Z</time>
      </trkpt>
      <trkpt lat="45.52258" lon="6.04402">
        <ele>935.40002441406</ele>
        <time>2012-03-10T13:40:47.000Z</time>
      </trkpt>
      <trkpt lat="45.52259" lon="6.04403">
        <ele>935</ele>
        <time>2012-03-10T13:40:48.000Z</time>
      </trkpt>
      <trkpt lat="45.52261" lon="6.04405">
        <ele>935</ele>
        <time>2012-03-10T13:40:50.000Z</time>
      </trkpt>
      <trkpt lat="45.52265" lon="6.04409">
        <ele>933</ele>
        <time>2012-03-10T13:40:55.000Z</time>
      </trkpt>
      <trkpt lat="45.52269" lon="6.04415">
        <ele>932</ele>
        <time>2012-03-10T13:41:02.000Z</time>
      </trkpt>
      <trkpt lat="45.52272" lon="6.04415">
        <ele>927.20001220703</ele>
        <time>2012-03-10T13:41:07.000Z</time>
      </trkpt>
      <trkpt lat="45.52276" lon="6.04418">
        <ele>922.40002441406</ele>
        <time>2012-03-10T13:41:13.000Z</time>
      </trkpt>
      <trkpt lat="45.52279" lon="6.04421">
        <ele>922.40002441406</ele>
        <time>2012-03-10T13:41:19.000Z</time>
      </trkpt>
      <trkpt lat="45.52283" lon="6.04424">
        <ele>924.79998779297</ele>
        <time>2012-03-10T13:41:25.000Z</time>
      </trkpt>
      <trkpt lat="45.52289" lon="6.04424">
        <ele>928.59997558594</ele>
        <time>2012-03-10T13:41:33.000Z</time>
      </trkpt>
      <trkpt lat="45.52294" lon="6.04421">
        <ele>933</ele>
        <time>2012-03-10T13:41:39.000Z</time>
      </trkpt>
      <trkpt lat="45.52296" lon="6.04417">
        <ele>936.79998779297</ele>
        <time>2012-03-10T13:41:45.000Z</time>
      </trkpt>
      <trkpt lat="45.52299" lon="6.04413">
        <ele>936.79998779297</ele>
        <time>2012-03-10T13:41:53.000Z</time>
      </trkpt>
      <trkpt lat="45.52303" lon="6.04414">
        <ele>933.40002441406</ele>
        <time>2012-03-10T13:41:58.000Z</time>
      </trkpt>
      <trkpt lat="45.52304" lon="6.04412">
        <ele>933.40002441406</ele>
        <time>2012-03-10T13:41:59.000Z</time>
      </trkpt>
      <trkpt lat="45.5231" lon="6.04408">
        <ele>932.59997558594</ele>
        <time>2012-03-10T13:42:05.000Z</time>
      </trkpt>
      <trkpt lat="45.52313" lon="6.04404">
        <ele>932</ele>
        <time>2012-03-10T13:42:09.000Z</time>
      </trkpt>
      <trkpt lat="45.52322" lon="6.04407">
        <ele>927.79998779297</ele>
        <time>2012-03-10T13:42:17.000Z</time>
      </trkpt>
      <trkpt lat="45.52326" lon="6.04409">
        <ele>925.79998779297</ele>
        <time>2012-03-10T13:42:20.000Z</time>
      </trkpt>
      <trkpt lat="45.52329" lon="6.0441">
        <ele>923</ele>
        <time>2012-03-10T13:42:24.000Z</time>
      </trkpt>
      <trkpt lat="45.52335" lon="6.04414">
        <ele>919.59997558594</ele>
        <time>2012-03-10T13:42:31.000Z</time>
      </trkpt>
      <trkpt lat="45.5234" lon="6.04414">
        <ele>916.20001220703</ele>
        <time>2012-03-10T13:42:35.000Z</time>
      </trkpt>
      <trkpt lat="45.52346" lon="6.04415">
        <ele>913.20001220703</ele>
        <time>2012-03-10T13:42:41.000Z</time>
      </trkpt>
      <trkpt lat="45.52353" lon="6.04418">
        <ele>906</ele>
        <time>2012-03-10T13:42:47.000Z</time>
      </trkpt>
      <trkpt lat="45.52359" lon="6.04419">
        <ele>903.59997558594</ele>
        <time>2012-03-10T13:42:54.000Z</time>
      </trkpt>
      <trkpt lat="45.52364" lon="6.04417">
        <ele>911.79998779297</ele>
        <time>2012-03-10T13:43:06.000Z</time>
      </trkpt>
      <trkpt lat="45.52366" lon="6.04414">
        <ele>905.59997558594</ele>
        <time>2012-03-10T13:43:19.000Z</time>
      </trkpt>
      <trkpt lat="45.52368" lon="6.04418">
        <ele>901.79998779297</ele>
        <time>2012-03-10T13:43:26.000Z</time>
      </trkpt>
      <trkpt lat="45.52374" lon="6.04421">
        <ele>900.79998779297</ele>
        <time>2012-03-10T13:43:32.000Z</time>
      </trkpt>
      <trkpt lat="45.52377" lon="6.04423">
        <ele>900.40002441406</ele>
        <time>2012-03-10T13:43:35.000Z</time>
      </trkpt>
      <trkpt lat="45.52383" lon="6.04426">
        <ele>896</ele>
        <time>2012-03-10T13:43:42.000Z</time>
      </trkpt>
      <trkpt lat="45.52387" lon="6.04426">
        <ele>895.59997558594</ele>
        <time>2012-03-10T13:43:46.000Z</time>
      </trkpt>
      <trkpt lat="45.52397" lon="6.04427">
        <ele>897.40002441406</ele>
        <time>2012-03-10T13:43:51.000Z</time>
      </trkpt>
      <trkpt lat="45.52402" lon="6.04427">
        <ele>894.59997558594</ele>
        <time>2012-03-10T13:43:56.000Z</time>
      </trkpt>
      <trkpt lat="45.52406" lon="6.04427">
        <ele>892.59997558594</ele>
        <time>2012-03-10T13:44:00.000Z</time>
      </trkpt>
      <trkpt lat="45.52409" lon="6.04427">
        <ele>890.20001220703</ele>
        <time>2012-03-10T13:44:03.000Z</time>
      </trkpt>
      <trkpt lat="45.52415" lon="6.04425">
        <ele>889.20001220703</ele>
        <time>2012-03-10T13:44:07.000Z</time>
      </trkpt>
      <trkpt lat="45.52422" lon="6.04425">
        <ele>886.79998779297</ele>
        <time>2012-03-10T13:44:14.000Z</time>
      </trkpt>
      <trkpt lat="45.52428" lon="6.04423">
        <ele>888.79998779297</ele>
        <time>2012-03-10T13:44:19.000Z</time>
      </trkpt>
      <trkpt lat="45.52436" lon="6.0442">
        <ele>888.79998779297</ele>
        <time>2012-03-10T13:44:25.000Z</time>
      </trkpt>
      <trkpt lat="45.52441" lon="6.04418">
        <ele>889.20001220703</ele>
        <time>2012-03-10T13:44:29.000Z</time>
      </trkpt>
      <trkpt lat="45.52448" lon="6.04417">
        <ele>891.20001220703</ele>
        <time>2012-03-10T13:44:36.000Z</time>
      </trkpt>
      <trkpt lat="45.52449" lon="6.04416">
        <ele>890.59997558594</ele>
        <time>2012-03-10T13:44:37.000Z</time>
      </trkpt>
      <trkpt lat="45.52455" lon="6.04415">
        <ele>889.79998779297</ele>
        <time>2012-03-10T13:44:44.000Z</time>
      </trkpt>
      <trkpt lat="45.52459" lon="6.04416">
        <ele>887.40002441406</ele>
        <time>2012-03-10T13:44:48.000Z</time>
      </trkpt>
      <trkpt lat="45.52462" lon="6.04414">
        <ele>889.20001220703</ele>
        <time>2012-03-10T13:44:53.000Z</time>
      </trkpt>
      <trkpt lat="45.52466" lon="6.04415">
        <ele>887.40002441406</ele>
        <time>2012-03-10T13:44:59.000Z</time>
      </trkpt>
      <trkpt lat="45.52469" lon="6.04416">
        <ele>887.40002441406</ele>
        <time>2012-03-10T13:45:04.000Z</time>
      </trkpt>
      <trkpt lat="45.52472" lon="6.04416">
        <ele>891.20001220703</ele>
        <time>2012-03-10T13:45:12.000Z</time>
      </trkpt>
      <trkpt lat="45.52476" lon="6.04414">
        <ele>888.79998779297</ele>
        <time>2012-03-10T13:45:16.000Z</time>
      </trkpt>
      <trkpt lat="45.52481" lon="6.04413">
        <ele>885</ele>
        <time>2012-03-10T13:45:20.000Z</time>
      </trkpt>
      <trkpt lat="45.52483" lon="6.04413">
        <ele>884</ele>
        <time>2012-03-10T13:45:22.000Z</time>
      </trkpt>
      <trkpt lat="45.52488" lon="6.04411">
        <ele>881.59997558594</ele>
        <time>2012-03-10T13:45:26.000Z</time>
      </trkpt>
      <trkpt lat="45.52495" lon="6.04409">
        <ele>879.20001220703</ele>
        <time>2012-03-10T13:45:32.000Z</time>
      </trkpt>
      <trkpt lat="45.52503" lon="6.04407">
        <ele>876.79998779297</ele>
        <time>2012-03-10T13:45:37.000Z</time>
      </trkpt>
      <trkpt lat="45.52512" lon="6.0441">
        <ele>874.40002441406</ele>
        <time>2012-03-10T13:45:43.000Z</time>
      </trkpt>
      <trkpt lat="45.5252" lon="6.04414">
        <ele>876.20001220703</ele>
        <time>2012-03-10T13:45:51.000Z</time>
      </trkpt>
      <trkpt lat="45.52531" lon="6.04418">
        <ele>877.79998779297</ele>
        <time>2012-03-10T13:45:59.000Z</time>
      </trkpt>
      <trkpt lat="45.52536" lon="6.04419">
        <ele>878.59997558594</ele>
        <time>2012-03-10T13:46:03.000Z</time>
      </trkpt>
      <trkpt lat="45.52547" lon="6.04424">
        <ele>881.59997558594</ele>
        <time>2012-03-10T13:46:13.000Z</time>
      </trkpt>
      <trkpt lat="45.52556" lon="6.04431">
        <ele>878.20001220703</ele>
        <time>2012-03-10T13:46:20.000Z</time>
      </trkpt>
      <trkpt lat="45.52561" lon="6.04436">
        <ele>876.79998779297</ele>
        <time>2012-03-10T13:46:27.000Z</time>
      </trkpt>
      <trkpt lat="45.52567" lon="6.04439">
        <ele>874.40002441406</ele>
        <time>2012-03-10T13:46:35.000Z</time>
      </trkpt>
      <trkpt lat="45.52573" lon="6.04441">
        <ele>873</ele>
        <time>2012-03-10T13:46:40.000Z</time>
      </trkpt>
      <trkpt lat="45.52578" lon="6.04443">
        <ele>874.40002441406</ele>
        <time>2012-03-10T13:46:46.000Z</time>
      </trkpt>
      <trkpt lat="45.52582" lon="6.04445">
        <ele>876.20001220703</ele>
        <time>2012-03-10T13:46:52.000Z</time>
      </trkpt>
      <trkpt lat="45.52587" lon="6.0445">
        <ele>876.79998779297</ele>
        <time>2012-03-10T13:46:58.000Z</time>
      </trkpt>
      <trkpt lat="45.52593" lon="6.04453">
        <ele>876.79998779297</ele>
        <time>2012-03-10T13:47:05.000Z</time>
      </trkpt>
      <trkpt lat="45.52598" lon="6.04456">
        <ele>876.20001220703</ele>
        <time>2012-03-10T13:47:10.000Z</time>
      </trkpt>
      <trkpt lat="45.52605" lon="6.04462">
        <ele>876.20001220703</ele>
        <time>2012-03-10T13:47:17.000Z</time>
      </trkpt>
      <trkpt lat="45.52611" lon="6.04467">
        <ele>875.40002441406</ele>
        <time>2012-03-10T13:47:25.000Z</time>
      </trkpt>
      <trkpt lat="45.52616" lon="6.04474">
        <ele>874.40002441406</ele>
        <time>2012-03-10T13:47:32.000Z</time>
      </trkpt>
      <trkpt lat="45.52623" lon="6.04478">
        <ele>873.79998779297</ele>
        <time>2012-03-10T13:47:39.000Z</time>
      </trkpt>
      <trkpt lat="45.52627" lon="6.04478">
        <ele>873.40002441406</ele>
        <time>2012-03-10T13:47:43.000Z</time>
      </trkpt>
      <trkpt lat="45.52637" lon="6.04481">
        <ele>873.40002441406</ele>
        <time>2012-03-10T13:47:51.000Z</time>
      </trkpt>
      <trkpt lat="45.52647" lon="6.04482">
        <ele>874.40002441406</ele>
        <time>2012-03-10T13:47:59.000Z</time>
      </trkpt>
      <trkpt lat="45.52658" lon="6.04484">
        <ele>874.79998779297</ele>
        <time>2012-03-10T13:48:08.000Z</time>
      </trkpt>
      <trkpt lat="45.52668" lon="6.04487">
        <ele>873.79998779297</ele>
        <time>2012-03-10T13:48:16.000Z</time>
      </trkpt>
      <trkpt lat="45.52679" lon="6.0449">
        <ele>873.79998779297</ele>
        <time>2012-03-10T13:48:25.000Z</time>
      </trkpt>
      <trkpt lat="45.52688" lon="6.04492">
        <ele>874.79998779297</ele>
        <time>2012-03-10T13:48:33.000Z</time>
      </trkpt>
      <trkpt lat="45.52692" lon="6.04494">
        <ele>873</ele>
        <time>2012-03-10T13:48:36.000Z</time>
      </trkpt>
      <trkpt lat="45.52698" lon="6.04496">
        <ele>872</ele>
        <time>2012-03-10T13:48:41.000Z</time>
      </trkpt>
      <trkpt lat="45.52705" lon="6.04495">
        <ele>871</ele>
        <time>2012-03-10T13:48:46.000Z</time>
      </trkpt>
      <trkpt lat="45.52708" lon="6.04495">
        <ele>869.59997558594</ele>
        <time>2012-03-10T13:48:51.000Z</time>
      </trkpt>
      <trkpt lat="45.52713" lon="6.04494">
        <ele>869</ele>
        <time>2012-03-10T13:48:56.000Z</time>
      </trkpt>
      <trkpt lat="45.52718" lon="6.04494">
        <ele>867.20001220703</ele>
        <time>2012-03-10T13:49:00.000Z</time>
      </trkpt>
      <trkpt lat="45.52727" lon="6.04496">
        <ele>865.79998779297</ele>
        <time>2012-03-10T13:49:06.000Z</time>
      </trkpt>
      <trkpt lat="45.52731" lon="6.045">
        <ele>864.20001220703</ele>
        <time>2012-03-10T13:49:10.000Z</time>
      </trkpt>
      <trkpt lat="45.52734" lon="6.04502">
        <ele>861.40002441406</ele>
        <time>2012-03-10T13:49:13.000Z</time>
      </trkpt>
      <trkpt lat="45.52739" lon="6.0451">
        <ele>858.40002441406</ele>
        <time>2012-03-10T13:49:19.000Z</time>
      </trkpt>
      <trkpt lat="45.52743" lon="6.04521">
        <ele>857.59997558594</ele>
        <time>2012-03-10T13:49:26.000Z</time>
      </trkpt>
      <trkpt lat="45.52745" lon="6.04535">
        <ele>862.79998779297</ele>
        <time>2012-03-10T13:49:34.000Z</time>
      </trkpt>
      <trkpt lat="45.52746" lon="6.04545">
        <ele>862.40002441406</ele>
        <time>2012-03-10T13:49:40.000Z</time>
      </trkpt>
      <trkpt lat="45.52746" lon="6.04555">
        <ele>861.79998779297</ele>
        <time>2012-03-10T13:49:46.000Z</time>
      </trkpt>
      <trkpt lat="45.52747" lon="6.04565">
        <ele>862.40002441406</ele>
        <time>2012-03-10T13:49:52.000Z</time>
      </trkpt>
      <trkpt lat="45.52749" lon="6.04569">
        <ele>861.79998779297</ele>
        <time>2012-03-10T13:49:56.000Z</time>
      </trkpt>
      <trkpt lat="45.52753" lon="6.04576">
        <ele>861.79998779297</ele>
        <time>2012-03-10T13:50:02.000Z</time>
      </trkpt>
      <trkpt lat="45.52753" lon="6.04578">
        <ele>863.79998779297</ele>
        <time>2012-03-10T13:50:09.000Z</time>
      </trkpt>
      <trkpt lat="45.52754" lon="6.04577">
        <ele>868.20001220703</ele>
        <time>2012-03-10T13:50:16.000Z</time>
      </trkpt>
      <trkpt lat="45.52755" lon="6.04577">
        <ele>869.59997558594</ele>
        <time>2012-03-10T13:50:24.000Z</time>
      </trkpt>
      <trkpt lat="45.52756" lon="6.04578">
        <ele>866.20001220703</ele>
        <time>2012-03-10T13:50:43.000Z</time>
      </trkpt>
      <trkpt lat="45.52759" lon="6.04577">
        <ele>863.79998779297</ele>
        <time>2012-03-10T13:50:49.000Z</time>
      </trkpt>
      <trkpt lat="45.52763" lon="6.04574">
        <ele>861.40002441406</ele>
        <time>2012-03-10T13:50:54.000Z</time>
      </trkpt>
      <trkpt lat="45.52766" lon="6.0457">
        <ele>861.79998779297</ele>
        <time>2012-03-10T13:50:58.000Z</time>
      </trkpt>
      <trkpt lat="45.52769" lon="6.04569">
        <ele>860.79998779297</ele>
        <time>2012-03-10T13:51:03.000Z</time>
      </trkpt>
      <trkpt lat="45.52774" lon="6.04567">
        <ele>863.79998779297</ele>
        <time>2012-03-10T13:51:22.000Z</time>
      </trkpt>
      <trkpt lat="45.52779" lon="6.0456">
        <ele>861.79998779297</ele>
        <time>2012-03-10T13:51:29.000Z</time>
      </trkpt>
      <trkpt lat="45.52784" lon="6.04551">
        <ele>863.79998779297</ele>
        <time>2012-03-10T13:51:37.000Z</time>
      </trkpt>
      <trkpt lat="45.52787" lon="6.04544">
        <ele>862.79998779297</ele>
        <time>2012-03-10T13:51:43.000Z</time>
      </trkpt>
      <trkpt lat="45.52789" lon="6.04543">
        <ele>863.40002441406</ele>
        <time>2012-03-10T13:51:48.000Z</time>
      </trkpt>
      <trkpt lat="45.52796" lon="6.04546">
        <ele>856</ele>
        <time>2012-03-10T13:52:52.000Z</time>
      </trkpt>
      <trkpt lat="45.52802" lon="6.04543">
        <ele>855.59997558594</ele>
        <time>2012-03-10T13:52:58.000Z</time>
      </trkpt>
      <trkpt lat="45.52807" lon="6.04547">
        <ele>854.20001220703</ele>
        <time>2012-03-10T13:53:03.000Z</time>
      </trkpt>
      <trkpt lat="45.5281" lon="6.04551">
        <ele>851.20001220703</ele>
        <time>2012-03-10T13:53:06.000Z</time>
      </trkpt>
      <trkpt lat="45.52814" lon="6.04556">
        <ele>848.40002441406</ele>
        <time>2012-03-10T13:53:10.000Z</time>
      </trkpt>
      <trkpt lat="45.52815" lon="6.04566">
        <ele>844.59997558594</ele>
        <time>2012-03-10T13:53:16.000Z</time>
      </trkpt>
      <trkpt lat="45.52816" lon="6.04569">
        <ele>843.20001220703</ele>
        <time>2012-03-10T13:53:18.000Z</time>
      </trkpt>
      <trkpt lat="45.52815" lon="6.04579">
        <ele>840.20001220703</ele>
        <time>2012-03-10T13:53:24.000Z</time>
      </trkpt>
      <trkpt lat="45.52815" lon="6.04591">
        <ele>835.40002441406</ele>
        <time>2012-03-10T13:53:30.000Z</time>
      </trkpt>
      <trkpt lat="45.52816" lon="6.04592">
        <ele>834.40002441406</ele>
        <time>2012-03-10T13:53:31.000Z</time>
      </trkpt>
      <trkpt lat="45.52816" lon="6.04595">
        <ele>834</ele>
        <time>2012-03-10T13:53:33.000Z</time>
      </trkpt>
      <trkpt lat="45.52815" lon="6.04596">
        <ele>836</ele>
        <time>2012-03-10T13:53:42.000Z</time>
      </trkpt>
      <trkpt lat="45.52817" lon="6.04599">
        <ele>843.20001220703</ele>
        <time>2012-03-10T13:53:55.000Z</time>
      </trkpt>
      <trkpt lat="45.52817" lon="6.04603">
        <ele>841.59997558594</ele>
        <time>2012-03-10T13:54:27.000Z</time>
      </trkpt>
      <trkpt lat="45.52822" lon="6.04604">
        <ele>840.79998779297</ele>
        <time>2012-03-10T13:54:33.000Z</time>
      </trkpt>
      <trkpt lat="45.52828" lon="6.04603">
        <ele>840.79998779297</ele>
        <time>2012-03-10T13:54:40.000Z</time>
      </trkpt>
      <trkpt lat="45.52834" lon="6.04599">
        <ele>843.59997558594</ele>
        <time>2012-03-10T13:54:47.000Z</time>
      </trkpt>
      <trkpt lat="45.52839" lon="6.04597">
        <ele>844</ele>
        <time>2012-03-10T13:54:52.000Z</time>
      </trkpt>
      <trkpt lat="45.52847" lon="6.04595">
        <ele>843.59997558594</ele>
        <time>2012-03-10T13:54:58.000Z</time>
      </trkpt>
      <trkpt lat="45.52852" lon="6.04595">
        <ele>843.20001220703</ele>
        <time>2012-03-10T13:55:03.000Z</time>
      </trkpt>
      <trkpt lat="45.52858" lon="6.04595">
        <ele>842.20001220703</ele>
        <time>2012-03-10T13:55:07.000Z</time>
      </trkpt>
      <trkpt lat="45.52867" lon="6.04594">
        <ele>841.20001220703</ele>
        <time>2012-03-10T13:55:14.000Z</time>
      </trkpt>
      <trkpt lat="45.52877" lon="6.04596">
        <ele>840.79998779297</ele>
        <time>2012-03-10T13:55:21.000Z</time>
      </trkpt>
      <trkpt lat="45.52887" lon="6.04598">
        <ele>840.79998779297</ele>
        <time>2012-03-10T13:55:29.000Z</time>
      </trkpt>
      <trkpt lat="45.52899" lon="6.046">
        <ele>842.20001220703</ele>
        <time>2012-03-10T13:55:38.000Z</time>
      </trkpt>
      <trkpt lat="45.52908" lon="6.046">
        <ele>842.20001220703</ele>
        <time>2012-03-10T13:55:45.000Z</time>
      </trkpt>
      <trkpt lat="45.5292" lon="6.04598">
        <ele>840.79998779297</ele>
        <time>2012-03-10T13:55:54.000Z</time>
      </trkpt>
      <trkpt lat="45.52927" lon="6.04595">
        <ele>841.20001220703</ele>
        <time>2012-03-10T13:56:00.000Z</time>
      </trkpt>
      <trkpt lat="45.52935" lon="6.04593">
        <ele>842.59997558594</ele>
        <time>2012-03-10T13:56:07.000Z</time>
      </trkpt>
      <trkpt lat="45.52941" lon="6.04595">
        <ele>840.79998779297</ele>
        <time>2012-03-10T13:56:12.000Z</time>
      </trkpt>
      <trkpt lat="45.52951" lon="6.04602">
        <ele>840.79998779297</ele>
        <time>2012-03-10T13:56:22.000Z</time>
      </trkpt>
      <trkpt lat="45.52958" lon="6.04602">
        <ele>843.20001220703</ele>
        <time>2012-03-10T13:56:29.000Z</time>
      </trkpt>
      <trkpt lat="45.52967" lon="6.04611">
        <ele>843.59997558594</ele>
        <time>2012-03-10T13:56:37.000Z</time>
      </trkpt>
      <trkpt lat="45.52973" lon="6.04624">
        <ele>846</ele>
        <time>2012-03-10T13:56:47.000Z</time>
      </trkpt>
      <trkpt lat="45.52981" lon="6.04629">
        <ele>848.40002441406</ele>
        <time>2012-03-10T13:56:55.000Z</time>
      </trkpt>
      <trkpt lat="45.52993" lon="6.04626">
        <ele>848.79998779297</ele>
        <time>2012-03-10T13:57:05.000Z</time>
      </trkpt>
      <trkpt lat="45.53003" lon="6.04624">
        <ele>848.79998779297</ele>
        <time>2012-03-10T13:57:13.000Z</time>
      </trkpt>
      <trkpt lat="45.53014" lon="6.0462">
        <ele>848.40002441406</ele>
        <time>2012-03-10T13:57:23.000Z</time>
      </trkpt>
      <trkpt lat="45.53025" lon="6.04618">
        <ele>848.40002441406</ele>
        <time>2012-03-10T13:57:32.000Z</time>
      </trkpt>
      <trkpt lat="45.53035" lon="6.04619">
        <ele>848.79998779297</ele>
        <time>2012-03-10T13:57:41.000Z</time>
      </trkpt>
      <trkpt lat="45.53045" lon="6.04621">
        <ele>848.40002441406</ele>
        <time>2012-03-10T13:57:49.000Z</time>
      </trkpt>
      <trkpt lat="45.53054" lon="6.04621">
        <ele>849.40002441406</ele>
        <time>2012-03-10T13:57:56.000Z</time>
      </trkpt>
      <trkpt lat="45.53066" lon="6.04623">
        <ele>850.40002441406</ele>
        <time>2012-03-10T13:58:06.000Z</time>
      </trkpt>
      <trkpt lat="45.53069" lon="6.04623">
        <ele>850.40002441406</ele>
        <time>2012-03-10T13:58:08.000Z</time>
      </trkpt>
      <trkpt lat="45.53073" lon="6.04629">
        <ele>850.40002441406</ele>
        <time>2012-03-10T13:58:14.000Z</time>
      </trkpt>
      <trkpt lat="45.53073" lon="6.04644">
        <ele>852.20001220703</ele>
        <time>2012-03-10T13:58:23.000Z</time>
      </trkpt>
      <trkpt lat="45.53071" lon="6.04659">
        <ele>854.59997558594</ele>
        <time>2012-03-10T13:58:33.000Z</time>
      </trkpt>
      <trkpt lat="45.5307" lon="6.04672">
        <ele>856.59997558594</ele>
        <time>2012-03-10T13:58:42.000Z</time>
      </trkpt>
      <trkpt lat="45.53067" lon="6.04683">
        <ele>858</ele>
        <time>2012-03-10T13:58:51.000Z</time>
      </trkpt>
      <trkpt lat="45.53067" lon="6.0469">
        <ele>859</ele>
        <time>2012-03-10T13:58:58.000Z</time>
      </trkpt>
      <trkpt lat="45.53066" lon="6.04703">
        <ele>861.79998779297</ele>
        <time>2012-03-10T13:59:08.000Z</time>
      </trkpt>
      <trkpt lat="45.53064" lon="6.04712">
        <ele>864.20001220703</ele>
        <time>2012-03-10T13:59:15.000Z</time>
      </trkpt>
      <trkpt lat="45.53062" lon="6.04723">
        <ele>866.20001220703</ele>
        <time>2012-03-10T13:59:23.000Z</time>
      </trkpt>
      <trkpt lat="45.5306" lon="6.04734">
        <ele>866.59997558594</ele>
        <time>2012-03-10T13:59:31.000Z</time>
      </trkpt>
      <trkpt lat="45.53055" lon="6.04745">
        <ele>868.20001220703</ele>
        <time>2012-03-10T13:59:39.000Z</time>
      </trkpt>
      <trkpt lat="45.53052" lon="6.04753">
        <ele>869.59997558594</ele>
        <time>2012-03-10T13:59:45.000Z</time>
      </trkpt>
      <trkpt lat="45.53047" lon="6.0476">
        <ele>869.59997558594</ele>
        <time>2012-03-10T13:59:51.000Z</time>
      </trkpt>
      <trkpt lat="45.53041" lon="6.04769">
        <ele>871.40002441406</ele>
        <time>2012-03-10T13:59:59.000Z</time>
      </trkpt>
      <trkpt lat="45.53036" lon="6.04778">
        <ele>873</ele>
        <time>2012-03-10T14:00:06.000Z</time>
      </trkpt>
      <trkpt lat="45.5303" lon="6.04789">
        <ele>874.79998779297</ele>
        <time>2012-03-10T14:00:14.000Z</time>
      </trkpt>
      <trkpt lat="45.53028" lon="6.04794">
        <ele>875.79998779297</ele>
        <time>2012-03-10T14:00:18.000Z</time>
      </trkpt>
      <trkpt lat="45.53025" lon="6.04803">
        <ele>877.20001220703</ele>
        <time>2012-03-10T14:00:25.000Z</time>
      </trkpt>
      <trkpt lat="45.53021" lon="6.04816">
        <ele>879.59997558594</ele>
        <time>2012-03-10T14:00:35.000Z</time>
      </trkpt>
      <trkpt lat="45.53018" lon="6.04825">
        <ele>881</ele>
        <time>2012-03-10T14:00:42.000Z</time>
      </trkpt>
      <trkpt lat="45.53015" lon="6.04834">
        <ele>881.59997558594</ele>
        <time>2012-03-10T14:00:48.000Z</time>
      </trkpt>
      <trkpt lat="45.53013" lon="6.04846">
        <ele>881</ele>
        <time>2012-03-10T14:00:56.000Z</time>
      </trkpt>
      <trkpt lat="45.53013" lon="6.04847">
        <ele>881</ele>
        <time>2012-03-10T14:00:57.000Z</time>
      </trkpt>
      <trkpt lat="45.53009" lon="6.04858">
        <ele>881</ele>
        <time>2012-03-10T14:01:05.000Z</time>
      </trkpt>
      <trkpt lat="45.53008" lon="6.04871">
        <ele>882</ele>
        <time>2012-03-10T14:01:13.000Z</time>
      </trkpt>
      <trkpt lat="45.53006" lon="6.04883">
        <ele>882.59997558594</ele>
        <time>2012-03-10T14:01:20.000Z</time>
      </trkpt>
      <trkpt lat="45.53001" lon="6.04895">
        <ele>883</ele>
        <time>2012-03-10T14:01:28.000Z</time>
      </trkpt>
      <trkpt lat="45.52993" lon="6.04909">
        <ele>884.40002441406</ele>
        <time>2012-03-10T14:01:37.000Z</time>
      </trkpt>
      <trkpt lat="45.52986" lon="6.04922">
        <ele>884</ele>
        <time>2012-03-10T14:01:45.000Z</time>
      </trkpt>
      <trkpt lat="45.5298" lon="6.04937">
        <ele>885</ele>
        <time>2012-03-10T14:01:54.000Z</time>
      </trkpt>
      <trkpt lat="45.52975" lon="6.04954">
        <ele>886.40002441406</ele>
        <time>2012-03-10T14:02:03.000Z</time>
      </trkpt>
      <trkpt lat="45.52974" lon="6.04971">
        <ele>887.40002441406</ele>
        <time>2012-03-10T14:02:12.000Z</time>
      </trkpt>
      <trkpt lat="45.52975" lon="6.04985">
        <ele>889.20001220703</ele>
        <time>2012-03-10T14:02:19.000Z</time>
      </trkpt>
      <trkpt lat="45.52975" lon="6.04999">
        <ele>890.20001220703</ele>
        <time>2012-03-10T14:02:27.000Z</time>
      </trkpt>
      <trkpt lat="45.52976" lon="6.05017">
        <ele>891.20001220703</ele>
        <time>2012-03-10T14:02:36.000Z</time>
      </trkpt>
      <trkpt lat="45.52976" lon="6.05035">
        <ele>892.20001220703</ele>
        <time>2012-03-10T14:02:45.000Z</time>
      </trkpt>
      <trkpt lat="45.52978" lon="6.05054">
        <ele>893.20001220703</ele>
        <time>2012-03-10T14:02:54.000Z</time>
      </trkpt>
      <trkpt lat="45.52978" lon="6.05071">
        <ele>895</ele>
        <time>2012-03-10T14:03:02.000Z</time>
      </trkpt>
      <trkpt lat="45.52979" lon="6.05089">
        <ele>896.40002441406</ele>
        <time>2012-03-10T14:03:11.000Z</time>
      </trkpt>
      <trkpt lat="45.5298" lon="6.05109">
        <ele>898</ele>
        <time>2012-03-10T14:03:20.000Z</time>
      </trkpt>
      <trkpt lat="45.52981" lon="6.05128">
        <ele>898</ele>
        <time>2012-03-10T14:03:29.000Z</time>
      </trkpt>
      <trkpt lat="45.52982" lon="6.05144">
        <ele>897.40002441406</ele>
        <time>2012-03-10T14:03:37.000Z</time>
      </trkpt>
      <trkpt lat="45.52985" lon="6.05162">
        <ele>897.40002441406</ele>
        <time>2012-03-10T14:03:46.000Z</time>
      </trkpt>
      <trkpt lat="45.52986" lon="6.05177">
        <ele>897.40002441406</ele>
        <time>2012-03-10T14:03:54.000Z</time>
      </trkpt>
      <trkpt lat="45.52988" lon="6.05193">
        <ele>896.40002441406</ele>
        <time>2012-03-10T14:04:03.000Z</time>
      </trkpt>
      <trkpt lat="45.52988" lon="6.05205">
        <ele>897.40002441406</ele>
        <time>2012-03-10T14:04:10.000Z</time>
      </trkpt>
      <trkpt lat="45.52987" lon="6.05225">
        <ele>898.40002441406</ele>
        <time>2012-03-10T14:04:20.000Z</time>
      </trkpt>
      <trkpt lat="45.52987" lon="6.05241">
        <ele>898.79998779297</ele>
        <time>2012-03-10T14:04:28.000Z</time>
      </trkpt>
      <trkpt lat="45.52987" lon="6.05258">
        <ele>898.79998779297</ele>
        <time>2012-03-10T14:04:37.000Z</time>
      </trkpt>
      <trkpt lat="45.52989" lon="6.05269">
        <ele>897</ele>
        <time>2012-03-10T14:04:43.000Z</time>
      </trkpt>
      <trkpt lat="45.5299" lon="6.05277">
        <ele>892.20001220703</ele>
        <time>2012-03-10T14:04:49.000Z</time>
      </trkpt>
      <trkpt lat="45.52989" lon="6.05285">
        <ele>889.20001220703</ele>
        <time>2012-03-10T14:04:54.000Z</time>
      </trkpt>
      <trkpt lat="45.52986" lon="6.05286">
        <ele>889.20001220703</ele>
        <time>2012-03-10T14:04:58.000Z</time>
      </trkpt>
      <trkpt lat="45.52985" lon="6.05289">
        <ele>889.79998779297</ele>
        <time>2012-03-10T14:05:06.000Z</time>
      </trkpt>
      <trkpt lat="45.52984" lon="6.0529">
        <ele>889.79998779297</ele>
        <time>2012-03-10T14:05:14.000Z</time>
      </trkpt>
      <trkpt lat="45.52984" lon="6.05294">
        <ele>889.20001220703</ele>
        <time>2012-03-10T14:05:19.000Z</time>
      </trkpt>
      <trkpt lat="45.52984" lon="6.05301">
        <ele>887.40002441406</ele>
        <time>2012-03-10T14:05:25.000Z</time>
      </trkpt>
      <trkpt lat="45.52986" lon="6.05308">
        <ele>885.79998779297</ele>
        <time>2012-03-10T14:05:29.000Z</time>
      </trkpt>
      <trkpt lat="45.52989" lon="6.05318">
        <ele>886.79998779297</ele>
        <time>2012-03-10T14:05:35.000Z</time>
      </trkpt>
      <trkpt lat="45.52992" lon="6.05325">
        <ele>885.79998779297</ele>
        <time>2012-03-10T14:05:40.000Z</time>
      </trkpt>
      <trkpt lat="45.52992" lon="6.05326">
        <ele>888.79998779297</ele>
        <time>2012-03-10T14:05:51.000Z</time>
      </trkpt>
      <trkpt lat="45.5299" lon="6.05322">
        <ele>890.20001220703</ele>
        <time>2012-03-10T14:06:08.000Z</time>
      </trkpt>
      <trkpt lat="45.52985" lon="6.05316">
        <ele>889.79998779297</ele>
        <time>2012-03-10T14:06:15.000Z</time>
      </trkpt>
      <trkpt lat="45.52983" lon="6.05315">
        <ele>889.79998779297</ele>
        <time>2012-03-10T14:06:17.000Z</time>
      </trkpt>
      <trkpt lat="45.52982" lon="6.05312">
        <ele>889.20001220703</ele>
        <time>2012-03-10T14:06:24.000Z</time>
      </trkpt>
      <trkpt lat="45.52982" lon="6.05311">
        <ele>890.20001220703</ele>
        <time>2012-03-10T14:06:29.000Z</time>
      </trkpt>
    </trkseg>
  </trk>
</gpx>